<?xml version="1.0" encoding="UTF-8" standalone="no" ?>
<gpx xmlns="http://www.topografix.com/GPX/1/1" xmlns:xsi="http://www.w3.org/2001/XMLSchema-instance" xsi:schemaLocation="http://www.topografix.com/GPX/1/1 http://www.topografix.com/GPX/1/1/gpx.xsd" version="1.1" creator="VisuGPX - https://www.visugpx.com">
  <metadata>
    <name>Entre Lacapelle-Biron et Monpazier</name>
    <desc><![CDATA[Un circuit roulant et ludique]]></desc>
  </metadata>
  <trk>
    <name><![CDATA[Entre Lacapelle-Biron et Monpazier_1]]></name>
    <trkseg>
      <trkpt lat="44.59995" lon="0.89572">
        <ele>148</ele>
        <time>2012-07-29T05:39:29Z</time>
      </trkpt>
      <trkpt lat="44.60009" lon="0.8954">
        <ele>158</ele>
        <time>2012-07-29T05:39:50Z</time>
      </trkpt>
      <trkpt lat="44.6002" lon="0.8953">
        <ele>158</ele>
        <time>2012-07-29T05:39:55Z</time>
      </trkpt>
      <trkpt lat="44.60035" lon="0.8952">
        <ele>157</ele>
        <time>2012-07-29T05:40:03Z</time>
      </trkpt>
      <trkpt lat="44.60052" lon="0.89511">
        <ele>155</ele>
        <time>2012-07-29T05:40:09Z</time>
      </trkpt>
      <trkpt lat="44.60065" lon="0.89505">
        <ele>155</ele>
        <time>2012-07-29T05:40:14Z</time>
      </trkpt>
      <trkpt lat="44.60075" lon="0.89493">
        <ele>154</ele>
        <time>2012-07-29T05:40:19Z</time>
      </trkpt>
      <trkpt lat="44.60081" lon="0.89481">
        <ele>154</ele>
        <time>2012-07-29T05:40:24Z</time>
      </trkpt>
      <trkpt lat="44.60091" lon="0.89457">
        <ele>154</ele>
        <time>2012-07-29T05:40:30Z</time>
      </trkpt>
      <trkpt lat="44.60095" lon="0.89447">
        <ele>154</ele>
        <time>2012-07-29T05:40:35Z</time>
      </trkpt>
      <trkpt lat="44.60105" lon="0.89428">
        <ele>154</ele>
        <time>2012-07-29T05:40:40Z</time>
      </trkpt>
      <trkpt lat="44.60114" lon="0.89407">
        <ele>154</ele>
        <time>2012-07-29T05:40:46Z</time>
      </trkpt>
      <trkpt lat="44.60117" lon="0.89395">
        <ele>154</ele>
        <time>2012-07-29T05:40:51Z</time>
      </trkpt>
      <trkpt lat="44.6012" lon="0.89367">
        <ele>154</ele>
        <time>2012-07-29T05:40:57Z</time>
      </trkpt>
      <trkpt lat="44.60124" lon="0.89336">
        <ele>155</ele>
        <time>2012-07-29T05:41:03Z</time>
      </trkpt>
      <trkpt lat="44.60132" lon="0.89303">
        <ele>155</ele>
        <time>2012-07-29T05:41:09Z</time>
      </trkpt>
      <trkpt lat="44.60156" lon="0.89303">
        <ele>155</ele>
        <time>2012-07-29T05:41:15Z</time>
      </trkpt>
      <trkpt lat="44.60187" lon="0.89279">
        <ele>155</ele>
        <time>2012-07-29T05:41:22Z</time>
      </trkpt>
      <trkpt lat="44.60207" lon="0.89263">
        <ele>155</ele>
        <time>2012-07-29T05:41:28Z</time>
      </trkpt>
      <trkpt lat="44.60225" lon="0.89249">
        <ele>155</ele>
        <time>2012-07-29T05:41:34Z</time>
      </trkpt>
      <trkpt lat="44.60247" lon="0.89243">
        <ele>155</ele>
        <time>2012-07-29T05:41:40Z</time>
      </trkpt>
      <trkpt lat="44.60272" lon="0.89234">
        <ele>155</ele>
        <time>2012-07-29T05:41:46Z</time>
      </trkpt>
      <trkpt lat="44.60299" lon="0.89214">
        <ele>155</ele>
        <time>2012-07-29T05:41:54Z</time>
      </trkpt>
      <trkpt lat="44.60317" lon="0.89181">
        <ele>155</ele>
        <time>2012-07-29T05:42:00Z</time>
      </trkpt>
      <trkpt lat="44.60338" lon="0.89157">
        <ele>155</ele>
        <time>2012-07-29T05:42:07Z</time>
      </trkpt>
      <trkpt lat="44.60356" lon="0.89143">
        <ele>155</ele>
        <time>2012-07-29T05:42:14Z</time>
      </trkpt>
      <trkpt lat="44.60379" lon="0.89129">
        <ele>155</ele>
        <time>2012-07-29T05:42:20Z</time>
      </trkpt>
      <trkpt lat="44.60398" lon="0.89118">
        <ele>155</ele>
        <time>2012-07-29T05:42:27Z</time>
      </trkpt>
      <trkpt lat="44.6042" lon="0.89106">
        <ele>156</ele>
        <time>2012-07-29T05:42:34Z</time>
      </trkpt>
      <trkpt lat="44.60451" lon="0.89082">
        <ele>159</ele>
        <time>2012-07-29T05:42:41Z</time>
      </trkpt>
      <trkpt lat="44.60462" lon="0.89074">
        <ele>162</ele>
        <time>2012-07-29T05:42:48Z</time>
      </trkpt>
      <trkpt lat="44.6048" lon="0.89066">
        <ele>164</ele>
        <time>2012-07-29T05:42:55Z</time>
      </trkpt>
      <trkpt lat="44.60503" lon="0.89056">
        <ele>164</ele>
        <time>2012-07-29T05:43:02Z</time>
      </trkpt>
      <trkpt lat="44.60534" lon="0.8903">
        <ele>164</ele>
        <time>2012-07-29T05:43:11Z</time>
      </trkpt>
      <trkpt lat="44.60569" lon="0.89012">
        <ele>164</ele>
        <time>2012-07-29T05:43:18Z</time>
      </trkpt>
      <trkpt lat="44.60601" lon="0.89002">
        <ele>164</ele>
        <time>2012-07-29T05:43:24Z</time>
      </trkpt>
      <trkpt lat="44.6063" lon="0.88994">
        <ele>164</ele>
        <time>2012-07-29T05:43:30Z</time>
      </trkpt>
      <trkpt lat="44.6067" lon="0.88983">
        <ele>164</ele>
        <time>2012-07-29T05:43:37Z</time>
      </trkpt>
      <trkpt lat="44.60683" lon="0.88977">
        <ele>166</ele>
        <time>2012-07-29T05:43:43Z</time>
      </trkpt>
      <trkpt lat="44.60717" lon="0.88961">
        <ele>169</ele>
        <time>2012-07-29T05:43:49Z</time>
      </trkpt>
      <trkpt lat="44.60767" lon="0.88936">
        <ele>171</ele>
        <time>2012-07-29T05:43:56Z</time>
      </trkpt>
      <trkpt lat="44.60783" lon="0.88928">
        <ele>172</ele>
        <time>2012-07-29T05:44:02Z</time>
      </trkpt>
      <trkpt lat="44.60814" lon="0.88907">
        <ele>172</ele>
        <time>2012-07-29T05:44:09Z</time>
      </trkpt>
      <trkpt lat="44.60839" lon="0.88888">
        <ele>173</ele>
        <time>2012-07-29T05:44:15Z</time>
      </trkpt>
      <trkpt lat="44.60888" lon="0.88851">
        <ele>175</ele>
        <time>2012-07-29T05:44:22Z</time>
      </trkpt>
      <trkpt lat="44.60923" lon="0.88825">
        <ele>175</ele>
        <time>2012-07-29T05:44:29Z</time>
      </trkpt>
      <trkpt lat="44.6094" lon="0.88809">
        <ele>175</ele>
        <time>2012-07-29T05:44:35Z</time>
      </trkpt>
      <trkpt lat="44.60979" lon="0.88775">
        <ele>173</ele>
        <time>2012-07-29T05:44:42Z</time>
      </trkpt>
      <trkpt lat="44.61012" lon="0.88749">
        <ele>170</ele>
        <time>2012-07-29T05:44:49Z</time>
      </trkpt>
      <trkpt lat="44.6104" lon="0.88714">
        <ele>170</ele>
        <time>2012-07-29T05:44:58Z</time>
      </trkpt>
      <trkpt lat="44.61037" lon="0.88667">
        <ele>171</ele>
        <time>2012-07-29T05:45:06Z</time>
      </trkpt>
      <trkpt lat="44.61041" lon="0.88612">
        <ele>180</ele>
        <time>2012-07-29T05:45:16Z</time>
      </trkpt>
      <trkpt lat="44.61034" lon="0.88562">
        <ele>185</ele>
        <time>2012-07-29T05:45:24Z</time>
      </trkpt>
      <trkpt lat="44.61026" lon="0.88548">
        <ele>187</ele>
        <time>2012-07-29T05:45:30Z</time>
      </trkpt>
      <trkpt lat="44.61016" lon="0.88529">
        <ele>187</ele>
        <time>2012-07-29T05:45:35Z</time>
      </trkpt>
      <trkpt lat="44.61004" lon="0.88515">
        <ele>187</ele>
        <time>2012-07-29T05:45:41Z</time>
      </trkpt>
      <trkpt lat="44.61002" lon="0.88511">
        <ele>185</ele>
        <time>2012-07-29T05:45:52Z</time>
      </trkpt>
      <trkpt lat="44.61001" lon="0.88505">
        <ele>184</ele>
        <time>2012-07-29T05:45:58Z</time>
      </trkpt>
      <trkpt lat="44.60994" lon="0.88476">
        <ele>184</ele>
        <time>2012-07-29T05:46:06Z</time>
      </trkpt>
      <trkpt lat="44.60979" lon="0.88447">
        <ele>185</ele>
        <time>2012-07-29T05:46:12Z</time>
      </trkpt>
      <trkpt lat="44.60965" lon="0.88427">
        <ele>189</ele>
        <time>2012-07-29T05:46:19Z</time>
      </trkpt>
      <trkpt lat="44.60951" lon="0.88412">
        <ele>194</ele>
        <time>2012-07-29T05:46:28Z</time>
      </trkpt>
      <trkpt lat="44.60936" lon="0.88396">
        <ele>198</ele>
        <time>2012-07-29T05:46:36Z</time>
      </trkpt>
      <trkpt lat="44.60923" lon="0.88366">
        <ele>202</ele>
        <time>2012-07-29T05:46:45Z</time>
      </trkpt>
      <trkpt lat="44.60912" lon="0.88364">
        <ele>202</ele>
        <time>2012-07-29T05:46:52Z</time>
      </trkpt>
      <trkpt lat="44.6089" lon="0.88359">
        <ele>199</ele>
        <time>2012-07-29T05:46:59Z</time>
      </trkpt>
      <trkpt lat="44.60867" lon="0.88355">
        <ele>196</ele>
        <time>2012-07-29T05:47:06Z</time>
      </trkpt>
      <trkpt lat="44.60829" lon="0.88276">
        <ele>189</ele>
        <time>2012-07-29T05:47:15Z</time>
      </trkpt>
      <trkpt lat="44.60835" lon="0.88224">
        <ele>189</ele>
        <time>2012-07-29T05:47:22Z</time>
      </trkpt>
      <trkpt lat="44.60836" lon="0.88161">
        <ele>192</ele>
        <time>2012-07-29T05:47:28Z</time>
      </trkpt>
      <trkpt lat="44.608" lon="0.88157">
        <ele>194</ele>
        <time>2012-07-29T05:47:38Z</time>
      </trkpt>
      <trkpt lat="44.60737" lon="0.88142">
        <ele>190</ele>
        <time>2012-07-29T05:47:46Z</time>
      </trkpt>
      <trkpt lat="44.60688" lon="0.88119">
        <ele>185</ele>
        <time>2012-07-29T05:47:53Z</time>
      </trkpt>
      <trkpt lat="44.60649" lon="0.88053">
        <ele>182</ele>
        <time>2012-07-29T05:48:00Z</time>
      </trkpt>
      <trkpt lat="44.60617" lon="0.87977">
        <ele>182</ele>
        <time>2012-07-29T05:48:07Z</time>
      </trkpt>
      <trkpt lat="44.60595" lon="0.87911">
        <ele>180</ele>
        <time>2012-07-29T05:48:14Z</time>
      </trkpt>
      <trkpt lat="44.60588" lon="0.87889">
        <ele>177</ele>
        <time>2012-07-29T05:48:21Z</time>
      </trkpt>
      <trkpt lat="44.6059" lon="0.87878">
        <ele>173</ele>
        <time>2012-07-29T05:48:29Z</time>
      </trkpt>
      <trkpt lat="44.60611" lon="0.8784">
        <ele>171</ele>
        <time>2012-07-29T05:48:37Z</time>
      </trkpt>
      <trkpt lat="44.60621" lon="0.87827">
        <ele>170</ele>
        <time>2012-07-29T05:48:44Z</time>
      </trkpt>
      <trkpt lat="44.6065" lon="0.87792">
        <ele>168</ele>
        <time>2012-07-29T05:48:51Z</time>
      </trkpt>
      <trkpt lat="44.6068" lon="0.87769">
        <ele>166</ele>
        <time>2012-07-29T05:48:57Z</time>
      </trkpt>
      <trkpt lat="44.60701" lon="0.87697">
        <ele>162</ele>
        <time>2012-07-29T05:49:04Z</time>
      </trkpt>
      <trkpt lat="44.60719" lon="0.87643">
        <ele>160</ele>
        <time>2012-07-29T05:49:10Z</time>
      </trkpt>
      <trkpt lat="44.60752" lon="0.87606">
        <ele>158</ele>
        <time>2012-07-29T05:49:18Z</time>
      </trkpt>
      <trkpt lat="44.6077" lon="0.87611">
        <ele>157</ele>
        <time>2012-07-29T05:49:25Z</time>
      </trkpt>
      <trkpt lat="44.60813" lon="0.87588">
        <ele>156</ele>
        <time>2012-07-29T05:49:32Z</time>
      </trkpt>
      <trkpt lat="44.60843" lon="0.87564">
        <ele>155</ele>
        <time>2012-07-29T05:49:38Z</time>
      </trkpt>
      <trkpt lat="44.60871" lon="0.87488">
        <ele>155</ele>
        <time>2012-07-29T05:49:47Z</time>
      </trkpt>
      <trkpt lat="44.60873" lon="0.87474">
        <ele>155</ele>
        <time>2012-07-29T05:49:53Z</time>
      </trkpt>
      <trkpt lat="44.60879" lon="0.87448">
        <ele>155</ele>
        <time>2012-07-29T05:49:59Z</time>
      </trkpt>
      <trkpt lat="44.60885" lon="0.87422">
        <ele>155</ele>
        <time>2012-07-29T05:50:06Z</time>
      </trkpt>
      <trkpt lat="44.60896" lon="0.87395">
        <ele>155</ele>
        <time>2012-07-29T05:50:12Z</time>
      </trkpt>
      <trkpt lat="44.60927" lon="0.87368">
        <ele>155</ele>
        <time>2012-07-29T05:50:20Z</time>
      </trkpt>
      <trkpt lat="44.60934" lon="0.87356">
        <ele>155</ele>
        <time>2012-07-29T05:50:26Z</time>
      </trkpt>
      <trkpt lat="44.60949" lon="0.87332">
        <ele>156</ele>
        <time>2012-07-29T05:50:33Z</time>
      </trkpt>
      <trkpt lat="44.60974" lon="0.87292">
        <ele>156</ele>
        <time>2012-07-29T05:50:40Z</time>
      </trkpt>
      <trkpt lat="44.60979" lon="0.87283">
        <ele>156</ele>
        <time>2012-07-29T05:50:46Z</time>
      </trkpt>
      <trkpt lat="44.60991" lon="0.87255">
        <ele>156</ele>
        <time>2012-07-29T05:50:53Z</time>
      </trkpt>
      <trkpt lat="44.61013" lon="0.87211">
        <ele>156</ele>
        <time>2012-07-29T05:51:00Z</time>
      </trkpt>
      <trkpt lat="44.61021" lon="0.87196">
        <ele>158</ele>
        <time>2012-07-29T05:51:06Z</time>
      </trkpt>
      <trkpt lat="44.61032" lon="0.87166">
        <ele>161</ele>
        <time>2012-07-29T05:51:13Z</time>
      </trkpt>
      <trkpt lat="44.61052" lon="0.87152">
        <ele>163</ele>
        <time>2012-07-29T05:51:22Z</time>
      </trkpt>
      <trkpt lat="44.61078" lon="0.87171">
        <ele>163</ele>
        <time>2012-07-29T05:51:29Z</time>
      </trkpt>
      <trkpt lat="44.6109" lon="0.87178">
        <ele>163</ele>
        <time>2012-07-29T05:51:36Z</time>
      </trkpt>
      <trkpt lat="44.61105" lon="0.87188">
        <ele>163</ele>
        <time>2012-07-29T05:51:43Z</time>
      </trkpt>
      <trkpt lat="44.61115" lon="0.87192">
        <ele>163</ele>
        <time>2012-07-29T05:51:50Z</time>
      </trkpt>
      <trkpt lat="44.61129" lon="0.87203">
        <ele>163</ele>
        <time>2012-07-29T05:51:57Z</time>
      </trkpt>
      <trkpt lat="44.61146" lon="0.87211">
        <ele>163</ele>
        <time>2012-07-29T05:52:04Z</time>
      </trkpt>
      <trkpt lat="44.61166" lon="0.87224">
        <ele>164</ele>
        <time>2012-07-29T05:52:11Z</time>
      </trkpt>
      <trkpt lat="44.61197" lon="0.87242">
        <ele>164</ele>
        <time>2012-07-29T05:52:18Z</time>
      </trkpt>
      <trkpt lat="44.61222" lon="0.87262">
        <ele>164</ele>
        <time>2012-07-29T05:52:26Z</time>
      </trkpt>
      <trkpt lat="44.61247" lon="0.87279">
        <ele>164</ele>
        <time>2012-07-29T05:52:33Z</time>
      </trkpt>
      <trkpt lat="44.61308" lon="0.8728">
        <ele>164</ele>
        <time>2012-07-29T05:52:42Z</time>
      </trkpt>
      <trkpt lat="44.61345" lon="0.87269">
        <ele>164</ele>
        <time>2012-07-29T05:52:49Z</time>
      </trkpt>
      <trkpt lat="44.61377" lon="0.87277">
        <ele>164</ele>
        <time>2012-07-29T05:52:56Z</time>
      </trkpt>
      <trkpt lat="44.6139" lon="0.87284">
        <ele>162</ele>
        <time>2012-07-29T05:53:03Z</time>
      </trkpt>
      <trkpt lat="44.61417" lon="0.87298">
        <ele>162</ele>
        <time>2012-07-29T05:53:10Z</time>
      </trkpt>
      <trkpt lat="44.61451" lon="0.87302">
        <ele>162</ele>
        <time>2012-07-29T05:53:18Z</time>
      </trkpt>
      <trkpt lat="44.61488" lon="0.87317">
        <ele>161</ele>
        <time>2012-07-29T05:53:26Z</time>
      </trkpt>
      <trkpt lat="44.61519" lon="0.87327">
        <ele>160</ele>
        <time>2012-07-29T05:53:32Z</time>
      </trkpt>
      <trkpt lat="44.61561" lon="0.87354">
        <ele>160</ele>
        <time>2012-07-29T05:53:40Z</time>
      </trkpt>
      <trkpt lat="44.61575" lon="0.87361">
        <ele>160</ele>
        <time>2012-07-29T05:53:47Z</time>
      </trkpt>
      <trkpt lat="44.61593" lon="0.87371">
        <ele>160</ele>
        <time>2012-07-29T05:53:54Z</time>
      </trkpt>
      <trkpt lat="44.61619" lon="0.87384">
        <ele>160</ele>
        <time>2012-07-29T05:54:02Z</time>
      </trkpt>
      <trkpt lat="44.61651" lon="0.87406">
        <ele>160</ele>
        <time>2012-07-29T05:54:08Z</time>
      </trkpt>
      <trkpt lat="44.6169" lon="0.87429">
        <ele>159</ele>
        <time>2012-07-29T05:54:14Z</time>
      </trkpt>
      <trkpt lat="44.61713" lon="0.87451">
        <ele>157</ele>
        <time>2012-07-29T05:54:20Z</time>
      </trkpt>
      <trkpt lat="44.61739" lon="0.87459">
        <ele>157</ele>
        <time>2012-07-29T05:54:28Z</time>
      </trkpt>
      <trkpt lat="44.61762" lon="0.87466">
        <ele>157</ele>
        <time>2012-07-29T05:54:34Z</time>
      </trkpt>
      <trkpt lat="44.61769" lon="0.87464">
        <ele>158</ele>
        <time>2012-07-29T05:54:40Z</time>
      </trkpt>
      <trkpt lat="44.61787" lon="0.87455">
        <ele>161</ele>
        <time>2012-07-29T05:54:46Z</time>
      </trkpt>
      <trkpt lat="44.61808" lon="0.87458">
        <ele>167</ele>
        <time>2012-07-29T05:54:55Z</time>
      </trkpt>
      <trkpt lat="44.61833" lon="0.87442">
        <ele>169</ele>
        <time>2012-07-29T05:55:02Z</time>
      </trkpt>
      <trkpt lat="44.61846" lon="0.87433">
        <ele>169</ele>
        <time>2012-07-29T05:55:08Z</time>
      </trkpt>
      <trkpt lat="44.61871" lon="0.87416">
        <ele>171</ele>
        <time>2012-07-29T05:55:15Z</time>
      </trkpt>
      <trkpt lat="44.61882" lon="0.87408">
        <ele>172</ele>
        <time>2012-07-29T05:55:21Z</time>
      </trkpt>
      <trkpt lat="44.61909" lon="0.8739">
        <ele>173</ele>
        <time>2012-07-29T05:55:27Z</time>
      </trkpt>
      <trkpt lat="44.61928" lon="0.87383">
        <ele>174</ele>
        <time>2012-07-29T05:55:33Z</time>
      </trkpt>
      <trkpt lat="44.6195" lon="0.87387">
        <ele>176</ele>
        <time>2012-07-29T05:55:41Z</time>
      </trkpt>
      <trkpt lat="44.61967" lon="0.87398">
        <ele>177</ele>
        <time>2012-07-29T05:55:49Z</time>
      </trkpt>
      <trkpt lat="44.61992" lon="0.87406">
        <ele>177</ele>
        <time>2012-07-29T05:55:56Z</time>
      </trkpt>
      <trkpt lat="44.62022" lon="0.87414">
        <ele>177</ele>
        <time>2012-07-29T05:56:02Z</time>
      </trkpt>
      <trkpt lat="44.62056" lon="0.87423">
        <ele>174</ele>
        <time>2012-07-29T05:56:10Z</time>
      </trkpt>
      <trkpt lat="44.6209" lon="0.87434">
        <ele>173</ele>
        <time>2012-07-29T05:56:16Z</time>
      </trkpt>
      <trkpt lat="44.62125" lon="0.87426">
        <ele>172</ele>
        <time>2012-07-29T05:56:23Z</time>
      </trkpt>
      <trkpt lat="44.6217" lon="0.87427">
        <ele>171</ele>
        <time>2012-07-29T05:56:31Z</time>
      </trkpt>
      <trkpt lat="44.62188" lon="0.87424">
        <ele>171</ele>
        <time>2012-07-29T05:56:37Z</time>
      </trkpt>
      <trkpt lat="44.62224" lon="0.87436">
        <ele>167</ele>
        <time>2012-07-29T05:56:45Z</time>
      </trkpt>
      <trkpt lat="44.62254" lon="0.87444">
        <ele>165</ele>
        <time>2012-07-29T05:56:51Z</time>
      </trkpt>
      <trkpt lat="44.62281" lon="0.87454">
        <ele>165</ele>
        <time>2012-07-29T05:56:58Z</time>
      </trkpt>
      <trkpt lat="44.62307" lon="0.87467">
        <ele>166</ele>
        <time>2012-07-29T05:57:04Z</time>
      </trkpt>
      <trkpt lat="44.62325" lon="0.87466">
        <ele>169</ele>
        <time>2012-07-29T05:57:12Z</time>
      </trkpt>
      <trkpt lat="44.62336" lon="0.87447">
        <ele>172</ele>
        <time>2012-07-29T05:57:19Z</time>
      </trkpt>
      <trkpt lat="44.62354" lon="0.87411">
        <ele>175</ele>
        <time>2012-07-29T05:57:26Z</time>
      </trkpt>
      <trkpt lat="44.62363" lon="0.87394">
        <ele>176</ele>
        <time>2012-07-29T05:57:33Z</time>
      </trkpt>
      <trkpt lat="44.62384" lon="0.87362">
        <ele>180</ele>
        <time>2012-07-29T05:57:41Z</time>
      </trkpt>
      <trkpt lat="44.62395" lon="0.87328">
        <ele>181</ele>
        <time>2012-07-29T05:57:49Z</time>
      </trkpt>
      <trkpt lat="44.62416" lon="0.87296">
        <ele>181</ele>
        <time>2012-07-29T05:57:58Z</time>
      </trkpt>
      <trkpt lat="44.6243" lon="0.87248">
        <ele>184</ele>
        <time>2012-07-29T05:58:05Z</time>
      </trkpt>
      <trkpt lat="44.62443" lon="0.87208">
        <ele>189</ele>
        <time>2012-07-29T05:58:14Z</time>
      </trkpt>
      <trkpt lat="44.62462" lon="0.87176">
        <ele>190</ele>
        <time>2012-07-29T05:58:21Z</time>
      </trkpt>
      <trkpt lat="44.625" lon="0.87187">
        <ele>185</ele>
        <time>2012-07-29T05:58:29Z</time>
      </trkpt>
      <trkpt lat="44.62524" lon="0.872">
        <ele>179</ele>
        <time>2012-07-29T05:58:36Z</time>
      </trkpt>
      <trkpt lat="44.62534" lon="0.87209">
        <ele>176</ele>
        <time>2012-07-29T05:58:43Z</time>
      </trkpt>
      <trkpt lat="44.6255" lon="0.87225">
        <ele>173</ele>
        <time>2012-07-29T05:58:50Z</time>
      </trkpt>
      <trkpt lat="44.62573" lon="0.87251">
        <ele>173</ele>
        <time>2012-07-29T05:58:57Z</time>
      </trkpt>
      <trkpt lat="44.6259" lon="0.87269">
        <ele>173</ele>
        <time>2012-07-29T05:59:04Z</time>
      </trkpt>
      <trkpt lat="44.62597" lon="0.87278">
        <ele>173</ele>
        <time>2012-07-29T05:59:10Z</time>
      </trkpt>
      <trkpt lat="44.62615" lon="0.8728">
        <ele>173</ele>
        <time>2012-07-29T05:59:19Z</time>
      </trkpt>
      <trkpt lat="44.62616" lon="0.87283">
        <ele>173</ele>
        <time>2012-07-29T05:59:28Z</time>
      </trkpt>
      <trkpt lat="44.62614" lon="0.87291">
        <ele>173</ele>
        <time>2012-07-29T05:59:36Z</time>
      </trkpt>
      <trkpt lat="44.62613" lon="0.8729">
        <ele>173</ele>
        <time>2012-07-29T05:59:47Z</time>
      </trkpt>
      <trkpt lat="44.62612" lon="0.87291">
        <ele>173</ele>
        <time>2012-07-29T05:59:54Z</time>
      </trkpt>
      <trkpt lat="44.62611" lon="0.87293">
        <ele>173</ele>
        <time>2012-07-29T06:00:11Z</time>
      </trkpt>
      <trkpt lat="44.62611" lon="0.87295">
        <ele>173</ele>
        <time>2012-07-29T06:00:21Z</time>
      </trkpt>
      <trkpt lat="44.62613" lon="0.87295">
        <ele>173</ele>
        <time>2012-07-29T06:00:30Z</time>
      </trkpt>
      <trkpt lat="44.62613" lon="0.87294">
        <ele>173</ele>
        <time>2012-07-29T06:00:41Z</time>
      </trkpt>
      <trkpt lat="44.62615" lon="0.87296">
        <ele>173</ele>
        <time>2012-07-29T06:00:48Z</time>
      </trkpt>
      <trkpt lat="44.62616" lon="0.87295">
        <ele>173</ele>
        <time>2012-07-29T06:00:56Z</time>
      </trkpt>
      <trkpt lat="44.62617" lon="0.87291">
        <ele>172</ele>
        <time>2012-07-29T06:01:22Z</time>
      </trkpt>
      <trkpt lat="44.62624" lon="0.87268">
        <ele>171</ele>
        <time>2012-07-29T06:01:29Z</time>
      </trkpt>
      <trkpt lat="44.62652" lon="0.8726">
        <ele>171</ele>
        <time>2012-07-29T06:01:38Z</time>
      </trkpt>
      <trkpt lat="44.62687" lon="0.87266">
        <ele>171</ele>
        <time>2012-07-29T06:01:45Z</time>
      </trkpt>
      <trkpt lat="44.62709" lon="0.87273">
        <ele>171</ele>
        <time>2012-07-29T06:01:52Z</time>
      </trkpt>
      <trkpt lat="44.62721" lon="0.87278">
        <ele>171</ele>
        <time>2012-07-29T06:01:59Z</time>
      </trkpt>
      <trkpt lat="44.62739" lon="0.87288">
        <ele>172</ele>
        <time>2012-07-29T06:02:06Z</time>
      </trkpt>
      <trkpt lat="44.62758" lon="0.87306">
        <ele>176</ele>
        <time>2012-07-29T06:02:14Z</time>
      </trkpt>
      <trkpt lat="44.62779" lon="0.87326">
        <ele>176</ele>
        <time>2012-07-29T06:02:21Z</time>
      </trkpt>
      <trkpt lat="44.62811" lon="0.87339">
        <ele>176</ele>
        <time>2012-07-29T06:02:29Z</time>
      </trkpt>
      <trkpt lat="44.62824" lon="0.87343">
        <ele>176</ele>
        <time>2012-07-29T06:02:36Z</time>
      </trkpt>
      <trkpt lat="44.62857" lon="0.8735">
        <ele>173</ele>
        <time>2012-07-29T06:02:44Z</time>
      </trkpt>
      <trkpt lat="44.62888" lon="0.8733">
        <ele>173</ele>
        <time>2012-07-29T06:02:52Z</time>
      </trkpt>
      <trkpt lat="44.62914" lon="0.87316">
        <ele>173</ele>
        <time>2012-07-29T06:03:00Z</time>
      </trkpt>
      <trkpt lat="44.62935" lon="0.87315">
        <ele>173</ele>
        <time>2012-07-29T06:03:07Z</time>
      </trkpt>
      <trkpt lat="44.62956" lon="0.87312">
        <ele>173</ele>
        <time>2012-07-29T06:03:14Z</time>
      </trkpt>
      <trkpt lat="44.62976" lon="0.87306">
        <ele>174</ele>
        <time>2012-07-29T06:03:24Z</time>
      </trkpt>
      <trkpt lat="44.62989" lon="0.87314">
        <ele>175</ele>
        <time>2012-07-29T06:03:30Z</time>
      </trkpt>
      <trkpt lat="44.63011" lon="0.87326">
        <ele>178</ele>
        <time>2012-07-29T06:03:38Z</time>
      </trkpt>
      <trkpt lat="44.6302" lon="0.87335">
        <ele>180</ele>
        <time>2012-07-29T06:03:45Z</time>
      </trkpt>
      <trkpt lat="44.63038" lon="0.87347">
        <ele>182</ele>
        <time>2012-07-29T06:03:52Z</time>
      </trkpt>
      <trkpt lat="44.63054" lon="0.87338">
        <ele>186</ele>
        <time>2012-07-29T06:04:01Z</time>
      </trkpt>
      <trkpt lat="44.63073" lon="0.87309">
        <ele>186</ele>
        <time>2012-07-29T06:04:09Z</time>
      </trkpt>
      <trkpt lat="44.63075" lon="0.87277">
        <ele>188</ele>
        <time>2012-07-29T06:04:17Z</time>
      </trkpt>
      <trkpt lat="44.63076" lon="0.87236">
        <ele>191</ele>
        <time>2012-07-29T06:04:25Z</time>
      </trkpt>
      <trkpt lat="44.6308" lon="0.87211">
        <ele>192</ele>
        <time>2012-07-29T06:04:32Z</time>
      </trkpt>
      <trkpt lat="44.63081" lon="0.87197">
        <ele>193</ele>
        <time>2012-07-29T06:04:39Z</time>
      </trkpt>
      <trkpt lat="44.63087" lon="0.8717">
        <ele>193</ele>
        <time>2012-07-29T06:04:46Z</time>
      </trkpt>
      <trkpt lat="44.63097" lon="0.87145">
        <ele>194</ele>
        <time>2012-07-29T06:04:54Z</time>
      </trkpt>
      <trkpt lat="44.63114" lon="0.87128">
        <ele>195</ele>
        <time>2012-07-29T06:05:02Z</time>
      </trkpt>
      <trkpt lat="44.63135" lon="0.87118">
        <ele>195</ele>
        <time>2012-07-29T06:05:09Z</time>
      </trkpt>
      <trkpt lat="44.63158" lon="0.87112">
        <ele>195</ele>
        <time>2012-07-29T06:05:16Z</time>
      </trkpt>
      <trkpt lat="44.63182" lon="0.87111">
        <ele>195</ele>
        <time>2012-07-29T06:05:24Z</time>
      </trkpt>
      <trkpt lat="44.63208" lon="0.87117">
        <ele>195</ele>
        <time>2012-07-29T06:05:31Z</time>
      </trkpt>
      <trkpt lat="44.63226" lon="0.87126">
        <ele>195</ele>
        <time>2012-07-29T06:05:38Z</time>
      </trkpt>
      <trkpt lat="44.63244" lon="0.87106">
        <ele>195</ele>
        <time>2012-07-29T06:05:47Z</time>
      </trkpt>
      <trkpt lat="44.63281" lon="0.87036">
        <ele>194</ele>
        <time>2012-07-29T06:05:55Z</time>
      </trkpt>
      <trkpt lat="44.63296" lon="0.87009">
        <ele>192</ele>
        <time>2012-07-29T06:06:02Z</time>
      </trkpt>
      <trkpt lat="44.63361" lon="0.86961">
        <ele>184</ele>
        <time>2012-07-29T06:06:09Z</time>
      </trkpt>
      <trkpt lat="44.63395" lon="0.86954">
        <ele>178</ele>
        <time>2012-07-29T06:06:15Z</time>
      </trkpt>
      <trkpt lat="44.63404" lon="0.86945">
        <ele>170</ele>
        <time>2012-07-29T06:06:24Z</time>
      </trkpt>
      <trkpt lat="44.63408" lon="0.86941">
        <ele>171</ele>
        <time>2012-07-29T06:06:32Z</time>
      </trkpt>
      <trkpt lat="44.63402" lon="0.86946">
        <ele>174</ele>
        <time>2012-07-29T06:06:43Z</time>
      </trkpt>
      <trkpt lat="44.63404" lon="0.86945">
        <ele>174</ele>
        <time>2012-07-29T06:06:49Z</time>
      </trkpt>
      <trkpt lat="44.63404" lon="0.86946">
        <ele>174</ele>
        <time>2012-07-29T06:06:58Z</time>
      </trkpt>
      <trkpt lat="44.63404" lon="0.86949">
        <ele>174</ele>
        <time>2012-07-29T06:07:04Z</time>
      </trkpt>
      <trkpt lat="44.63408" lon="0.86949">
        <ele>174</ele>
        <time>2012-07-29T06:07:11Z</time>
      </trkpt>
      <trkpt lat="44.6341" lon="0.86948">
        <ele>174</ele>
        <time>2012-07-29T06:07:19Z</time>
      </trkpt>
      <trkpt lat="44.63421" lon="0.86943">
        <ele>174</ele>
        <time>2012-07-29T06:07:25Z</time>
      </trkpt>
      <trkpt lat="44.63443" lon="0.86929">
        <ele>174</ele>
        <time>2012-07-29T06:07:31Z</time>
      </trkpt>
      <trkpt lat="44.63469" lon="0.86911">
        <ele>173</ele>
        <time>2012-07-29T06:07:37Z</time>
      </trkpt>
      <trkpt lat="44.6347" lon="0.86873">
        <ele>173</ele>
        <time>2012-07-29T06:07:45Z</time>
      </trkpt>
      <trkpt lat="44.63488" lon="0.86839">
        <ele>174</ele>
        <time>2012-07-29T06:07:53Z</time>
      </trkpt>
      <trkpt lat="44.6351" lon="0.86832">
        <ele>174</ele>
        <time>2012-07-29T06:07:59Z</time>
      </trkpt>
      <trkpt lat="44.63534" lon="0.86817">
        <ele>174</ele>
        <time>2012-07-29T06:08:06Z</time>
      </trkpt>
      <trkpt lat="44.63541" lon="0.86804">
        <ele>175</ele>
        <time>2012-07-29T06:08:12Z</time>
      </trkpt>
      <trkpt lat="44.63553" lon="0.86782">
        <ele>177</ele>
        <time>2012-07-29T06:08:19Z</time>
      </trkpt>
      <trkpt lat="44.63555" lon="0.86768">
        <ele>181</ele>
        <time>2012-07-29T06:08:27Z</time>
      </trkpt>
      <trkpt lat="44.63564" lon="0.86747">
        <ele>185</ele>
        <time>2012-07-29T06:08:34Z</time>
      </trkpt>
      <trkpt lat="44.63574" lon="0.86729">
        <ele>188</ele>
        <time>2012-07-29T06:08:40Z</time>
      </trkpt>
      <trkpt lat="44.63586" lon="0.86687">
        <ele>192</ele>
        <time>2012-07-29T06:08:48Z</time>
      </trkpt>
      <trkpt lat="44.63588" lon="0.86674">
        <ele>194</ele>
        <time>2012-07-29T06:08:54Z</time>
      </trkpt>
      <trkpt lat="44.63601" lon="0.86642">
        <ele>198</ele>
        <time>2012-07-29T06:09:02Z</time>
      </trkpt>
      <trkpt lat="44.63608" lon="0.86621">
        <ele>203</ele>
        <time>2012-07-29T06:09:11Z</time>
      </trkpt>
      <trkpt lat="44.63611" lon="0.86611">
        <ele>205</ele>
        <time>2012-07-29T06:09:17Z</time>
      </trkpt>
      <trkpt lat="44.63623" lon="0.8658">
        <ele>208</ele>
        <time>2012-07-29T06:09:26Z</time>
      </trkpt>
      <trkpt lat="44.63633" lon="0.86561">
        <ele>208</ele>
        <time>2012-07-29T06:09:32Z</time>
      </trkpt>
      <trkpt lat="44.63647" lon="0.86554">
        <ele>208</ele>
        <time>2012-07-29T06:09:38Z</time>
      </trkpt>
      <trkpt lat="44.63681" lon="0.86532">
        <ele>207</ele>
        <time>2012-07-29T06:09:46Z</time>
      </trkpt>
      <trkpt lat="44.63691" lon="0.86503">
        <ele>203</ele>
        <time>2012-07-29T06:09:54Z</time>
      </trkpt>
      <trkpt lat="44.63705" lon="0.86499">
        <ele>198</ele>
        <time>2012-07-29T06:10:02Z</time>
      </trkpt>
      <trkpt lat="44.63705" lon="0.86497">
        <ele>193</ele>
        <time>2012-07-29T06:10:11Z</time>
      </trkpt>
      <trkpt lat="44.63711" lon="0.86486">
        <ele>190</ele>
        <time>2012-07-29T06:10:17Z</time>
      </trkpt>
      <trkpt lat="44.63721" lon="0.86471">
        <ele>187</ele>
        <time>2012-07-29T06:10:24Z</time>
      </trkpt>
      <trkpt lat="44.63732" lon="0.86451">
        <ele>184</ele>
        <time>2012-07-29T06:10:30Z</time>
      </trkpt>
      <trkpt lat="44.63742" lon="0.86428">
        <ele>181</ele>
        <time>2012-07-29T06:10:36Z</time>
      </trkpt>
      <trkpt lat="44.63764" lon="0.86391">
        <ele>178</ele>
        <time>2012-07-29T06:10:43Z</time>
      </trkpt>
      <trkpt lat="44.63776" lon="0.86373">
        <ele>175</ele>
        <time>2012-07-29T06:10:49Z</time>
      </trkpt>
      <trkpt lat="44.6379" lon="0.8635">
        <ele>174</ele>
        <time>2012-07-29T06:10:55Z</time>
      </trkpt>
      <trkpt lat="44.63803" lon="0.86327">
        <ele>174</ele>
        <time>2012-07-29T06:11:02Z</time>
      </trkpt>
      <trkpt lat="44.63821" lon="0.863">
        <ele>173</ele>
        <time>2012-07-29T06:11:08Z</time>
      </trkpt>
      <trkpt lat="44.63839" lon="0.86276">
        <ele>171</ele>
        <time>2012-07-29T06:11:16Z</time>
      </trkpt>
      <trkpt lat="44.63857" lon="0.86243">
        <ele>170</ele>
        <time>2012-07-29T06:11:23Z</time>
      </trkpt>
      <trkpt lat="44.63872" lon="0.86213">
        <ele>169</ele>
        <time>2012-07-29T06:11:28Z</time>
      </trkpt>
      <trkpt lat="44.63884" lon="0.86187">
        <ele>169</ele>
        <time>2012-07-29T06:11:35Z</time>
      </trkpt>
      <trkpt lat="44.63905" lon="0.8615">
        <ele>169</ele>
        <time>2012-07-29T06:11:42Z</time>
      </trkpt>
      <trkpt lat="44.63915" lon="0.86125">
        <ele>169</ele>
        <time>2012-07-29T06:11:50Z</time>
      </trkpt>
      <trkpt lat="44.63927" lon="0.86102">
        <ele>172</ele>
        <time>2012-07-29T06:11:58Z</time>
      </trkpt>
      <trkpt lat="44.6395" lon="0.86028">
        <ele>176</ele>
        <time>2012-07-29T06:12:06Z</time>
      </trkpt>
      <trkpt lat="44.63956" lon="0.86014">
        <ele>177</ele>
        <time>2012-07-29T06:12:12Z</time>
      </trkpt>
      <trkpt lat="44.6398" lon="0.85981">
        <ele>177</ele>
        <time>2012-07-29T06:12:19Z</time>
      </trkpt>
      <trkpt lat="44.64" lon="0.85953">
        <ele>177</ele>
        <time>2012-07-29T06:12:27Z</time>
      </trkpt>
      <trkpt lat="44.64016" lon="0.85929">
        <ele>177</ele>
        <time>2012-07-29T06:12:33Z</time>
      </trkpt>
      <trkpt lat="44.64024" lon="0.85939">
        <ele>177</ele>
        <time>2012-07-29T06:12:41Z</time>
      </trkpt>
      <trkpt lat="44.64028" lon="0.85956">
        <ele>177</ele>
        <time>2012-07-29T06:12:51Z</time>
      </trkpt>
      <trkpt lat="44.64026" lon="0.85975">
        <ele>177</ele>
        <time>2012-07-29T06:12:58Z</time>
      </trkpt>
      <trkpt lat="44.64021" lon="0.86001">
        <ele>177</ele>
        <time>2012-07-29T06:13:07Z</time>
      </trkpt>
      <trkpt lat="44.64021" lon="0.86039">
        <ele>176</ele>
        <time>2012-07-29T06:13:13Z</time>
      </trkpt>
      <trkpt lat="44.64017" lon="0.86062">
        <ele>173</ele>
        <time>2012-07-29T06:13:20Z</time>
      </trkpt>
      <trkpt lat="44.64015" lon="0.86092">
        <ele>170</ele>
        <time>2012-07-29T06:13:27Z</time>
      </trkpt>
      <trkpt lat="44.64013" lon="0.86121">
        <ele>167</ele>
        <time>2012-07-29T06:13:33Z</time>
      </trkpt>
      <trkpt lat="44.6401" lon="0.86151">
        <ele>164</ele>
        <time>2012-07-29T06:13:40Z</time>
      </trkpt>
      <trkpt lat="44.64007" lon="0.86183">
        <ele>158</ele>
        <time>2012-07-29T06:13:47Z</time>
      </trkpt>
      <trkpt lat="44.64005" lon="0.86206">
        <ele>153</ele>
        <time>2012-07-29T06:13:54Z</time>
      </trkpt>
      <trkpt lat="44.64002" lon="0.86233">
        <ele>149</ele>
        <time>2012-07-29T06:14:00Z</time>
      </trkpt>
      <trkpt lat="44.63999" lon="0.86259">
        <ele>146</ele>
        <time>2012-07-29T06:14:07Z</time>
      </trkpt>
      <trkpt lat="44.63994" lon="0.86288">
        <ele>145</ele>
        <time>2012-07-29T06:14:13Z</time>
      </trkpt>
      <trkpt lat="44.6399" lon="0.86316">
        <ele>147</ele>
        <time>2012-07-29T06:14:20Z</time>
      </trkpt>
      <trkpt lat="44.63986" lon="0.86349">
        <ele>152</ele>
        <time>2012-07-29T06:14:26Z</time>
      </trkpt>
      <trkpt lat="44.63984" lon="0.86384">
        <ele>157</ele>
        <time>2012-07-29T06:14:33Z</time>
      </trkpt>
      <trkpt lat="44.63983" lon="0.86426">
        <ele>160</ele>
        <time>2012-07-29T06:14:39Z</time>
      </trkpt>
      <trkpt lat="44.63988" lon="0.8647">
        <ele>164</ele>
        <time>2012-07-29T06:14:47Z</time>
      </trkpt>
      <trkpt lat="44.63989" lon="0.86511">
        <ele>167</ele>
        <time>2012-07-29T06:14:53Z</time>
      </trkpt>
      <trkpt lat="44.63992" lon="0.86547">
        <ele>170</ele>
        <time>2012-07-29T06:15:00Z</time>
      </trkpt>
      <trkpt lat="44.64001" lon="0.86603">
        <ele>173</ele>
        <time>2012-07-29T06:15:07Z</time>
      </trkpt>
      <trkpt lat="44.64005" lon="0.86617">
        <ele>175</ele>
        <time>2012-07-29T06:15:13Z</time>
      </trkpt>
      <trkpt lat="44.64014" lon="0.86649">
        <ele>178</ele>
        <time>2012-07-29T06:15:20Z</time>
      </trkpt>
      <trkpt lat="44.64022" lon="0.8668">
        <ele>179</ele>
        <time>2012-07-29T06:15:28Z</time>
      </trkpt>
      <trkpt lat="44.64025" lon="0.86715">
        <ele>179</ele>
        <time>2012-07-29T06:15:34Z</time>
      </trkpt>
      <trkpt lat="44.64028" lon="0.86751">
        <ele>179</ele>
        <time>2012-07-29T06:15:40Z</time>
      </trkpt>
      <trkpt lat="44.64031" lon="0.86781">
        <ele>179</ele>
        <time>2012-07-29T06:15:47Z</time>
      </trkpt>
      <trkpt lat="44.64032" lon="0.86812">
        <ele>179</ele>
        <time>2012-07-29T06:15:54Z</time>
      </trkpt>
      <trkpt lat="44.64032" lon="0.86847">
        <ele>180</ele>
        <time>2012-07-29T06:16:00Z</time>
      </trkpt>
      <trkpt lat="44.64032" lon="0.86879">
        <ele>180</ele>
        <time>2012-07-29T06:16:07Z</time>
      </trkpt>
      <trkpt lat="44.6403" lon="0.86918">
        <ele>180</ele>
        <time>2012-07-29T06:16:14Z</time>
      </trkpt>
      <trkpt lat="44.64026" lon="0.86958">
        <ele>180</ele>
        <time>2012-07-29T06:16:20Z</time>
      </trkpt>
      <trkpt lat="44.64019" lon="0.86992">
        <ele>180</ele>
        <time>2012-07-29T06:16:27Z</time>
      </trkpt>
      <trkpt lat="44.64008" lon="0.8703">
        <ele>180</ele>
        <time>2012-07-29T06:16:34Z</time>
      </trkpt>
      <trkpt lat="44.63994" lon="0.87087">
        <ele>180</ele>
        <time>2012-07-29T06:16:41Z</time>
      </trkpt>
      <trkpt lat="44.6399" lon="0.87106">
        <ele>180</ele>
        <time>2012-07-29T06:16:47Z</time>
      </trkpt>
      <trkpt lat="44.63973" lon="0.87149">
        <ele>178</ele>
        <time>2012-07-29T06:16:54Z</time>
      </trkpt>
      <trkpt lat="44.63949" lon="0.87195">
        <ele>177</ele>
        <time>2012-07-29T06:17:01Z</time>
      </trkpt>
      <trkpt lat="44.63915" lon="0.87258">
        <ele>177</ele>
        <time>2012-07-29T06:17:08Z</time>
      </trkpt>
      <trkpt lat="44.63904" lon="0.87278">
        <ele>177</ele>
        <time>2012-07-29T06:17:14Z</time>
      </trkpt>
      <trkpt lat="44.63879" lon="0.8733">
        <ele>175</ele>
        <time>2012-07-29T06:17:21Z</time>
      </trkpt>
      <trkpt lat="44.63866" lon="0.8742">
        <ele>171</ele>
        <time>2012-07-29T06:17:29Z</time>
      </trkpt>
      <trkpt lat="44.63875" lon="0.87498">
        <ele>167</ele>
        <time>2012-07-29T06:17:38Z</time>
      </trkpt>
      <trkpt lat="44.63876" lon="0.87534">
        <ele>164</ele>
        <time>2012-07-29T06:17:45Z</time>
      </trkpt>
      <trkpt lat="44.63877" lon="0.87594">
        <ele>162</ele>
        <time>2012-07-29T06:17:52Z</time>
      </trkpt>
      <trkpt lat="44.63887" lon="0.87649">
        <ele>162</ele>
        <time>2012-07-29T06:17:59Z</time>
      </trkpt>
      <trkpt lat="44.63902" lon="0.87696">
        <ele>165</ele>
        <time>2012-07-29T06:18:06Z</time>
      </trkpt>
      <trkpt lat="44.63933" lon="0.87735">
        <ele>173</ele>
        <time>2012-07-29T06:18:14Z</time>
      </trkpt>
      <trkpt lat="44.63961" lon="0.87779">
        <ele>176</ele>
        <time>2012-07-29T06:18:22Z</time>
      </trkpt>
      <trkpt lat="44.63978" lon="0.87821">
        <ele>176</ele>
        <time>2012-07-29T06:18:29Z</time>
      </trkpt>
      <trkpt lat="44.6399" lon="0.87862">
        <ele>176</ele>
        <time>2012-07-29T06:18:36Z</time>
      </trkpt>
      <trkpt lat="44.64015" lon="0.8791">
        <ele>175</ele>
        <time>2012-07-29T06:18:44Z</time>
      </trkpt>
      <trkpt lat="44.64035" lon="0.87954">
        <ele>174</ele>
        <time>2012-07-29T06:18:51Z</time>
      </trkpt>
      <trkpt lat="44.64051" lon="0.87991">
        <ele>174</ele>
        <time>2012-07-29T06:18:58Z</time>
      </trkpt>
      <trkpt lat="44.64062" lon="0.88029">
        <ele>174</ele>
        <time>2012-07-29T06:19:05Z</time>
      </trkpt>
      <trkpt lat="44.64065" lon="0.88086">
        <ele>174</ele>
        <time>2012-07-29T06:19:13Z</time>
      </trkpt>
      <trkpt lat="44.64086" lon="0.88098">
        <ele>174</ele>
        <time>2012-07-29T06:19:21Z</time>
      </trkpt>
      <trkpt lat="44.64125" lon="0.8807">
        <ele>174</ele>
        <time>2012-07-29T06:19:31Z</time>
      </trkpt>
      <trkpt lat="44.64135" lon="0.88059">
        <ele>174</ele>
        <time>2012-07-29T06:19:37Z</time>
      </trkpt>
      <trkpt lat="44.64172" lon="0.88062">
        <ele>179</ele>
        <time>2012-07-29T06:19:46Z</time>
      </trkpt>
      <trkpt lat="44.64197" lon="0.88023">
        <ele>184</ele>
        <time>2012-07-29T06:19:55Z</time>
      </trkpt>
      <trkpt lat="44.64254" lon="0.87984">
        <ele>187</ele>
        <time>2012-07-29T06:20:03Z</time>
      </trkpt>
      <trkpt lat="44.6428" lon="0.87972">
        <ele>189</ele>
        <time>2012-07-29T06:20:10Z</time>
      </trkpt>
      <trkpt lat="44.64325" lon="0.87954">
        <ele>190</ele>
        <time>2012-07-29T06:20:17Z</time>
      </trkpt>
      <trkpt lat="44.6435" lon="0.87951">
        <ele>190</ele>
        <time>2012-07-29T06:20:26Z</time>
      </trkpt>
      <trkpt lat="44.6437" lon="0.87948">
        <ele>190</ele>
        <time>2012-07-29T06:20:35Z</time>
      </trkpt>
      <trkpt lat="44.64392" lon="0.87944">
        <ele>190</ele>
        <time>2012-07-29T06:20:42Z</time>
      </trkpt>
      <trkpt lat="44.64402" lon="0.87935">
        <ele>190</ele>
        <time>2012-07-29T06:20:51Z</time>
      </trkpt>
      <trkpt lat="44.644" lon="0.87934">
        <ele>190</ele>
        <time>2012-07-29T06:21:00Z</time>
      </trkpt>
      <trkpt lat="44.64411" lon="0.87933">
        <ele>190</ele>
        <time>2012-07-29T06:21:08Z</time>
      </trkpt>
      <trkpt lat="44.6443" lon="0.87936">
        <ele>190</ele>
        <time>2012-07-29T06:21:18Z</time>
      </trkpt>
      <trkpt lat="44.64455" lon="0.87904">
        <ele>188</ele>
        <time>2012-07-29T06:21:26Z</time>
      </trkpt>
      <trkpt lat="44.64478" lon="0.87872">
        <ele>185</ele>
        <time>2012-07-29T06:21:33Z</time>
      </trkpt>
      <trkpt lat="44.6449" lon="0.8784">
        <ele>184</ele>
        <time>2012-07-29T06:21:40Z</time>
      </trkpt>
      <trkpt lat="44.64492" lon="0.87824">
        <ele>184</ele>
        <time>2012-07-29T06:21:48Z</time>
      </trkpt>
      <trkpt lat="44.64494" lon="0.87785">
        <ele>182</ele>
        <time>2012-07-29T06:21:55Z</time>
      </trkpt>
      <trkpt lat="44.64506" lon="0.87774">
        <ele>181</ele>
        <time>2012-07-29T06:22:03Z</time>
      </trkpt>
      <trkpt lat="44.64515" lon="0.87773">
        <ele>181</ele>
        <time>2012-07-29T06:22:10Z</time>
      </trkpt>
      <trkpt lat="44.64542" lon="0.87764">
        <ele>181</ele>
        <time>2012-07-29T06:22:17Z</time>
      </trkpt>
      <trkpt lat="44.64549" lon="0.87759">
        <ele>181</ele>
        <time>2012-07-29T06:22:25Z</time>
      </trkpt>
      <trkpt lat="44.64572" lon="0.87746">
        <ele>182</ele>
        <time>2012-07-29T06:22:32Z</time>
      </trkpt>
      <trkpt lat="44.64591" lon="0.87727">
        <ele>183</ele>
        <time>2012-07-29T06:22:40Z</time>
      </trkpt>
      <trkpt lat="44.64607" lon="0.87701">
        <ele>183</ele>
        <time>2012-07-29T06:22:48Z</time>
      </trkpt>
      <trkpt lat="44.6465" lon="0.87673">
        <ele>183</ele>
        <time>2012-07-29T06:22:56Z</time>
      </trkpt>
      <trkpt lat="44.64686" lon="0.87654">
        <ele>183</ele>
        <time>2012-07-29T06:23:04Z</time>
      </trkpt>
      <trkpt lat="44.64702" lon="0.87658">
        <ele>185</ele>
        <time>2012-07-29T06:23:12Z</time>
      </trkpt>
      <trkpt lat="44.64736" lon="0.87655">
        <ele>185</ele>
        <time>2012-07-29T06:23:20Z</time>
      </trkpt>
      <trkpt lat="44.64788" lon="0.87637">
        <ele>184</ele>
        <time>2012-07-29T06:23:28Z</time>
      </trkpt>
      <trkpt lat="44.64873" lon="0.87655">
        <ele>180</ele>
        <time>2012-07-29T06:23:36Z</time>
      </trkpt>
      <trkpt lat="44.6489" lon="0.87649">
        <ele>174</ele>
        <time>2012-07-29T06:23:44Z</time>
      </trkpt>
      <trkpt lat="44.64928" lon="0.87555">
        <ele>165</ele>
        <time>2012-07-29T06:23:52Z</time>
      </trkpt>
      <trkpt lat="44.64928" lon="0.87544">
        <ele>157</ele>
        <time>2012-07-29T06:24:02Z</time>
      </trkpt>
      <trkpt lat="44.64929" lon="0.87547">
        <ele>151</ele>
        <time>2012-07-29T06:24:10Z</time>
      </trkpt>
      <trkpt lat="44.6493" lon="0.87553">
        <ele>146</ele>
        <time>2012-07-29T06:24:19Z</time>
      </trkpt>
      <trkpt lat="44.64932" lon="0.8755">
        <ele>141</ele>
        <time>2012-07-29T06:24:33Z</time>
      </trkpt>
      <trkpt lat="44.64933" lon="0.8755">
        <ele>140</ele>
        <time>2012-07-29T06:24:39Z</time>
      </trkpt>
      <trkpt lat="44.64936" lon="0.87546">
        <ele>140</ele>
        <time>2012-07-29T06:24:46Z</time>
      </trkpt>
      <trkpt lat="44.64937" lon="0.87543">
        <ele>141</ele>
        <time>2012-07-29T06:24:54Z</time>
      </trkpt>
      <trkpt lat="44.64936" lon="0.87546">
        <ele>141</ele>
        <time>2012-07-29T06:25:03Z</time>
      </trkpt>
      <trkpt lat="44.64933" lon="0.87542">
        <ele>141</ele>
        <time>2012-07-29T06:25:10Z</time>
      </trkpt>
      <trkpt lat="44.6493" lon="0.87521">
        <ele>141</ele>
        <time>2012-07-29T06:25:18Z</time>
      </trkpt>
      <trkpt lat="44.64921" lon="0.87493">
        <ele>141</ele>
        <time>2012-07-29T06:25:24Z</time>
      </trkpt>
      <trkpt lat="44.64921" lon="0.87459">
        <ele>142</ele>
        <time>2012-07-29T06:25:31Z</time>
      </trkpt>
      <trkpt lat="44.64921" lon="0.87414">
        <ele>142</ele>
        <time>2012-07-29T06:25:37Z</time>
      </trkpt>
      <trkpt lat="44.64956" lon="0.87392">
        <ele>143</ele>
        <time>2012-07-29T06:25:44Z</time>
      </trkpt>
      <trkpt lat="44.64979" lon="0.87399">
        <ele>143</ele>
        <time>2012-07-29T06:25:52Z</time>
      </trkpt>
      <trkpt lat="44.64988" lon="0.87399">
        <ele>145</ele>
        <time>2012-07-29T06:26:00Z</time>
      </trkpt>
      <trkpt lat="44.64989" lon="0.87396">
        <ele>148</ele>
        <time>2012-07-29T06:26:09Z</time>
      </trkpt>
      <trkpt lat="44.64992" lon="0.8738">
        <ele>148</ele>
        <time>2012-07-29T06:26:15Z</time>
      </trkpt>
      <trkpt lat="44.65" lon="0.87366">
        <ele>147</ele>
        <time>2012-07-29T06:26:23Z</time>
      </trkpt>
      <trkpt lat="44.65011" lon="0.8735">
        <ele>144</ele>
        <time>2012-07-29T06:26:29Z</time>
      </trkpt>
      <trkpt lat="44.65029" lon="0.87317">
        <ele>141</ele>
        <time>2012-07-29T06:26:37Z</time>
      </trkpt>
      <trkpt lat="44.65033" lon="0.87294">
        <ele>139</ele>
        <time>2012-07-29T06:26:45Z</time>
      </trkpt>
      <trkpt lat="44.65041" lon="0.87251">
        <ele>139</ele>
        <time>2012-07-29T06:26:52Z</time>
      </trkpt>
      <trkpt lat="44.65055" lon="0.87217">
        <ele>142</ele>
        <time>2012-07-29T06:26:59Z</time>
      </trkpt>
      <trkpt lat="44.65069" lon="0.87181">
        <ele>148</ele>
        <time>2012-07-29T06:27:06Z</time>
      </trkpt>
      <trkpt lat="44.65079" lon="0.8716">
        <ele>153</ele>
        <time>2012-07-29T06:27:14Z</time>
      </trkpt>
      <trkpt lat="44.65101" lon="0.87133">
        <ele>152</ele>
        <time>2012-07-29T06:27:21Z</time>
      </trkpt>
      <trkpt lat="44.65124" lon="0.87112">
        <ele>149</ele>
        <time>2012-07-29T06:27:27Z</time>
      </trkpt>
      <trkpt lat="44.65168" lon="0.87074">
        <ele>146</ele>
        <time>2012-07-29T06:27:33Z</time>
      </trkpt>
      <trkpt lat="44.65182" lon="0.87062">
        <ele>143</ele>
        <time>2012-07-29T06:27:40Z</time>
      </trkpt>
      <trkpt lat="44.65215" lon="0.8704">
        <ele>138</ele>
        <time>2012-07-29T06:27:46Z</time>
      </trkpt>
      <trkpt lat="44.6527" lon="0.86993">
        <ele>135</ele>
        <time>2012-07-29T06:27:52Z</time>
      </trkpt>
      <trkpt lat="44.65287" lon="0.86982">
        <ele>133</ele>
        <time>2012-07-29T06:27:59Z</time>
      </trkpt>
      <trkpt lat="44.65318" lon="0.86975">
        <ele>134</ele>
        <time>2012-07-29T06:28:07Z</time>
      </trkpt>
      <trkpt lat="44.65327" lon="0.86982">
        <ele>137</ele>
        <time>2012-07-29T06:28:14Z</time>
      </trkpt>
      <trkpt lat="44.65336" lon="0.86997">
        <ele>142</ele>
        <time>2012-07-29T06:28:23Z</time>
      </trkpt>
      <trkpt lat="44.65342" lon="0.87007">
        <ele>145</ele>
        <time>2012-07-29T06:28:30Z</time>
      </trkpt>
      <trkpt lat="44.65351" lon="0.8702">
        <ele>148</ele>
        <time>2012-07-29T06:28:38Z</time>
      </trkpt>
      <trkpt lat="44.65361" lon="0.87036">
        <ele>151</ele>
        <time>2012-07-29T06:28:44Z</time>
      </trkpt>
      <trkpt lat="44.65371" lon="0.8704">
        <ele>155</ele>
        <time>2012-07-29T06:28:52Z</time>
      </trkpt>
      <trkpt lat="44.65381" lon="0.87046">
        <ele>158</ele>
        <time>2012-07-29T06:28:58Z</time>
      </trkpt>
      <trkpt lat="44.65396" lon="0.87054">
        <ele>161</ele>
        <time>2012-07-29T06:29:04Z</time>
      </trkpt>
      <trkpt lat="44.654" lon="0.87056">
        <ele>163</ele>
        <time>2012-07-29T06:29:11Z</time>
      </trkpt>
      <trkpt lat="44.65413" lon="0.87061">
        <ele>166</ele>
        <time>2012-07-29T06:29:17Z</time>
      </trkpt>
      <trkpt lat="44.65431" lon="0.8706">
        <ele>169</ele>
        <time>2012-07-29T06:29:23Z</time>
      </trkpt>
      <trkpt lat="44.65436" lon="0.87059">
        <ele>172</ele>
        <time>2012-07-29T06:29:31Z</time>
      </trkpt>
      <trkpt lat="44.65457" lon="0.87056">
        <ele>177</ele>
        <time>2012-07-29T06:29:38Z</time>
      </trkpt>
      <trkpt lat="44.65462" lon="0.87052">
        <ele>181</ele>
        <time>2012-07-29T06:29:45Z</time>
      </trkpt>
      <trkpt lat="44.65472" lon="0.8704">
        <ele>184</ele>
        <time>2012-07-29T06:29:53Z</time>
      </trkpt>
      <trkpt lat="44.65475" lon="0.87036">
        <ele>181</ele>
        <time>2012-07-29T06:30:04Z</time>
      </trkpt>
      <trkpt lat="44.65478" lon="0.87036">
        <ele>177</ele>
        <time>2012-07-29T06:30:11Z</time>
      </trkpt>
      <trkpt lat="44.65484" lon="0.87041">
        <ele>173</ele>
        <time>2012-07-29T06:30:18Z</time>
      </trkpt>
      <trkpt lat="44.65483" lon="0.8704">
        <ele>169</ele>
        <time>2012-07-29T06:30:27Z</time>
      </trkpt>
      <trkpt lat="44.65474" lon="0.87017">
        <ele>166</ele>
        <time>2012-07-29T06:30:33Z</time>
      </trkpt>
      <trkpt lat="44.65463" lon="0.86997">
        <ele>164</ele>
        <time>2012-07-29T06:30:39Z</time>
      </trkpt>
      <trkpt lat="44.65457" lon="0.86982">
        <ele>163</ele>
        <time>2012-07-29T06:30:46Z</time>
      </trkpt>
      <trkpt lat="44.65451" lon="0.86958">
        <ele>166</ele>
        <time>2012-07-29T06:30:54Z</time>
      </trkpt>
      <trkpt lat="44.65455" lon="0.86949">
        <ele>169</ele>
        <time>2012-07-29T06:31:01Z</time>
      </trkpt>
      <trkpt lat="44.65459" lon="0.86943">
        <ele>174</ele>
        <time>2012-07-29T06:31:09Z</time>
      </trkpt>
      <trkpt lat="44.65452" lon="0.86931">
        <ele>177</ele>
        <time>2012-07-29T06:31:17Z</time>
      </trkpt>
      <trkpt lat="44.65444" lon="0.86893">
        <ele>178</ele>
        <time>2012-07-29T06:31:23Z</time>
      </trkpt>
      <trkpt lat="44.65432" lon="0.86858">
        <ele>175</ele>
        <time>2012-07-29T06:31:30Z</time>
      </trkpt>
      <trkpt lat="44.65437" lon="0.86782">
        <ele>168</ele>
        <time>2012-07-29T06:31:37Z</time>
      </trkpt>
      <trkpt lat="44.6544" lon="0.86761">
        <ele>164</ele>
        <time>2012-07-29T06:31:44Z</time>
      </trkpt>
      <trkpt lat="44.65463" lon="0.86703">
        <ele>156</ele>
        <time>2012-07-29T06:31:51Z</time>
      </trkpt>
      <trkpt lat="44.65489" lon="0.86632">
        <ele>150</ele>
        <time>2012-07-29T06:31:57Z</time>
      </trkpt>
      <trkpt lat="44.65495" lon="0.86602">
        <ele>146</ele>
        <time>2012-07-29T06:32:04Z</time>
      </trkpt>
      <trkpt lat="44.65486" lon="0.86514">
        <ele>140</ele>
        <time>2012-07-29T06:32:11Z</time>
      </trkpt>
      <trkpt lat="44.65473" lon="0.86408">
        <ele>136</ele>
        <time>2012-07-29T06:32:17Z</time>
      </trkpt>
      <trkpt lat="44.65475" lon="0.86378">
        <ele>135</ele>
        <time>2012-07-29T06:32:24Z</time>
      </trkpt>
      <trkpt lat="44.65493" lon="0.8631">
        <ele>136</ele>
        <time>2012-07-29T06:32:31Z</time>
      </trkpt>
      <trkpt lat="44.65516" lon="0.8625">
        <ele>139</ele>
        <time>2012-07-29T06:32:37Z</time>
      </trkpt>
      <trkpt lat="44.65535" lon="0.86253">
        <ele>143</ele>
        <time>2012-07-29T06:32:46Z</time>
      </trkpt>
      <trkpt lat="44.65553" lon="0.86223">
        <ele>142</ele>
        <time>2012-07-29T06:32:53Z</time>
      </trkpt>
      <trkpt lat="44.65573" lon="0.86178">
        <ele>136</ele>
        <time>2012-07-29T06:33:01Z</time>
      </trkpt>
      <trkpt lat="44.65588" lon="0.86164">
        <ele>131</ele>
        <time>2012-07-29T06:33:07Z</time>
      </trkpt>
      <trkpt lat="44.65585" lon="0.86133">
        <ele>120</ele>
        <time>2012-07-29T06:33:14Z</time>
      </trkpt>
      <trkpt lat="44.65577" lon="0.86115">
        <ele>115</ele>
        <time>2012-07-29T06:33:21Z</time>
      </trkpt>
      <trkpt lat="44.65566" lon="0.8609">
        <ele>112</ele>
        <time>2012-07-29T06:33:28Z</time>
      </trkpt>
      <trkpt lat="44.65552" lon="0.86062">
        <ele>111</ele>
        <time>2012-07-29T06:33:34Z</time>
      </trkpt>
      <trkpt lat="44.6554" lon="0.86034">
        <ele>111</ele>
        <time>2012-07-29T06:33:40Z</time>
      </trkpt>
      <trkpt lat="44.65529" lon="0.8601">
        <ele>111</ele>
        <time>2012-07-29T06:33:47Z</time>
      </trkpt>
      <trkpt lat="44.65517" lon="0.85982">
        <ele>111</ele>
        <time>2012-07-29T06:33:53Z</time>
      </trkpt>
      <trkpt lat="44.65498" lon="0.85938">
        <ele>111</ele>
        <time>2012-07-29T06:34:00Z</time>
      </trkpt>
      <trkpt lat="44.65504" lon="0.85928">
        <ele>111</ele>
        <time>2012-07-29T06:34:09Z</time>
      </trkpt>
      <trkpt lat="44.65525" lon="0.85909">
        <ele>113</ele>
        <time>2012-07-29T06:34:15Z</time>
      </trkpt>
      <trkpt lat="44.6553" lon="0.85901">
        <ele>115</ele>
        <time>2012-07-29T06:34:22Z</time>
      </trkpt>
      <trkpt lat="44.65548" lon="0.85876">
        <ele>118</ele>
        <time>2012-07-29T06:34:28Z</time>
      </trkpt>
      <trkpt lat="44.65576" lon="0.85835">
        <ele>120</ele>
        <time>2012-07-29T06:34:34Z</time>
      </trkpt>
      <trkpt lat="44.65583" lon="0.85824">
        <ele>119</ele>
        <time>2012-07-29T06:34:41Z</time>
      </trkpt>
      <trkpt lat="44.65606" lon="0.85795">
        <ele>116</ele>
        <time>2012-07-29T06:34:47Z</time>
      </trkpt>
      <trkpt lat="44.65625" lon="0.85762">
        <ele>116</ele>
        <time>2012-07-29T06:34:53Z</time>
      </trkpt>
      <trkpt lat="44.65635" lon="0.85762">
        <ele>117</ele>
        <time>2012-07-29T06:35:01Z</time>
      </trkpt>
      <trkpt lat="44.65645" lon="0.85794">
        <ele>120</ele>
        <time>2012-07-29T06:35:08Z</time>
      </trkpt>
      <trkpt lat="44.65653" lon="0.85818">
        <ele>122</ele>
        <time>2012-07-29T06:35:15Z</time>
      </trkpt>
      <trkpt lat="44.65661" lon="0.85849">
        <ele>123</ele>
        <time>2012-07-29T06:35:21Z</time>
      </trkpt>
      <trkpt lat="44.65673" lon="0.8589">
        <ele>124</ele>
        <time>2012-07-29T06:35:27Z</time>
      </trkpt>
      <trkpt lat="44.65676" lon="0.85905">
        <ele>124</ele>
        <time>2012-07-29T06:35:34Z</time>
      </trkpt>
      <trkpt lat="44.65704" lon="0.85912">
        <ele>123</ele>
        <time>2012-07-29T06:35:41Z</time>
      </trkpt>
      <trkpt lat="44.65717" lon="0.85909">
        <ele>120</ele>
        <time>2012-07-29T06:35:48Z</time>
      </trkpt>
      <trkpt lat="44.65733" lon="0.85895">
        <ele>120</ele>
        <time>2012-07-29T06:35:55Z</time>
      </trkpt>
      <trkpt lat="44.65744" lon="0.85879">
        <ele>123</ele>
        <time>2012-07-29T06:36:02Z</time>
      </trkpt>
      <trkpt lat="44.65756" lon="0.85844">
        <ele>127</ele>
        <time>2012-07-29T06:36:09Z</time>
      </trkpt>
      <trkpt lat="44.65768" lon="0.85833">
        <ele>130</ele>
        <time>2012-07-29T06:36:18Z</time>
      </trkpt>
      <trkpt lat="44.65785" lon="0.85827">
        <ele>133</ele>
        <time>2012-07-29T06:36:26Z</time>
      </trkpt>
      <trkpt lat="44.65797" lon="0.85819">
        <ele>137</ele>
        <time>2012-07-29T06:36:33Z</time>
      </trkpt>
      <trkpt lat="44.65812" lon="0.8581">
        <ele>141</ele>
        <time>2012-07-29T06:36:41Z</time>
      </trkpt>
      <trkpt lat="44.65823" lon="0.85805">
        <ele>143</ele>
        <time>2012-07-29T06:36:47Z</time>
      </trkpt>
      <trkpt lat="44.65843" lon="0.85804">
        <ele>145</ele>
        <time>2012-07-29T06:36:54Z</time>
      </trkpt>
      <trkpt lat="44.65857" lon="0.85796">
        <ele>148</ele>
        <time>2012-07-29T06:37:01Z</time>
      </trkpt>
      <trkpt lat="44.6588" lon="0.85793">
        <ele>152</ele>
        <time>2012-07-29T06:37:08Z</time>
      </trkpt>
      <trkpt lat="44.65894" lon="0.85789">
        <ele>156</ele>
        <time>2012-07-29T06:37:15Z</time>
      </trkpt>
      <trkpt lat="44.65924" lon="0.85783">
        <ele>161</ele>
        <time>2012-07-29T06:37:21Z</time>
      </trkpt>
      <trkpt lat="44.65947" lon="0.85775">
        <ele>167</ele>
        <time>2012-07-29T06:37:29Z</time>
      </trkpt>
      <trkpt lat="44.65956" lon="0.85776">
        <ele>170</ele>
        <time>2012-07-29T06:37:37Z</time>
      </trkpt>
      <trkpt lat="44.65967" lon="0.85773">
        <ele>166</ele>
        <time>2012-07-29T06:37:49Z</time>
      </trkpt>
      <trkpt lat="44.65969" lon="0.85773">
        <ele>163</ele>
        <time>2012-07-29T06:37:55Z</time>
      </trkpt>
      <trkpt lat="44.65967" lon="0.85778">
        <ele>159</ele>
        <time>2012-07-29T06:38:03Z</time>
      </trkpt>
      <trkpt lat="44.65968" lon="0.85782">
        <ele>153</ele>
        <time>2012-07-29T06:38:14Z</time>
      </trkpt>
      <trkpt lat="44.6597" lon="0.85784">
        <ele>149</ele>
        <time>2012-07-29T06:38:20Z</time>
      </trkpt>
      <trkpt lat="44.65968" lon="0.85782">
        <ele>132</ele>
        <time>2012-07-29T06:38:30Z</time>
      </trkpt>
      <trkpt lat="44.65968" lon="0.85781">
        <ele>130</ele>
        <time>2012-07-29T06:38:36Z</time>
      </trkpt>
      <trkpt lat="44.65959" lon="0.85771">
        <ele>127</ele>
        <time>2012-07-29T06:38:44Z</time>
      </trkpt>
      <trkpt lat="44.65957" lon="0.85777">
        <ele>131</ele>
        <time>2012-07-29T06:38:52Z</time>
      </trkpt>
      <trkpt lat="44.65966" lon="0.85776">
        <ele>136</ele>
        <time>2012-07-29T06:39:02Z</time>
      </trkpt>
      <trkpt lat="44.65972" lon="0.85769">
        <ele>139</ele>
        <time>2012-07-29T06:39:09Z</time>
      </trkpt>
      <trkpt lat="44.65973" lon="0.85756">
        <ele>143</ele>
        <time>2012-07-29T06:39:17Z</time>
      </trkpt>
      <trkpt lat="44.65974" lon="0.85755">
        <ele>146</ele>
        <time>2012-07-29T06:39:25Z</time>
      </trkpt>
      <trkpt lat="44.65974" lon="0.85751">
        <ele>149</ele>
        <time>2012-07-29T06:39:33Z</time>
      </trkpt>
      <trkpt lat="44.65978" lon="0.85737">
        <ele>149</ele>
        <time>2012-07-29T06:39:42Z</time>
      </trkpt>
      <trkpt lat="44.65981" lon="0.85717">
        <ele>149</ele>
        <time>2012-07-29T06:39:50Z</time>
      </trkpt>
      <trkpt lat="44.65978" lon="0.85688">
        <ele>147</ele>
        <time>2012-07-29T06:39:57Z</time>
      </trkpt>
      <trkpt lat="44.65977" lon="0.85679">
        <ele>145</ele>
        <time>2012-07-29T06:40:04Z</time>
      </trkpt>
      <trkpt lat="44.65975" lon="0.85659">
        <ele>142</ele>
        <time>2012-07-29T06:40:10Z</time>
      </trkpt>
      <trkpt lat="44.65973" lon="0.85643">
        <ele>142</ele>
        <time>2012-07-29T06:40:17Z</time>
      </trkpt>
      <trkpt lat="44.65971" lon="0.85625">
        <ele>142</ele>
        <time>2012-07-29T06:40:23Z</time>
      </trkpt>
      <trkpt lat="44.65972" lon="0.85608">
        <ele>142</ele>
        <time>2012-07-29T06:40:31Z</time>
      </trkpt>
      <trkpt lat="44.65994" lon="0.85601">
        <ele>143</ele>
        <time>2012-07-29T06:40:39Z</time>
      </trkpt>
      <trkpt lat="44.66014" lon="0.85595">
        <ele>146</ele>
        <time>2012-07-29T06:40:45Z</time>
      </trkpt>
      <trkpt lat="44.66032" lon="0.85585">
        <ele>146</ele>
        <time>2012-07-29T06:40:52Z</time>
      </trkpt>
      <trkpt lat="44.66054" lon="0.85575">
        <ele>147</ele>
        <time>2012-07-29T06:40:58Z</time>
      </trkpt>
      <trkpt lat="44.66076" lon="0.85565">
        <ele>150</ele>
        <time>2012-07-29T06:41:07Z</time>
      </trkpt>
      <trkpt lat="44.66113" lon="0.8556">
        <ele>151</ele>
        <time>2012-07-29T06:41:14Z</time>
      </trkpt>
      <trkpt lat="44.66122" lon="0.85563">
        <ele>151</ele>
        <time>2012-07-29T06:41:20Z</time>
      </trkpt>
      <trkpt lat="44.6614" lon="0.85569">
        <ele>151</ele>
        <time>2012-07-29T06:41:27Z</time>
      </trkpt>
      <trkpt lat="44.6616" lon="0.85575">
        <ele>151</ele>
        <time>2012-07-29T06:41:33Z</time>
      </trkpt>
      <trkpt lat="44.66178" lon="0.85583">
        <ele>154</ele>
        <time>2012-07-29T06:41:40Z</time>
      </trkpt>
      <trkpt lat="44.66199" lon="0.85598">
        <ele>157</ele>
        <time>2012-07-29T06:41:46Z</time>
      </trkpt>
      <trkpt lat="44.6621" lon="0.85605">
        <ele>160</ele>
        <time>2012-07-29T06:41:53Z</time>
      </trkpt>
      <trkpt lat="44.66228" lon="0.85606">
        <ele>160</ele>
        <time>2012-07-29T06:42:01Z</time>
      </trkpt>
      <trkpt lat="44.66251" lon="0.85605">
        <ele>162</ele>
        <time>2012-07-29T06:42:07Z</time>
      </trkpt>
      <trkpt lat="44.66273" lon="0.85603">
        <ele>162</ele>
        <time>2012-07-29T06:42:14Z</time>
      </trkpt>
      <trkpt lat="44.66298" lon="0.85605">
        <ele>162</ele>
        <time>2012-07-29T06:42:20Z</time>
      </trkpt>
      <trkpt lat="44.66322" lon="0.85597">
        <ele>162</ele>
        <time>2012-07-29T06:42:28Z</time>
      </trkpt>
      <trkpt lat="44.66339" lon="0.85577">
        <ele>162</ele>
        <time>2012-07-29T06:42:35Z</time>
      </trkpt>
      <trkpt lat="44.66348" lon="0.85555">
        <ele>163</ele>
        <time>2012-07-29T06:42:43Z</time>
      </trkpt>
      <trkpt lat="44.66362" lon="0.85543">
        <ele>167</ele>
        <time>2012-07-29T06:42:52Z</time>
      </trkpt>
      <trkpt lat="44.66404" lon="0.85549">
        <ele>170</ele>
        <time>2012-07-29T06:42:58Z</time>
      </trkpt>
      <trkpt lat="44.66417" lon="0.85547">
        <ele>172</ele>
        <time>2012-07-29T06:43:05Z</time>
      </trkpt>
      <trkpt lat="44.6646" lon="0.85541">
        <ele>175</ele>
        <time>2012-07-29T06:43:11Z</time>
      </trkpt>
      <trkpt lat="44.66474" lon="0.85537">
        <ele>177</ele>
        <time>2012-07-29T06:43:18Z</time>
      </trkpt>
      <trkpt lat="44.66499" lon="0.85512">
        <ele>177</ele>
        <time>2012-07-29T06:43:25Z</time>
      </trkpt>
      <trkpt lat="44.6651" lon="0.855">
        <ele>175</ele>
        <time>2012-07-29T06:43:32Z</time>
      </trkpt>
      <trkpt lat="44.66552" lon="0.85489">
        <ele>174</ele>
        <time>2012-07-29T06:43:40Z</time>
      </trkpt>
      <trkpt lat="44.66565" lon="0.85479">
        <ele>177</ele>
        <time>2012-07-29T06:43:48Z</time>
      </trkpt>
      <trkpt lat="44.666" lon="0.85454">
        <ele>180</ele>
        <time>2012-07-29T06:43:55Z</time>
      </trkpt>
      <trkpt lat="44.66609" lon="0.85418">
        <ele>180</ele>
        <time>2012-07-29T06:44:04Z</time>
      </trkpt>
      <trkpt lat="44.66622" lon="0.85411">
        <ele>179</ele>
        <time>2012-07-29T06:44:13Z</time>
      </trkpt>
      <trkpt lat="44.66645" lon="0.85409">
        <ele>179</ele>
        <time>2012-07-29T06:44:21Z</time>
      </trkpt>
      <trkpt lat="44.66658" lon="0.85415">
        <ele>179</ele>
        <time>2012-07-29T06:44:28Z</time>
      </trkpt>
      <trkpt lat="44.66685" lon="0.85423">
        <ele>179</ele>
        <time>2012-07-29T06:44:35Z</time>
      </trkpt>
      <trkpt lat="44.66708" lon="0.85429">
        <ele>182</ele>
        <time>2012-07-29T06:44:42Z</time>
      </trkpt>
      <trkpt lat="44.66744" lon="0.85441">
        <ele>185</ele>
        <time>2012-07-29T06:44:48Z</time>
      </trkpt>
      <trkpt lat="44.66758" lon="0.85443">
        <ele>188</ele>
        <time>2012-07-29T06:44:55Z</time>
      </trkpt>
      <trkpt lat="44.66776" lon="0.85446">
        <ele>190</ele>
        <time>2012-07-29T06:45:02Z</time>
      </trkpt>
      <trkpt lat="44.66812" lon="0.85462">
        <ele>190</ele>
        <time>2012-07-29T06:45:08Z</time>
      </trkpt>
      <trkpt lat="44.66817" lon="0.85486">
        <ele>194</ele>
        <time>2012-07-29T06:45:17Z</time>
      </trkpt>
      <trkpt lat="44.66798" lon="0.85531">
        <ele>197</ele>
        <time>2012-07-29T06:45:24Z</time>
      </trkpt>
      <trkpt lat="44.66795" lon="0.85569">
        <ele>197</ele>
        <time>2012-07-29T06:45:32Z</time>
      </trkpt>
      <trkpt lat="44.66778" lon="0.85605">
        <ele>195</ele>
        <time>2012-07-29T06:45:39Z</time>
      </trkpt>
      <trkpt lat="44.6679" lon="0.85624">
        <ele>192</ele>
        <time>2012-07-29T06:45:47Z</time>
      </trkpt>
      <trkpt lat="44.66793" lon="0.85666">
        <ele>188</ele>
        <time>2012-07-29T06:45:55Z</time>
      </trkpt>
      <trkpt lat="44.66821" lon="0.85673">
        <ele>188</ele>
        <time>2012-07-29T06:46:02Z</time>
      </trkpt>
      <trkpt lat="44.66849" lon="0.85719">
        <ele>191</ele>
        <time>2012-07-29T06:46:10Z</time>
      </trkpt>
      <trkpt lat="44.66867" lon="0.85739">
        <ele>191</ele>
        <time>2012-07-29T06:46:16Z</time>
      </trkpt>
      <trkpt lat="44.66886" lon="0.85755">
        <ele>191</ele>
        <time>2012-07-29T06:46:23Z</time>
      </trkpt>
      <trkpt lat="44.6689" lon="0.8578">
        <ele>193</ele>
        <time>2012-07-29T06:46:33Z</time>
      </trkpt>
      <trkpt lat="44.66884" lon="0.85812">
        <ele>193</ele>
        <time>2012-07-29T06:46:40Z</time>
      </trkpt>
      <trkpt lat="44.66903" lon="0.85852">
        <ele>193</ele>
        <time>2012-07-29T06:46:48Z</time>
      </trkpt>
      <trkpt lat="44.66936" lon="0.8588">
        <ele>191</ele>
        <time>2012-07-29T06:46:55Z</time>
      </trkpt>
      <trkpt lat="44.66945" lon="0.85885">
        <ele>190</ele>
        <time>2012-07-29T06:47:02Z</time>
      </trkpt>
      <trkpt lat="44.66961" lon="0.85898">
        <ele>190</ele>
        <time>2012-07-29T06:47:09Z</time>
      </trkpt>
      <trkpt lat="44.67013" lon="0.85935">
        <ele>190</ele>
        <time>2012-07-29T06:47:15Z</time>
      </trkpt>
      <trkpt lat="44.67063" lon="0.85981">
        <ele>190</ele>
        <time>2012-07-29T06:47:22Z</time>
      </trkpt>
      <trkpt lat="44.67084" lon="0.86004">
        <ele>190</ele>
        <time>2012-07-29T06:47:29Z</time>
      </trkpt>
      <trkpt lat="44.67129" lon="0.86057">
        <ele>191</ele>
        <time>2012-07-29T06:47:36Z</time>
      </trkpt>
      <trkpt lat="44.67168" lon="0.86132">
        <ele>191</ele>
        <time>2012-07-29T06:47:42Z</time>
      </trkpt>
      <trkpt lat="44.6721" lon="0.86221">
        <ele>190</ele>
        <time>2012-07-29T06:47:49Z</time>
      </trkpt>
      <trkpt lat="44.67219" lon="0.86241">
        <ele>188</ele>
        <time>2012-07-29T06:47:56Z</time>
      </trkpt>
      <trkpt lat="44.67233" lon="0.86275">
        <ele>188</ele>
        <time>2012-07-29T06:48:03Z</time>
      </trkpt>
      <trkpt lat="44.67237" lon="0.86288">
        <ele>188</ele>
        <time>2012-07-29T06:48:13Z</time>
      </trkpt>
      <trkpt lat="44.67238" lon="0.8629">
        <ele>190</ele>
        <time>2012-07-29T06:48:24Z</time>
      </trkpt>
      <trkpt lat="44.67234" lon="0.86291">
        <ele>190</ele>
        <time>2012-07-29T06:48:29Z</time>
      </trkpt>
      <trkpt lat="44.67233" lon="0.86288">
        <ele>191</ele>
        <time>2012-07-29T06:48:39Z</time>
      </trkpt>
      <trkpt lat="44.67234" lon="0.86286">
        <ele>191</ele>
        <time>2012-07-29T06:48:54Z</time>
      </trkpt>
      <trkpt lat="44.67236" lon="0.86282">
        <ele>191</ele>
        <time>2012-07-29T06:49:03Z</time>
      </trkpt>
      <trkpt lat="44.6724" lon="0.86284">
        <ele>191</ele>
        <time>2012-07-29T06:49:11Z</time>
      </trkpt>
      <trkpt lat="44.67241" lon="0.86286">
        <ele>191</ele>
        <time>2012-07-29T06:49:19Z</time>
      </trkpt>
      <trkpt lat="44.67238" lon="0.86289">
        <ele>191</ele>
        <time>2012-07-29T06:49:27Z</time>
      </trkpt>
      <trkpt lat="44.67237" lon="0.86289">
        <ele>191</ele>
        <time>2012-07-29T06:49:36Z</time>
      </trkpt>
      <trkpt lat="44.67233" lon="0.86291">
        <ele>191</ele>
        <time>2012-07-29T06:49:44Z</time>
      </trkpt>
      <trkpt lat="44.67231" lon="0.86289">
        <ele>191</ele>
        <time>2012-07-29T06:50:01Z</time>
      </trkpt>
      <trkpt lat="44.6723" lon="0.86289">
        <ele>191</ele>
        <time>2012-07-29T06:50:18Z</time>
      </trkpt>
      <trkpt lat="44.67232" lon="0.8629">
        <ele>196</ele>
        <time>2012-07-29T06:50:49Z</time>
      </trkpt>
      <trkpt lat="44.67233" lon="0.8629">
        <ele>199</ele>
        <time>2012-07-29T06:51:32Z</time>
      </trkpt>
      <trkpt lat="44.67235" lon="0.86291">
        <ele>199</ele>
        <time>2012-07-29T06:51:48Z</time>
      </trkpt>
      <trkpt lat="44.67236" lon="0.86291">
        <ele>199</ele>
        <time>2012-07-29T06:51:56Z</time>
      </trkpt>
      <trkpt lat="44.67237" lon="0.86292">
        <ele>199</ele>
        <time>2012-07-29T06:52:14Z</time>
      </trkpt>
      <trkpt lat="44.67241" lon="0.86294">
        <ele>199</ele>
        <time>2012-07-29T06:52:20Z</time>
      </trkpt>
      <trkpt lat="44.67244" lon="0.86294">
        <ele>199</ele>
        <time>2012-07-29T06:52:28Z</time>
      </trkpt>
      <trkpt lat="44.67247" lon="0.86294">
        <ele>199</ele>
        <time>2012-07-29T06:52:36Z</time>
      </trkpt>
      <trkpt lat="44.67246" lon="0.86294">
        <ele>199</ele>
        <time>2012-07-29T06:52:44Z</time>
      </trkpt>
      <trkpt lat="44.67245" lon="0.86295">
        <ele>196</ele>
        <time>2012-07-29T06:52:53Z</time>
      </trkpt>
      <trkpt lat="44.67244" lon="0.86293">
        <ele>192</ele>
        <time>2012-07-29T06:53:01Z</time>
      </trkpt>
      <trkpt lat="44.67245" lon="0.86293">
        <ele>192</ele>
        <time>2012-07-29T06:53:10Z</time>
      </trkpt>
      <trkpt lat="44.67247" lon="0.86294">
        <ele>192</ele>
        <time>2012-07-29T06:53:17Z</time>
      </trkpt>
      <trkpt lat="44.67247" lon="0.86292">
        <ele>192</ele>
        <time>2012-07-29T06:53:27Z</time>
      </trkpt>
      <trkpt lat="44.67246" lon="0.86291">
        <ele>195</ele>
        <time>2012-07-29T06:53:34Z</time>
      </trkpt>
      <trkpt lat="44.67244" lon="0.8629">
        <ele>198</ele>
        <time>2012-07-29T06:53:43Z</time>
      </trkpt>
      <trkpt lat="44.67242" lon="0.86291">
        <ele>199</ele>
        <time>2012-07-29T06:53:59Z</time>
      </trkpt>
      <trkpt lat="44.67242" lon="0.86291">
        <ele>199</ele>
        <time>2012-07-29T06:54:07Z</time>
      </trkpt>
      <trkpt lat="44.67238" lon="0.86286">
        <ele>195</ele>
        <time>2012-07-29T06:54:16Z</time>
      </trkpt>
      <trkpt lat="44.67236" lon="0.86286">
        <ele>193</ele>
        <time>2012-07-29T06:54:24Z</time>
      </trkpt>
      <trkpt lat="44.67238" lon="0.86287">
        <ele>191</ele>
        <time>2012-07-29T06:54:34Z</time>
      </trkpt>
      <trkpt lat="44.67241" lon="0.86288">
        <ele>191</ele>
        <time>2012-07-29T06:54:43Z</time>
      </trkpt>
      <trkpt lat="44.67242" lon="0.86289">
        <ele>191</ele>
        <time>2012-07-29T06:54:52Z</time>
      </trkpt>
      <trkpt lat="44.67244" lon="0.86286">
        <ele>191</ele>
        <time>2012-07-29T06:55:01Z</time>
      </trkpt>
      <trkpt lat="44.67251" lon="0.86283">
        <ele>191</ele>
        <time>2012-07-29T06:55:09Z</time>
      </trkpt>
      <trkpt lat="44.67253" lon="0.86279">
        <ele>191</ele>
        <time>2012-07-29T06:55:19Z</time>
      </trkpt>
      <trkpt lat="44.67252" lon="0.86282">
        <ele>191</ele>
        <time>2012-07-29T06:55:35Z</time>
      </trkpt>
      <trkpt lat="44.67245" lon="0.86307">
        <ele>191</ele>
        <time>2012-07-29T06:55:43Z</time>
      </trkpt>
      <trkpt lat="44.67249" lon="0.86326">
        <ele>191</ele>
        <time>2012-07-29T06:55:50Z</time>
      </trkpt>
      <trkpt lat="44.6726" lon="0.86347">
        <ele>191</ele>
        <time>2012-07-29T06:55:57Z</time>
      </trkpt>
      <trkpt lat="44.67268" lon="0.86372">
        <ele>191</ele>
        <time>2012-07-29T06:56:03Z</time>
      </trkpt>
      <trkpt lat="44.67278" lon="0.86404">
        <ele>191</ele>
        <time>2012-07-29T06:56:10Z</time>
      </trkpt>
      <trkpt lat="44.67288" lon="0.86431">
        <ele>191</ele>
        <time>2012-07-29T06:56:17Z</time>
      </trkpt>
      <trkpt lat="44.67294" lon="0.86451">
        <ele>191</ele>
        <time>2012-07-29T06:56:24Z</time>
      </trkpt>
      <trkpt lat="44.67303" lon="0.86473">
        <ele>191</ele>
        <time>2012-07-29T06:56:31Z</time>
      </trkpt>
      <trkpt lat="44.6732" lon="0.86494">
        <ele>191</ele>
        <time>2012-07-29T06:56:38Z</time>
      </trkpt>
      <trkpt lat="44.67332" lon="0.865">
        <ele>191</ele>
        <time>2012-07-29T06:56:46Z</time>
      </trkpt>
      <trkpt lat="44.67356" lon="0.86513">
        <ele>191</ele>
        <time>2012-07-29T06:56:53Z</time>
      </trkpt>
      <trkpt lat="44.67385" lon="0.86526">
        <ele>191</ele>
        <time>2012-07-29T06:57:00Z</time>
      </trkpt>
      <trkpt lat="44.67404" lon="0.86564">
        <ele>191</ele>
        <time>2012-07-29T06:57:07Z</time>
      </trkpt>
      <trkpt lat="44.67419" lon="0.86619">
        <ele>191</ele>
        <time>2012-07-29T06:57:14Z</time>
      </trkpt>
      <trkpt lat="44.67428" lon="0.86652">
        <ele>191</ele>
        <time>2012-07-29T06:57:21Z</time>
      </trkpt>
      <trkpt lat="44.67432" lon="0.86667">
        <ele>191</ele>
        <time>2012-07-29T06:57:30Z</time>
      </trkpt>
      <trkpt lat="44.67444" lon="0.867">
        <ele>191</ele>
        <time>2012-07-29T06:57:36Z</time>
      </trkpt>
      <trkpt lat="44.67454" lon="0.86727">
        <ele>191</ele>
        <time>2012-07-29T06:57:43Z</time>
      </trkpt>
      <trkpt lat="44.67466" lon="0.86757">
        <ele>191</ele>
        <time>2012-07-29T06:57:49Z</time>
      </trkpt>
      <trkpt lat="44.6749" lon="0.86808">
        <ele>191</ele>
        <time>2012-07-29T06:57:56Z</time>
      </trkpt>
      <trkpt lat="44.67503" lon="0.86832">
        <ele>191</ele>
        <time>2012-07-29T06:58:03Z</time>
      </trkpt>
      <trkpt lat="44.67526" lon="0.86873">
        <ele>191</ele>
        <time>2012-07-29T06:58:10Z</time>
      </trkpt>
      <trkpt lat="44.67546" lon="0.8691">
        <ele>191</ele>
        <time>2012-07-29T06:58:17Z</time>
      </trkpt>
      <trkpt lat="44.67574" lon="0.86914">
        <ele>189</ele>
        <time>2012-07-29T06:58:26Z</time>
      </trkpt>
      <trkpt lat="44.67604" lon="0.869">
        <ele>186</ele>
        <time>2012-07-29T06:58:33Z</time>
      </trkpt>
      <trkpt lat="44.67616" lon="0.86894">
        <ele>186</ele>
        <time>2012-07-29T06:58:40Z</time>
      </trkpt>
      <trkpt lat="44.67646" lon="0.86881">
        <ele>186</ele>
        <time>2012-07-29T06:58:47Z</time>
      </trkpt>
      <trkpt lat="44.67671" lon="0.8687">
        <ele>186</ele>
        <time>2012-07-29T06:58:54Z</time>
      </trkpt>
      <trkpt lat="44.67694" lon="0.86856">
        <ele>186</ele>
        <time>2012-07-29T06:59:01Z</time>
      </trkpt>
      <trkpt lat="44.67718" lon="0.86841">
        <ele>186</ele>
        <time>2012-07-29T06:59:08Z</time>
      </trkpt>
      <trkpt lat="44.67746" lon="0.86824">
        <ele>186</ele>
        <time>2012-07-29T06:59:15Z</time>
      </trkpt>
      <trkpt lat="44.67769" lon="0.86811">
        <ele>187</ele>
        <time>2012-07-29T06:59:22Z</time>
      </trkpt>
      <trkpt lat="44.67789" lon="0.86795">
        <ele>190</ele>
        <time>2012-07-29T06:59:28Z</time>
      </trkpt>
      <trkpt lat="44.67813" lon="0.86779">
        <ele>194</ele>
        <time>2012-07-29T06:59:36Z</time>
      </trkpt>
      <trkpt lat="44.67838" lon="0.86766">
        <ele>198</ele>
        <time>2012-07-29T06:59:45Z</time>
      </trkpt>
      <trkpt lat="44.67853" lon="0.86757">
        <ele>201</ele>
        <time>2012-07-29T06:59:52Z</time>
      </trkpt>
      <trkpt lat="44.67868" lon="0.86757">
        <ele>201</ele>
        <time>2012-07-29T07:00:01Z</time>
      </trkpt>
      <trkpt lat="44.67915" lon="0.86728">
        <ele>201</ele>
        <time>2012-07-29T07:00:09Z</time>
      </trkpt>
      <trkpt lat="44.67964" lon="0.86695">
        <ele>198</ele>
        <time>2012-07-29T07:00:16Z</time>
      </trkpt>
      <trkpt lat="44.68009" lon="0.86665">
        <ele>194</ele>
        <time>2012-07-29T07:00:23Z</time>
      </trkpt>
      <trkpt lat="44.6806" lon="0.86638">
        <ele>189</ele>
        <time>2012-07-29T07:00:30Z</time>
      </trkpt>
      <trkpt lat="44.68105" lon="0.86617">
        <ele>186</ele>
        <time>2012-07-29T07:00:37Z</time>
      </trkpt>
      <trkpt lat="44.6815" lon="0.86619">
        <ele>182</ele>
        <time>2012-07-29T07:00:44Z</time>
      </trkpt>
      <trkpt lat="44.68179" lon="0.86621">
        <ele>182</ele>
        <time>2012-07-29T07:00:52Z</time>
      </trkpt>
      <trkpt lat="44.68227" lon="0.86617">
        <ele>178</ele>
        <time>2012-07-29T07:01:00Z</time>
      </trkpt>
      <trkpt lat="44.68247" lon="0.86617">
        <ele>177</ele>
        <time>2012-07-29T07:01:07Z</time>
      </trkpt>
      <trkpt lat="44.68263" lon="0.86617">
        <ele>177</ele>
        <time>2012-07-29T07:01:16Z</time>
      </trkpt>
      <trkpt lat="44.68287" lon="0.86616">
        <ele>177</ele>
        <time>2012-07-29T07:01:23Z</time>
      </trkpt>
      <trkpt lat="44.683" lon="0.86617">
        <ele>177</ele>
        <time>2012-07-29T07:01:30Z</time>
      </trkpt>
      <trkpt lat="44.68303" lon="0.86613">
        <ele>177</ele>
        <time>2012-07-29T07:01:40Z</time>
      </trkpt>
      <trkpt lat="44.68302" lon="0.86609">
        <ele>176</ele>
        <time>2012-07-29T07:01:50Z</time>
      </trkpt>
      <trkpt lat="44.68306" lon="0.86607">
        <ele>173</ele>
        <time>2012-07-29T07:01:58Z</time>
      </trkpt>
      <trkpt lat="44.68307" lon="0.86608">
        <ele>172</ele>
        <time>2012-07-29T07:02:06Z</time>
      </trkpt>
      <trkpt lat="44.68301" lon="0.86604">
        <ele>175</ele>
        <time>2012-07-29T07:02:17Z</time>
      </trkpt>
      <trkpt lat="44.68301" lon="0.86601">
        <ele>175</ele>
        <time>2012-07-29T07:02:29Z</time>
      </trkpt>
      <trkpt lat="44.68299" lon="0.86594">
        <ele>175</ele>
        <time>2012-07-29T07:02:35Z</time>
      </trkpt>
      <trkpt lat="44.68304" lon="0.86556">
        <ele>175</ele>
        <time>2012-07-29T07:02:43Z</time>
      </trkpt>
      <trkpt lat="44.68323" lon="0.8656">
        <ele>175</ele>
        <time>2012-07-29T07:02:52Z</time>
      </trkpt>
      <trkpt lat="44.68356" lon="0.86571">
        <ele>175</ele>
        <time>2012-07-29T07:02:58Z</time>
      </trkpt>
      <trkpt lat="44.6838" lon="0.86577">
        <ele>175</ele>
        <time>2012-07-29T07:03:05Z</time>
      </trkpt>
      <trkpt lat="44.68405" lon="0.86583">
        <ele>175</ele>
        <time>2012-07-29T07:03:12Z</time>
      </trkpt>
      <trkpt lat="44.6843" lon="0.86589">
        <ele>176</ele>
        <time>2012-07-29T07:03:19Z</time>
      </trkpt>
      <trkpt lat="44.68456" lon="0.86593">
        <ele>178</ele>
        <time>2012-07-29T07:03:26Z</time>
      </trkpt>
      <trkpt lat="44.68473" lon="0.86593">
        <ele>179</ele>
        <time>2012-07-29T07:03:34Z</time>
      </trkpt>
      <trkpt lat="44.68505" lon="0.86592">
        <ele>177</ele>
        <time>2012-07-29T07:03:41Z</time>
      </trkpt>
      <trkpt lat="44.68539" lon="0.86598">
        <ele>174</ele>
        <time>2012-07-29T07:03:48Z</time>
      </trkpt>
      <trkpt lat="44.68572" lon="0.86628">
        <ele>174</ele>
        <time>2012-07-29T07:03:56Z</time>
      </trkpt>
      <trkpt lat="44.68607" lon="0.86656">
        <ele>174</ele>
        <time>2012-07-29T07:04:03Z</time>
      </trkpt>
      <trkpt lat="44.68652" lon="0.8666">
        <ele>174</ele>
        <time>2012-07-29T07:04:11Z</time>
      </trkpt>
      <trkpt lat="44.68689" lon="0.86654">
        <ele>174</ele>
        <time>2012-07-29T07:04:18Z</time>
      </trkpt>
      <trkpt lat="44.68705" lon="0.86693">
        <ele>177</ele>
        <time>2012-07-29T07:04:27Z</time>
      </trkpt>
      <trkpt lat="44.68707" lon="0.86707">
        <ele>179</ele>
        <time>2012-07-29T07:04:34Z</time>
      </trkpt>
      <trkpt lat="44.6871" lon="0.86741">
        <ele>182</ele>
        <time>2012-07-29T07:04:41Z</time>
      </trkpt>
      <trkpt lat="44.68712" lon="0.86778">
        <ele>185</ele>
        <time>2012-07-29T07:04:48Z</time>
      </trkpt>
      <trkpt lat="44.6871" lon="0.86814">
        <ele>189</ele>
        <time>2012-07-29T07:04:55Z</time>
      </trkpt>
      <trkpt lat="44.68716" lon="0.86874">
        <ele>193</ele>
        <time>2012-07-29T07:05:02Z</time>
      </trkpt>
      <trkpt lat="44.68718" lon="0.8689">
        <ele>195</ele>
        <time>2012-07-29T07:05:09Z</time>
      </trkpt>
      <trkpt lat="44.68722" lon="0.86931">
        <ele>199</ele>
        <time>2012-07-29T07:05:18Z</time>
      </trkpt>
      <trkpt lat="44.68728" lon="0.86964">
        <ele>203</ele>
        <time>2012-07-29T07:05:25Z</time>
      </trkpt>
      <trkpt lat="44.68737" lon="0.86993">
        <ele>208</ele>
        <time>2012-07-29T07:05:32Z</time>
      </trkpt>
      <trkpt lat="44.68747" lon="0.87021">
        <ele>211</ele>
        <time>2012-07-29T07:05:39Z</time>
      </trkpt>
      <trkpt lat="44.68761" lon="0.87062">
        <ele>212</ele>
        <time>2012-07-29T07:05:46Z</time>
      </trkpt>
      <trkpt lat="44.68816" lon="0.87154">
        <ele>212</ele>
        <time>2012-07-29T07:05:53Z</time>
      </trkpt>
      <trkpt lat="44.68845" lon="0.87185">
        <ele>212</ele>
        <time>2012-07-29T07:06:01Z</time>
      </trkpt>
      <trkpt lat="44.6894" lon="0.87252">
        <ele>209</ele>
        <time>2012-07-29T07:06:08Z</time>
      </trkpt>
      <trkpt lat="44.68958" lon="0.87263">
        <ele>205</ele>
        <time>2012-07-29T07:06:15Z</time>
      </trkpt>
      <trkpt lat="44.68996" lon="0.87287">
        <ele>199</ele>
        <time>2012-07-29T07:06:23Z</time>
      </trkpt>
      <trkpt lat="44.69036" lon="0.87331">
        <ele>194</ele>
        <time>2012-07-29T07:06:31Z</time>
      </trkpt>
      <trkpt lat="44.69077" lon="0.87358">
        <ele>190</ele>
        <time>2012-07-29T07:06:39Z</time>
      </trkpt>
      <trkpt lat="44.69117" lon="0.87376">
        <ele>186</ele>
        <time>2012-07-29T07:06:47Z</time>
      </trkpt>
      <trkpt lat="44.69149" lon="0.87402">
        <ele>183</ele>
        <time>2012-07-29T07:06:54Z</time>
      </trkpt>
      <trkpt lat="44.69202" lon="0.87449">
        <ele>182</ele>
        <time>2012-07-29T07:07:01Z</time>
      </trkpt>
      <trkpt lat="44.69215" lon="0.87459">
        <ele>182</ele>
        <time>2012-07-29T07:07:08Z</time>
      </trkpt>
      <trkpt lat="44.69236" lon="0.87452">
        <ele>182</ele>
        <time>2012-07-29T07:07:18Z</time>
      </trkpt>
      <trkpt lat="44.69274" lon="0.87432">
        <ele>182</ele>
        <time>2012-07-29T07:07:26Z</time>
      </trkpt>
      <trkpt lat="44.69284" lon="0.87426">
        <ele>182</ele>
        <time>2012-07-29T07:07:33Z</time>
      </trkpt>
      <trkpt lat="44.69316" lon="0.87407">
        <ele>182</ele>
        <time>2012-07-29T07:07:41Z</time>
      </trkpt>
      <trkpt lat="44.69346" lon="0.87396">
        <ele>182</ele>
        <time>2012-07-29T07:07:48Z</time>
      </trkpt>
      <trkpt lat="44.69387" lon="0.87376">
        <ele>182</ele>
        <time>2012-07-29T07:07:55Z</time>
      </trkpt>
      <trkpt lat="44.69397" lon="0.87372">
        <ele>182</ele>
        <time>2012-07-29T07:08:02Z</time>
      </trkpt>
      <trkpt lat="44.69434" lon="0.87353">
        <ele>179</ele>
        <time>2012-07-29T07:08:10Z</time>
      </trkpt>
      <trkpt lat="44.69475" lon="0.87331">
        <ele>176</ele>
        <time>2012-07-29T07:08:17Z</time>
      </trkpt>
      <trkpt lat="44.69541" lon="0.87288">
        <ele>176</ele>
        <time>2012-07-29T07:08:24Z</time>
      </trkpt>
      <trkpt lat="44.69564" lon="0.87277">
        <ele>176</ele>
        <time>2012-07-29T07:08:32Z</time>
      </trkpt>
      <trkpt lat="44.69629" lon="0.8726">
        <ele>176</ele>
        <time>2012-07-29T07:08:40Z</time>
      </trkpt>
      <trkpt lat="44.69644" lon="0.87257">
        <ele>174</ele>
        <time>2012-07-29T07:08:48Z</time>
      </trkpt>
      <trkpt lat="44.69691" lon="0.87248">
        <ele>171</ele>
        <time>2012-07-29T07:08:55Z</time>
      </trkpt>
      <trkpt lat="44.69745" lon="0.87227">
        <ele>168</ele>
        <time>2012-07-29T07:09:03Z</time>
      </trkpt>
      <trkpt lat="44.69762" lon="0.87226">
        <ele>166</ele>
        <time>2012-07-29T07:09:09Z</time>
      </trkpt>
      <trkpt lat="44.69765" lon="0.87223">
        <ele>166</ele>
        <time>2012-07-29T07:09:17Z</time>
      </trkpt>
      <trkpt lat="44.69766" lon="0.8722">
        <ele>166</ele>
        <time>2012-07-29T07:09:26Z</time>
      </trkpt>
      <trkpt lat="44.69766" lon="0.87219">
        <ele>166</ele>
        <time>2012-07-29T07:09:35Z</time>
      </trkpt>
      <trkpt lat="44.69765" lon="0.87216">
        <ele>165</ele>
        <time>2012-07-29T07:09:43Z</time>
      </trkpt>
      <trkpt lat="44.69768" lon="0.87215">
        <ele>161</ele>
        <time>2012-07-29T07:09:51Z</time>
      </trkpt>
      <trkpt lat="44.69784" lon="0.8722">
        <ele>161</ele>
        <time>2012-07-29T07:09:57Z</time>
      </trkpt>
      <trkpt lat="44.698" lon="0.87222">
        <ele>162</ele>
        <time>2012-07-29T07:10:03Z</time>
      </trkpt>
      <trkpt lat="44.69803" lon="0.87223">
        <ele>164</ele>
        <time>2012-07-29T07:10:14Z</time>
      </trkpt>
      <trkpt lat="44.69802" lon="0.87225">
        <ele>164</ele>
        <time>2012-07-29T07:10:22Z</time>
      </trkpt>
      <trkpt lat="44.69802" lon="0.87223">
        <ele>164</ele>
        <time>2012-07-29T07:10:30Z</time>
      </trkpt>
      <trkpt lat="44.69804" lon="0.87223">
        <ele>161</ele>
        <time>2012-07-29T07:10:38Z</time>
      </trkpt>
      <trkpt lat="44.69813" lon="0.87222">
        <ele>160</ele>
        <time>2012-07-29T07:10:44Z</time>
      </trkpt>
      <trkpt lat="44.69836" lon="0.87225">
        <ele>160</ele>
        <time>2012-07-29T07:10:50Z</time>
      </trkpt>
      <trkpt lat="44.69854" lon="0.87226">
        <ele>162</ele>
        <time>2012-07-29T07:10:56Z</time>
      </trkpt>
      <trkpt lat="44.6987" lon="0.87224">
        <ele>163</ele>
        <time>2012-07-29T07:11:02Z</time>
      </trkpt>
      <trkpt lat="44.69903" lon="0.87224">
        <ele>163</ele>
        <time>2012-07-29T07:11:08Z</time>
      </trkpt>
      <trkpt lat="44.6992" lon="0.87225">
        <ele>163</ele>
        <time>2012-07-29T07:11:16Z</time>
      </trkpt>
      <trkpt lat="44.69934" lon="0.87227">
        <ele>163</ele>
        <time>2012-07-29T07:11:22Z</time>
      </trkpt>
      <trkpt lat="44.69952" lon="0.87223">
        <ele>163</ele>
        <time>2012-07-29T07:11:29Z</time>
      </trkpt>
      <trkpt lat="44.69962" lon="0.87186">
        <ele>163</ele>
        <time>2012-07-29T07:11:37Z</time>
      </trkpt>
      <trkpt lat="44.69984" lon="0.87158">
        <ele>163</ele>
        <time>2012-07-29T07:11:44Z</time>
      </trkpt>
      <trkpt lat="44.70007" lon="0.87156">
        <ele>162</ele>
        <time>2012-07-29T07:11:51Z</time>
      </trkpt>
      <trkpt lat="44.70024" lon="0.87157">
        <ele>162</ele>
        <time>2012-07-29T07:11:58Z</time>
      </trkpt>
      <trkpt lat="44.70059" lon="0.87158">
        <ele>162</ele>
        <time>2012-07-29T07:12:04Z</time>
      </trkpt>
      <trkpt lat="44.70099" lon="0.87166">
        <ele>165</ele>
        <time>2012-07-29T07:12:10Z</time>
      </trkpt>
      <trkpt lat="44.70143" lon="0.8717">
        <ele>168</ele>
        <time>2012-07-29T07:12:16Z</time>
      </trkpt>
      <trkpt lat="44.70182" lon="0.87166">
        <ele>170</ele>
        <time>2012-07-29T07:12:22Z</time>
      </trkpt>
      <trkpt lat="44.70225" lon="0.8716">
        <ele>170</ele>
        <time>2012-07-29T07:12:28Z</time>
      </trkpt>
      <trkpt lat="44.7027" lon="0.87163">
        <ele>167</ele>
        <time>2012-07-29T07:12:34Z</time>
      </trkpt>
      <trkpt lat="44.70333" lon="0.87177">
        <ele>161</ele>
        <time>2012-07-29T07:12:40Z</time>
      </trkpt>
      <trkpt lat="44.70362" lon="0.87169">
        <ele>159</ele>
        <time>2012-07-29T07:12:46Z</time>
      </trkpt>
      <trkpt lat="44.70374" lon="0.87153">
        <ele>156</ele>
        <time>2012-07-29T07:12:53Z</time>
      </trkpt>
      <trkpt lat="44.70381" lon="0.87125">
        <ele>154</ele>
        <time>2012-07-29T07:13:00Z</time>
      </trkpt>
      <trkpt lat="44.70387" lon="0.87096">
        <ele>154</ele>
        <time>2012-07-29T07:13:06Z</time>
      </trkpt>
      <trkpt lat="44.70391" lon="0.87091">
        <ele>154</ele>
        <time>2012-07-29T07:13:13Z</time>
      </trkpt>
      <trkpt lat="44.70404" lon="0.87093">
        <ele>154</ele>
        <time>2012-07-29T07:13:22Z</time>
      </trkpt>
      <trkpt lat="44.70417" lon="0.87091">
        <ele>154</ele>
        <time>2012-07-29T07:13:28Z</time>
      </trkpt>
      <trkpt lat="44.70438" lon="0.87081">
        <ele>154</ele>
        <time>2012-07-29T07:13:35Z</time>
      </trkpt>
      <trkpt lat="44.70453" lon="0.87066">
        <ele>155</ele>
        <time>2012-07-29T07:13:41Z</time>
      </trkpt>
      <trkpt lat="44.70464" lon="0.87054">
        <ele>156</ele>
        <time>2012-07-29T07:13:47Z</time>
      </trkpt>
      <trkpt lat="44.7048" lon="0.87087">
        <ele>156</ele>
        <time>2012-07-29T07:13:55Z</time>
      </trkpt>
      <trkpt lat="44.70485" lon="0.87106">
        <ele>156</ele>
        <time>2012-07-29T07:14:01Z</time>
      </trkpt>
      <trkpt lat="44.70522" lon="0.87145">
        <ele>156</ele>
        <time>2012-07-29T07:14:08Z</time>
      </trkpt>
      <trkpt lat="44.70559" lon="0.87174">
        <ele>155</ele>
        <time>2012-07-29T07:14:14Z</time>
      </trkpt>
      <trkpt lat="44.70622" lon="0.87227">
        <ele>152</ele>
        <time>2012-07-29T07:14:20Z</time>
      </trkpt>
      <trkpt lat="44.70663" lon="0.87258">
        <ele>150</ele>
        <time>2012-07-29T07:14:26Z</time>
      </trkpt>
      <trkpt lat="44.70695" lon="0.8727">
        <ele>145</ele>
        <time>2012-07-29T07:14:33Z</time>
      </trkpt>
      <trkpt lat="44.70749" lon="0.87295">
        <ele>139</ele>
        <time>2012-07-29T07:14:39Z</time>
      </trkpt>
      <trkpt lat="44.70791" lon="0.87319">
        <ele>133</ele>
        <time>2012-07-29T07:14:45Z</time>
      </trkpt>
      <trkpt lat="44.70813" lon="0.87326">
        <ele>130</ele>
        <time>2012-07-29T07:14:51Z</time>
      </trkpt>
      <trkpt lat="44.70837" lon="0.87318">
        <ele>129</ele>
        <time>2012-07-29T07:14:57Z</time>
      </trkpt>
      <trkpt lat="44.7086" lon="0.87303">
        <ele>129</ele>
        <time>2012-07-29T07:15:05Z</time>
      </trkpt>
      <trkpt lat="44.70879" lon="0.87289">
        <ele>131</ele>
        <time>2012-07-29T07:15:11Z</time>
      </trkpt>
      <trkpt lat="44.70915" lon="0.87258">
        <ele>135</ele>
        <time>2012-07-29T07:15:18Z</time>
      </trkpt>
      <trkpt lat="44.70925" lon="0.87254">
        <ele>136</ele>
        <time>2012-07-29T07:15:24Z</time>
      </trkpt>
      <trkpt lat="44.70948" lon="0.87248">
        <ele>136</ele>
        <time>2012-07-29T07:15:31Z</time>
      </trkpt>
      <trkpt lat="44.70968" lon="0.87249">
        <ele>135</ele>
        <time>2012-07-29T07:15:37Z</time>
      </trkpt>
      <trkpt lat="44.70973" lon="0.87261">
        <ele>135</ele>
        <time>2012-07-29T07:15:46Z</time>
      </trkpt>
      <trkpt lat="44.7097" lon="0.87309">
        <ele>135</ele>
        <time>2012-07-29T07:15:53Z</time>
      </trkpt>
      <trkpt lat="44.7097" lon="0.87321">
        <ele>137</ele>
        <time>2012-07-29T07:15:59Z</time>
      </trkpt>
      <trkpt lat="44.70969" lon="0.8734">
        <ele>140</ele>
        <time>2012-07-29T07:16:05Z</time>
      </trkpt>
      <trkpt lat="44.7096" lon="0.87386">
        <ele>143</ele>
        <time>2012-07-29T07:16:13Z</time>
      </trkpt>
      <trkpt lat="44.7096" lon="0.87403">
        <ele>149</ele>
        <time>2012-07-29T07:16:21Z</time>
      </trkpt>
      <trkpt lat="44.70958" lon="0.87429">
        <ele>155</ele>
        <time>2012-07-29T07:16:27Z</time>
      </trkpt>
      <trkpt lat="44.70959" lon="0.8746">
        <ele>160</ele>
        <time>2012-07-29T07:16:35Z</time>
      </trkpt>
      <trkpt lat="44.7096" lon="0.87494">
        <ele>162</ele>
        <time>2012-07-29T07:16:40Z</time>
      </trkpt>
      <trkpt lat="44.7095" lon="0.87538">
        <ele>166</ele>
        <time>2012-07-29T07:16:46Z</time>
      </trkpt>
      <trkpt lat="44.70945" lon="0.87575">
        <ele>169</ele>
        <time>2012-07-29T07:16:53Z</time>
      </trkpt>
      <trkpt lat="44.70942" lon="0.87596">
        <ele>172</ele>
        <time>2012-07-29T07:17:00Z</time>
      </trkpt>
      <trkpt lat="44.70927" lon="0.87625">
        <ele>172</ele>
        <time>2012-07-29T07:17:09Z</time>
      </trkpt>
      <trkpt lat="44.70933" lon="0.87649">
        <ele>170</ele>
        <time>2012-07-29T07:17:16Z</time>
      </trkpt>
      <trkpt lat="44.70927" lon="0.87704">
        <ele>170</ele>
        <time>2012-07-29T07:17:22Z</time>
      </trkpt>
      <trkpt lat="44.70919" lon="0.87727">
        <ele>170</ele>
        <time>2012-07-29T07:17:28Z</time>
      </trkpt>
      <trkpt lat="44.70914" lon="0.87796">
        <ele>173</ele>
        <time>2012-07-29T07:17:37Z</time>
      </trkpt>
      <trkpt lat="44.70908" lon="0.87885">
        <ele>173</ele>
        <time>2012-07-29T07:17:44Z</time>
      </trkpt>
      <trkpt lat="44.70907" lon="0.87914">
        <ele>173</ele>
        <time>2012-07-29T07:17:50Z</time>
      </trkpt>
      <trkpt lat="44.70916" lon="0.87987">
        <ele>172</ele>
        <time>2012-07-29T07:17:56Z</time>
      </trkpt>
      <trkpt lat="44.70937" lon="0.88078">
        <ele>168</ele>
        <time>2012-07-29T07:18:03Z</time>
      </trkpt>
      <trkpt lat="44.70956" lon="0.88115">
        <ele>165</ele>
        <time>2012-07-29T07:18:10Z</time>
      </trkpt>
      <trkpt lat="44.7096" lon="0.88164">
        <ele>159</ele>
        <time>2012-07-29T07:18:17Z</time>
      </trkpt>
      <trkpt lat="44.70963" lon="0.88185">
        <ele>157</ele>
        <time>2012-07-29T07:18:24Z</time>
      </trkpt>
      <trkpt lat="44.70964" lon="0.88198">
        <ele>157</ele>
        <time>2012-07-29T07:18:31Z</time>
      </trkpt>
      <trkpt lat="44.70972" lon="0.8823">
        <ele>160</ele>
        <time>2012-07-29T07:18:39Z</time>
      </trkpt>
      <trkpt lat="44.70978" lon="0.88256">
        <ele>161</ele>
        <time>2012-07-29T07:18:45Z</time>
      </trkpt>
      <trkpt lat="44.70983" lon="0.88291">
        <ele>161</ele>
        <time>2012-07-29T07:18:52Z</time>
      </trkpt>
      <trkpt lat="44.70989" lon="0.88324">
        <ele>161</ele>
        <time>2012-07-29T07:18:58Z</time>
      </trkpt>
      <trkpt lat="44.70989" lon="0.8837">
        <ele>161</ele>
        <time>2012-07-29T07:19:04Z</time>
      </trkpt>
      <trkpt lat="44.70988" lon="0.88385">
        <ele>161</ele>
        <time>2012-07-29T07:19:10Z</time>
      </trkpt>
      <trkpt lat="44.7099" lon="0.88419">
        <ele>161</ele>
        <time>2012-07-29T07:19:17Z</time>
      </trkpt>
      <trkpt lat="44.71004" lon="0.88443">
        <ele>160</ele>
        <time>2012-07-29T07:19:24Z</time>
      </trkpt>
      <trkpt lat="44.71022" lon="0.88472">
        <ele>160</ele>
        <time>2012-07-29T07:19:30Z</time>
      </trkpt>
      <trkpt lat="44.71029" lon="0.8848">
        <ele>160</ele>
        <time>2012-07-29T07:19:36Z</time>
      </trkpt>
      <trkpt lat="44.71044" lon="0.88503">
        <ele>160</ele>
        <time>2012-07-29T07:19:43Z</time>
      </trkpt>
      <trkpt lat="44.71055" lon="0.88522">
        <ele>160</ele>
        <time>2012-07-29T07:19:49Z</time>
      </trkpt>
      <trkpt lat="44.71072" lon="0.88547">
        <ele>160</ele>
        <time>2012-07-29T07:19:55Z</time>
      </trkpt>
      <trkpt lat="44.71079" lon="0.88557">
        <ele>159</ele>
        <time>2012-07-29T07:20:01Z</time>
      </trkpt>
      <trkpt lat="44.71099" lon="0.88581">
        <ele>156</ele>
        <time>2012-07-29T07:20:08Z</time>
      </trkpt>
      <trkpt lat="44.7111" lon="0.88605">
        <ele>155</ele>
        <time>2012-07-29T07:20:14Z</time>
      </trkpt>
      <trkpt lat="44.71118" lon="0.88638">
        <ele>157</ele>
        <time>2012-07-29T07:20:20Z</time>
      </trkpt>
      <trkpt lat="44.71118" lon="0.8867">
        <ele>161</ele>
        <time>2012-07-29T07:20:29Z</time>
      </trkpt>
      <trkpt lat="44.71121" lon="0.88691">
        <ele>163</ele>
        <time>2012-07-29T07:20:36Z</time>
      </trkpt>
      <trkpt lat="44.71121" lon="0.88718">
        <ele>163</ele>
        <time>2012-07-29T07:20:42Z</time>
      </trkpt>
      <trkpt lat="44.71125" lon="0.88759">
        <ele>163</ele>
        <time>2012-07-29T07:20:48Z</time>
      </trkpt>
      <trkpt lat="44.71125" lon="0.88782">
        <ele>163</ele>
        <time>2012-07-29T07:20:57Z</time>
      </trkpt>
      <trkpt lat="44.71125" lon="0.88819">
        <ele>165</ele>
        <time>2012-07-29T07:21:05Z</time>
      </trkpt>
      <trkpt lat="44.71127" lon="0.8885">
        <ele>166</ele>
        <time>2012-07-29T07:21:11Z</time>
      </trkpt>
      <trkpt lat="44.71127" lon="0.88875">
        <ele>166</ele>
        <time>2012-07-29T07:21:17Z</time>
      </trkpt>
      <trkpt lat="44.71126" lon="0.88908">
        <ele>166</ele>
        <time>2012-07-29T07:21:25Z</time>
      </trkpt>
      <trkpt lat="44.71122" lon="0.8894">
        <ele>166</ele>
        <time>2012-07-29T07:21:32Z</time>
      </trkpt>
      <trkpt lat="44.7112" lon="0.88986">
        <ele>169</ele>
        <time>2012-07-29T07:21:39Z</time>
      </trkpt>
      <trkpt lat="44.71121" lon="0.89003">
        <ele>170</ele>
        <time>2012-07-29T07:21:46Z</time>
      </trkpt>
      <trkpt lat="44.71133" lon="0.89027">
        <ele>171</ele>
        <time>2012-07-29T07:21:54Z</time>
      </trkpt>
      <trkpt lat="44.71138" lon="0.89031">
        <ele>171</ele>
        <time>2012-07-29T07:22:03Z</time>
      </trkpt>
      <trkpt lat="44.71138" lon="0.89039">
        <ele>171</ele>
        <time>2012-07-29T07:22:11Z</time>
      </trkpt>
      <trkpt lat="44.7114" lon="0.89045">
        <ele>171</ele>
        <time>2012-07-29T07:22:17Z</time>
      </trkpt>
      <trkpt lat="44.71142" lon="0.8906">
        <ele>171</ele>
        <time>2012-07-29T07:22:26Z</time>
      </trkpt>
      <trkpt lat="44.71139" lon="0.89084">
        <ele>171</ele>
        <time>2012-07-29T07:22:33Z</time>
      </trkpt>
      <trkpt lat="44.71135" lon="0.89099">
        <ele>171</ele>
        <time>2012-07-29T07:22:39Z</time>
      </trkpt>
      <trkpt lat="44.71134" lon="0.89101">
        <ele>171</ele>
        <time>2012-07-29T07:22:49Z</time>
      </trkpt>
      <trkpt lat="44.71136" lon="0.89104">
        <ele>174</ele>
        <time>2012-07-29T07:22:58Z</time>
      </trkpt>
      <trkpt lat="44.71138" lon="0.89112">
        <ele>177</ele>
        <time>2012-07-29T07:23:07Z</time>
      </trkpt>
      <trkpt lat="44.71135" lon="0.89118">
        <ele>178</ele>
        <time>2012-07-29T07:23:12Z</time>
      </trkpt>
      <trkpt lat="44.71133" lon="0.89134">
        <ele>178</ele>
        <time>2012-07-29T07:23:19Z</time>
      </trkpt>
      <trkpt lat="44.71134" lon="0.89155">
        <ele>178</ele>
        <time>2012-07-29T07:23:26Z</time>
      </trkpt>
      <trkpt lat="44.71134" lon="0.89185">
        <ele>178</ele>
        <time>2012-07-29T07:23:34Z</time>
      </trkpt>
      <trkpt lat="44.71131" lon="0.89215">
        <ele>178</ele>
        <time>2012-07-29T07:23:41Z</time>
      </trkpt>
      <trkpt lat="44.71133" lon="0.89243">
        <ele>178</ele>
        <time>2012-07-29T07:23:47Z</time>
      </trkpt>
      <trkpt lat="44.71133" lon="0.89267">
        <ele>179</ele>
        <time>2012-07-29T07:23:53Z</time>
      </trkpt>
      <trkpt lat="44.71128" lon="0.89298">
        <ele>182</ele>
        <time>2012-07-29T07:24:00Z</time>
      </trkpt>
      <trkpt lat="44.71122" lon="0.89322">
        <ele>185</ele>
        <time>2012-07-29T07:24:06Z</time>
      </trkpt>
      <trkpt lat="44.71112" lon="0.89337">
        <ele>188</ele>
        <time>2012-07-29T07:24:13Z</time>
      </trkpt>
      <trkpt lat="44.71097" lon="0.89354">
        <ele>190</ele>
        <time>2012-07-29T07:24:20Z</time>
      </trkpt>
      <trkpt lat="44.71079" lon="0.89363">
        <ele>192</ele>
        <time>2012-07-29T07:24:26Z</time>
      </trkpt>
      <trkpt lat="44.71066" lon="0.89368">
        <ele>193</ele>
        <time>2012-07-29T07:24:35Z</time>
      </trkpt>
      <trkpt lat="44.71053" lon="0.89372">
        <ele>195</ele>
        <time>2012-07-29T07:24:40Z</time>
      </trkpt>
      <trkpt lat="44.71039" lon="0.89378">
        <ele>199</ele>
        <time>2012-07-29T07:24:48Z</time>
      </trkpt>
      <trkpt lat="44.71024" lon="0.89385">
        <ele>200</ele>
        <time>2012-07-29T07:24:55Z</time>
      </trkpt>
      <trkpt lat="44.71009" lon="0.89389">
        <ele>200</ele>
        <time>2012-07-29T07:25:01Z</time>
      </trkpt>
      <trkpt lat="44.70992" lon="0.89399">
        <ele>200</ele>
        <time>2012-07-29T07:25:08Z</time>
      </trkpt>
      <trkpt lat="44.70978" lon="0.89417">
        <ele>200</ele>
        <time>2012-07-29T07:25:15Z</time>
      </trkpt>
      <trkpt lat="44.70973" lon="0.89421">
        <ele>200</ele>
        <time>2012-07-29T07:25:28Z</time>
      </trkpt>
      <trkpt lat="44.70972" lon="0.89421">
        <ele>200</ele>
        <time>2012-07-29T07:25:43Z</time>
      </trkpt>
      <trkpt lat="44.70971" lon="0.8942">
        <ele>200</ele>
        <time>2012-07-29T07:26:01Z</time>
      </trkpt>
      <trkpt lat="44.7097" lon="0.89418">
        <ele>201</ele>
        <time>2012-07-29T07:26:09Z</time>
      </trkpt>
      <trkpt lat="44.70972" lon="0.89418">
        <ele>203</ele>
        <time>2012-07-29T07:26:28Z</time>
      </trkpt>
      <trkpt lat="44.70975" lon="0.89413">
        <ele>203</ele>
        <time>2012-07-29T07:26:33Z</time>
      </trkpt>
      <trkpt lat="44.70978" lon="0.89409">
        <ele>203</ele>
        <time>2012-07-29T07:26:39Z</time>
      </trkpt>
      <trkpt lat="44.70997" lon="0.89391">
        <ele>203</ele>
        <time>2012-07-29T07:26:45Z</time>
      </trkpt>
      <trkpt lat="44.71011" lon="0.89386">
        <ele>203</ele>
        <time>2012-07-29T07:26:52Z</time>
      </trkpt>
      <trkpt lat="44.71041" lon="0.89378">
        <ele>201</ele>
        <time>2012-07-29T07:26:59Z</time>
      </trkpt>
      <trkpt lat="44.71099" lon="0.89359">
        <ele>198</ele>
        <time>2012-07-29T07:27:05Z</time>
      </trkpt>
      <trkpt lat="44.71117" lon="0.89343">
        <ele>195</ele>
        <time>2012-07-29T07:27:12Z</time>
      </trkpt>
      <trkpt lat="44.71144" lon="0.89362">
        <ele>189</ele>
        <time>2012-07-29T07:27:20Z</time>
      </trkpt>
      <trkpt lat="44.71188" lon="0.89386">
        <ele>186</ele>
        <time>2012-07-29T07:27:27Z</time>
      </trkpt>
      <trkpt lat="44.71191" lon="0.89444">
        <ele>184</ele>
        <time>2012-07-29T07:27:35Z</time>
      </trkpt>
      <trkpt lat="44.71195" lon="0.89489">
        <ele>184</ele>
        <time>2012-07-29T07:27:41Z</time>
      </trkpt>
      <trkpt lat="44.71183" lon="0.89527">
        <ele>184</ele>
        <time>2012-07-29T07:27:49Z</time>
      </trkpt>
      <trkpt lat="44.71175" lon="0.89561">
        <ele>184</ele>
        <time>2012-07-29T07:27:56Z</time>
      </trkpt>
      <trkpt lat="44.7117" lon="0.89598">
        <ele>184</ele>
        <time>2012-07-29T07:28:03Z</time>
      </trkpt>
      <trkpt lat="44.71168" lon="0.89627">
        <ele>184</ele>
        <time>2012-07-29T07:28:09Z</time>
      </trkpt>
      <trkpt lat="44.71174" lon="0.89639">
        <ele>188</ele>
        <time>2012-07-29T07:28:18Z</time>
      </trkpt>
      <trkpt lat="44.7118" lon="0.89651">
        <ele>192</ele>
        <time>2012-07-29T07:28:25Z</time>
      </trkpt>
      <trkpt lat="44.71187" lon="0.89666">
        <ele>196</ele>
        <time>2012-07-29T07:28:32Z</time>
      </trkpt>
      <trkpt lat="44.71187" lon="0.89693">
        <ele>199</ele>
        <time>2012-07-29T07:28:39Z</time>
      </trkpt>
      <trkpt lat="44.71194" lon="0.89707">
        <ele>202</ele>
        <time>2012-07-29T07:28:46Z</time>
      </trkpt>
      <trkpt lat="44.71199" lon="0.89731">
        <ele>205</ele>
        <time>2012-07-29T07:28:54Z</time>
      </trkpt>
      <trkpt lat="44.71204" lon="0.89754">
        <ele>209</ele>
        <time>2012-07-29T07:29:01Z</time>
      </trkpt>
      <trkpt lat="44.71216" lon="0.8979">
        <ele>211</ele>
        <time>2012-07-29T07:29:09Z</time>
      </trkpt>
      <trkpt lat="44.71222" lon="0.89806">
        <ele>210</ele>
        <time>2012-07-29T07:29:17Z</time>
      </trkpt>
      <trkpt lat="44.7123" lon="0.89836">
        <ele>206</ele>
        <time>2012-07-29T07:29:23Z</time>
      </trkpt>
      <trkpt lat="44.71243" lon="0.89879">
        <ele>201</ele>
        <time>2012-07-29T07:29:29Z</time>
      </trkpt>
      <trkpt lat="44.71249" lon="0.89917">
        <ele>198</ele>
        <time>2012-07-29T07:29:36Z</time>
      </trkpt>
      <trkpt lat="44.71256" lon="0.8994">
        <ele>198</ele>
        <time>2012-07-29T07:29:43Z</time>
      </trkpt>
      <trkpt lat="44.71259" lon="0.89994">
        <ele>201</ele>
        <time>2012-07-29T07:29:51Z</time>
      </trkpt>
      <trkpt lat="44.71253" lon="0.90037">
        <ele>204</ele>
        <time>2012-07-29T07:29:57Z</time>
      </trkpt>
      <trkpt lat="44.71253" lon="0.90064">
        <ele>206</ele>
        <time>2012-07-29T07:30:04Z</time>
      </trkpt>
      <trkpt lat="44.71257" lon="0.90069">
        <ele>206</ele>
        <time>2012-07-29T07:30:12Z</time>
      </trkpt>
      <trkpt lat="44.71258" lon="0.90073">
        <ele>205</ele>
        <time>2012-07-29T07:30:30Z</time>
      </trkpt>
      <trkpt lat="44.71265" lon="0.90083">
        <ele>205</ele>
        <time>2012-07-29T07:30:37Z</time>
      </trkpt>
      <trkpt lat="44.71277" lon="0.90096">
        <ele>205</ele>
        <time>2012-07-29T07:30:45Z</time>
      </trkpt>
      <trkpt lat="44.71295" lon="0.90109">
        <ele>205</ele>
        <time>2012-07-29T07:30:51Z</time>
      </trkpt>
      <trkpt lat="44.71306" lon="0.90134">
        <ele>203</ele>
        <time>2012-07-29T07:30:58Z</time>
      </trkpt>
      <trkpt lat="44.71292" lon="0.9018">
        <ele>203</ele>
        <time>2012-07-29T07:31:05Z</time>
      </trkpt>
      <trkpt lat="44.71285" lon="0.90204">
        <ele>204</ele>
        <time>2012-07-29T07:31:10Z</time>
      </trkpt>
      <trkpt lat="44.71283" lon="0.90239">
        <ele>207</ele>
        <time>2012-07-29T07:31:17Z</time>
      </trkpt>
      <trkpt lat="44.71282" lon="0.90254">
        <ele>209</ele>
        <time>2012-07-29T07:31:23Z</time>
      </trkpt>
      <trkpt lat="44.71282" lon="0.90291">
        <ele>212</ele>
        <time>2012-07-29T07:31:30Z</time>
      </trkpt>
      <trkpt lat="44.71285" lon="0.90321">
        <ele>215</ele>
        <time>2012-07-29T07:31:36Z</time>
      </trkpt>
      <trkpt lat="44.71309" lon="0.90343">
        <ele>216</ele>
        <time>2012-07-29T07:31:44Z</time>
      </trkpt>
      <trkpt lat="44.71342" lon="0.90369">
        <ele>214</ele>
        <time>2012-07-29T07:31:50Z</time>
      </trkpt>
      <trkpt lat="44.71354" lon="0.90383">
        <ele>211</ele>
        <time>2012-07-29T07:31:57Z</time>
      </trkpt>
      <trkpt lat="44.71369" lon="0.90415">
        <ele>207</ele>
        <time>2012-07-29T07:32:04Z</time>
      </trkpt>
      <trkpt lat="44.71384" lon="0.90458">
        <ele>205</ele>
        <time>2012-07-29T07:32:11Z</time>
      </trkpt>
      <trkpt lat="44.71394" lon="0.90512">
        <ele>206</ele>
        <time>2012-07-29T07:32:17Z</time>
      </trkpt>
      <trkpt lat="44.714" lon="0.90534">
        <ele>209</ele>
        <time>2012-07-29T07:32:24Z</time>
      </trkpt>
      <trkpt lat="44.71431" lon="0.90575">
        <ele>209</ele>
        <time>2012-07-29T07:32:32Z</time>
      </trkpt>
      <trkpt lat="44.71447" lon="0.90585">
        <ele>207</ele>
        <time>2012-07-29T07:32:39Z</time>
      </trkpt>
      <trkpt lat="44.71471" lon="0.906">
        <ele>205</ele>
        <time>2012-07-29T07:32:45Z</time>
      </trkpt>
      <trkpt lat="44.71493" lon="0.90616">
        <ele>205</ele>
        <time>2012-07-29T07:32:52Z</time>
      </trkpt>
      <trkpt lat="44.71503" lon="0.90622">
        <ele>205</ele>
        <time>2012-07-29T07:32:58Z</time>
      </trkpt>
      <trkpt lat="44.71504" lon="0.90637">
        <ele>209</ele>
        <time>2012-07-29T07:33:07Z</time>
      </trkpt>
      <trkpt lat="44.71495" lon="0.90649">
        <ele>212</ele>
        <time>2012-07-29T07:33:13Z</time>
      </trkpt>
      <trkpt lat="44.71484" lon="0.9066">
        <ele>215</ele>
        <time>2012-07-29T07:33:20Z</time>
      </trkpt>
      <trkpt lat="44.71473" lon="0.90676">
        <ele>216</ele>
        <time>2012-07-29T07:33:27Z</time>
      </trkpt>
      <trkpt lat="44.71471" lon="0.90679">
        <ele>216</ele>
        <time>2012-07-29T07:33:33Z</time>
      </trkpt>
      <trkpt lat="44.71461" lon="0.90694">
        <ele>216</ele>
        <time>2012-07-29T07:33:41Z</time>
      </trkpt>
      <trkpt lat="44.71455" lon="0.90704">
        <ele>214</ele>
        <time>2012-07-29T07:33:50Z</time>
      </trkpt>
      <trkpt lat="44.71452" lon="0.90709">
        <ele>213</ele>
        <time>2012-07-29T07:33:58Z</time>
      </trkpt>
      <trkpt lat="44.71405" lon="0.90737">
        <ele>213</ele>
        <time>2012-07-29T07:34:05Z</time>
      </trkpt>
      <trkpt lat="44.71384" lon="0.90748">
        <ele>213</ele>
        <time>2012-07-29T07:34:12Z</time>
      </trkpt>
      <trkpt lat="44.71354" lon="0.90774">
        <ele>213</ele>
        <time>2012-07-29T07:34:18Z</time>
      </trkpt>
      <trkpt lat="44.71313" lon="0.90799">
        <ele>210</ele>
        <time>2012-07-29T07:34:25Z</time>
      </trkpt>
      <trkpt lat="44.71283" lon="0.90818">
        <ele>210</ele>
        <time>2012-07-29T07:34:31Z</time>
      </trkpt>
      <trkpt lat="44.71251" lon="0.90838">
        <ele>210</ele>
        <time>2012-07-29T07:34:38Z</time>
      </trkpt>
      <trkpt lat="44.71227" lon="0.90853">
        <ele>210</ele>
        <time>2012-07-29T07:34:44Z</time>
      </trkpt>
      <trkpt lat="44.71216" lon="0.90879">
        <ele>210</ele>
        <time>2012-07-29T07:34:52Z</time>
      </trkpt>
      <trkpt lat="44.71207" lon="0.90901">
        <ele>212</ele>
        <time>2012-07-29T07:34:58Z</time>
      </trkpt>
      <trkpt lat="44.71194" lon="0.90934">
        <ele>215</ele>
        <time>2012-07-29T07:35:05Z</time>
      </trkpt>
      <trkpt lat="44.7119" lon="0.90964">
        <ele>220</ele>
        <time>2012-07-29T07:35:11Z</time>
      </trkpt>
      <trkpt lat="44.71185" lon="0.91014">
        <ele>223</ele>
        <time>2012-07-29T07:35:18Z</time>
      </trkpt>
      <trkpt lat="44.7118" lon="0.9106">
        <ele>224</ele>
        <time>2012-07-29T07:35:24Z</time>
      </trkpt>
      <trkpt lat="44.71173" lon="0.91104">
        <ele>222</ele>
        <time>2012-07-29T07:35:31Z</time>
      </trkpt>
      <trkpt lat="44.71167" lon="0.91149">
        <ele>221</ele>
        <time>2012-07-29T07:35:37Z</time>
      </trkpt>
      <trkpt lat="44.7117" lon="0.91207">
        <ele>221</ele>
        <time>2012-07-29T07:35:45Z</time>
      </trkpt>
      <trkpt lat="44.7118" lon="0.91253">
        <ele>221</ele>
        <time>2012-07-29T07:35:53Z</time>
      </trkpt>
      <trkpt lat="44.71184" lon="0.91303">
        <ele>219</ele>
        <time>2012-07-29T07:35:59Z</time>
      </trkpt>
      <trkpt lat="44.71189" lon="0.91352">
        <ele>216</ele>
        <time>2012-07-29T07:36:06Z</time>
      </trkpt>
      <trkpt lat="44.71188" lon="0.9139">
        <ele>216</ele>
        <time>2012-07-29T07:36:12Z</time>
      </trkpt>
      <trkpt lat="44.71194" lon="0.91432">
        <ele>216</ele>
        <time>2012-07-29T07:36:19Z</time>
      </trkpt>
      <trkpt lat="44.71197" lon="0.91464">
        <ele>217</ele>
        <time>2012-07-29T07:36:25Z</time>
      </trkpt>
      <trkpt lat="44.71172" lon="0.91474">
        <ele>217</ele>
        <time>2012-07-29T07:36:33Z</time>
      </trkpt>
      <trkpt lat="44.71147" lon="0.91496">
        <ele>217</ele>
        <time>2012-07-29T07:36:42Z</time>
      </trkpt>
      <trkpt lat="44.7113" lon="0.91523">
        <ele>217</ele>
        <time>2012-07-29T07:36:48Z</time>
      </trkpt>
      <trkpt lat="44.71107" lon="0.91504">
        <ele>217</ele>
        <time>2012-07-29T07:36:57Z</time>
      </trkpt>
      <trkpt lat="44.71083" lon="0.91464">
        <ele>217</ele>
        <time>2012-07-29T07:37:04Z</time>
      </trkpt>
      <trkpt lat="44.71042" lon="0.91438">
        <ele>217</ele>
        <time>2012-07-29T07:37:12Z</time>
      </trkpt>
      <trkpt lat="44.70999" lon="0.91412">
        <ele>217</ele>
        <time>2012-07-29T07:37:18Z</time>
      </trkpt>
      <trkpt lat="44.70985" lon="0.91404">
        <ele>217</ele>
        <time>2012-07-29T07:37:25Z</time>
      </trkpt>
      <trkpt lat="44.70948" lon="0.91378">
        <ele>217</ele>
        <time>2012-07-29T07:37:31Z</time>
      </trkpt>
      <trkpt lat="44.70932" lon="0.91341">
        <ele>217</ele>
        <time>2012-07-29T07:37:39Z</time>
      </trkpt>
      <trkpt lat="44.70908" lon="0.91335">
        <ele>216</ele>
        <time>2012-07-29T07:37:46Z</time>
      </trkpt>
      <trkpt lat="44.70862" lon="0.91323">
        <ele>215</ele>
        <time>2012-07-29T07:37:53Z</time>
      </trkpt>
      <trkpt lat="44.70825" lon="0.91313">
        <ele>214</ele>
        <time>2012-07-29T07:37:59Z</time>
      </trkpt>
      <trkpt lat="44.70788" lon="0.91304">
        <ele>214</ele>
        <time>2012-07-29T07:38:06Z</time>
      </trkpt>
      <trkpt lat="44.70757" lon="0.91285">
        <ele>213</ele>
        <time>2012-07-29T07:38:12Z</time>
      </trkpt>
      <trkpt lat="44.70713" lon="0.91281">
        <ele>212</ele>
        <time>2012-07-29T07:38:20Z</time>
      </trkpt>
      <trkpt lat="44.70678" lon="0.91282">
        <ele>212</ele>
        <time>2012-07-29T07:38:27Z</time>
      </trkpt>
      <trkpt lat="44.70646" lon="0.91284">
        <ele>212</ele>
        <time>2012-07-29T07:38:33Z</time>
      </trkpt>
      <trkpt lat="44.70615" lon="0.91286">
        <ele>212</ele>
        <time>2012-07-29T07:38:40Z</time>
      </trkpt>
      <trkpt lat="44.70575" lon="0.91302">
        <ele>212</ele>
        <time>2012-07-29T07:38:47Z</time>
      </trkpt>
      <trkpt lat="44.70532" lon="0.91328">
        <ele>212</ele>
        <time>2012-07-29T07:38:55Z</time>
      </trkpt>
      <trkpt lat="44.70494" lon="0.91358">
        <ele>212</ele>
        <time>2012-07-29T07:39:01Z</time>
      </trkpt>
      <trkpt lat="44.70462" lon="0.91387">
        <ele>212</ele>
        <time>2012-07-29T07:39:09Z</time>
      </trkpt>
      <trkpt lat="44.70415" lon="0.91375">
        <ele>212</ele>
        <time>2012-07-29T07:39:16Z</time>
      </trkpt>
      <trkpt lat="44.70372" lon="0.91357">
        <ele>210</ele>
        <time>2012-07-29T07:39:23Z</time>
      </trkpt>
      <trkpt lat="44.70322" lon="0.91338">
        <ele>210</ele>
        <time>2012-07-29T07:39:30Z</time>
      </trkpt>
      <trkpt lat="44.70287" lon="0.91376">
        <ele>210</ele>
        <time>2012-07-29T07:39:39Z</time>
      </trkpt>
      <trkpt lat="44.70284" lon="0.91443">
        <ele>211</ele>
        <time>2012-07-29T07:39:47Z</time>
      </trkpt>
      <trkpt lat="44.70247" lon="0.91447">
        <ele>212</ele>
        <time>2012-07-29T07:39:56Z</time>
      </trkpt>
      <trkpt lat="44.70235" lon="0.91439">
        <ele>212</ele>
        <time>2012-07-29T07:40:02Z</time>
      </trkpt>
      <trkpt lat="44.70211" lon="0.9143">
        <ele>213</ele>
        <time>2012-07-29T07:40:09Z</time>
      </trkpt>
      <trkpt lat="44.7018" lon="0.91418">
        <ele>213</ele>
        <time>2012-07-29T07:40:16Z</time>
      </trkpt>
      <trkpt lat="44.7017" lon="0.91415">
        <ele>213</ele>
        <time>2012-07-29T07:40:23Z</time>
      </trkpt>
      <trkpt lat="44.70157" lon="0.91412">
        <ele>214</ele>
        <time>2012-07-29T07:40:30Z</time>
      </trkpt>
      <trkpt lat="44.70149" lon="0.91407">
        <ele>214</ele>
        <time>2012-07-29T07:41:05Z</time>
      </trkpt>
      <trkpt lat="44.70131" lon="0.914">
        <ele>214</ele>
        <time>2012-07-29T07:41:11Z</time>
      </trkpt>
      <trkpt lat="44.70116" lon="0.91394">
        <ele>214</ele>
        <time>2012-07-29T07:41:18Z</time>
      </trkpt>
      <trkpt lat="44.70099" lon="0.91364">
        <ele>214</ele>
        <time>2012-07-29T07:41:25Z</time>
      </trkpt>
      <trkpt lat="44.70084" lon="0.91329">
        <ele>214</ele>
        <time>2012-07-29T07:41:32Z</time>
      </trkpt>
      <trkpt lat="44.70071" lon="0.91297">
        <ele>214</ele>
        <time>2012-07-29T07:41:39Z</time>
      </trkpt>
      <trkpt lat="44.70045" lon="0.91243">
        <ele>214</ele>
        <time>2012-07-29T07:41:45Z</time>
      </trkpt>
      <trkpt lat="44.70037" lon="0.9122">
        <ele>214</ele>
        <time>2012-07-29T07:41:52Z</time>
      </trkpt>
      <trkpt lat="44.70025" lon="0.9119">
        <ele>214</ele>
        <time>2012-07-29T07:41:59Z</time>
      </trkpt>
      <trkpt lat="44.70008" lon="0.91155">
        <ele>214</ele>
        <time>2012-07-29T07:42:05Z</time>
      </trkpt>
      <trkpt lat="44.69992" lon="0.91123">
        <ele>214</ele>
        <time>2012-07-29T07:42:12Z</time>
      </trkpt>
      <trkpt lat="44.69975" lon="0.91097">
        <ele>214</ele>
        <time>2012-07-29T07:42:19Z</time>
      </trkpt>
      <trkpt lat="44.69955" lon="0.9107">
        <ele>214</ele>
        <time>2012-07-29T07:42:25Z</time>
      </trkpt>
      <trkpt lat="44.69934" lon="0.91042">
        <ele>214</ele>
        <time>2012-07-29T07:42:32Z</time>
      </trkpt>
      <trkpt lat="44.69917" lon="0.91017">
        <ele>215</ele>
        <time>2012-07-29T07:42:39Z</time>
      </trkpt>
      <trkpt lat="44.6989" lon="0.90991">
        <ele>216</ele>
        <time>2012-07-29T07:42:45Z</time>
      </trkpt>
      <trkpt lat="44.69858" lon="0.90956">
        <ele>216</ele>
        <time>2012-07-29T07:42:52Z</time>
      </trkpt>
      <trkpt lat="44.69835" lon="0.9093">
        <ele>216</ele>
        <time>2012-07-29T07:42:59Z</time>
      </trkpt>
      <trkpt lat="44.6981" lon="0.90899">
        <ele>216</ele>
        <time>2012-07-29T07:43:05Z</time>
      </trkpt>
      <trkpt lat="44.69783" lon="0.90871">
        <ele>216</ele>
        <time>2012-07-29T07:43:12Z</time>
      </trkpt>
      <trkpt lat="44.6976" lon="0.90842">
        <ele>216</ele>
        <time>2012-07-29T07:43:19Z</time>
      </trkpt>
      <trkpt lat="44.69735" lon="0.9081">
        <ele>216</ele>
        <time>2012-07-29T07:43:25Z</time>
      </trkpt>
      <trkpt lat="44.69712" lon="0.90781">
        <ele>216</ele>
        <time>2012-07-29T07:43:33Z</time>
      </trkpt>
      <trkpt lat="44.69695" lon="0.90762">
        <ele>216</ele>
        <time>2012-07-29T07:43:40Z</time>
      </trkpt>
      <trkpt lat="44.69687" lon="0.9075">
        <ele>216</ele>
        <time>2012-07-29T07:43:47Z</time>
      </trkpt>
      <trkpt lat="44.69668" lon="0.90722">
        <ele>216</ele>
        <time>2012-07-29T07:43:53Z</time>
      </trkpt>
      <trkpt lat="44.69624" lon="0.90679">
        <ele>216</ele>
        <time>2012-07-29T07:44:00Z</time>
      </trkpt>
      <trkpt lat="44.69611" lon="0.90668">
        <ele>216</ele>
        <time>2012-07-29T07:44:07Z</time>
      </trkpt>
      <trkpt lat="44.69585" lon="0.90633">
        <ele>216</ele>
        <time>2012-07-29T07:44:14Z</time>
      </trkpt>
      <trkpt lat="44.69545" lon="0.90567">
        <ele>216</ele>
        <time>2012-07-29T07:44:21Z</time>
      </trkpt>
      <trkpt lat="44.69519" lon="0.90512">
        <ele>215</ele>
        <time>2012-07-29T07:44:28Z</time>
      </trkpt>
      <trkpt lat="44.69509" lon="0.9049">
        <ele>215</ele>
        <time>2012-07-29T07:44:35Z</time>
      </trkpt>
      <trkpt lat="44.69484" lon="0.90441">
        <ele>214</ele>
        <time>2012-07-29T07:44:41Z</time>
      </trkpt>
      <trkpt lat="44.6945" lon="0.90381">
        <ele>213</ele>
        <time>2012-07-29T07:44:48Z</time>
      </trkpt>
      <trkpt lat="44.69442" lon="0.90359">
        <ele>213</ele>
        <time>2012-07-29T07:44:55Z</time>
      </trkpt>
      <trkpt lat="44.69422" lon="0.90316">
        <ele>212</ele>
        <time>2012-07-29T07:45:01Z</time>
      </trkpt>
      <trkpt lat="44.69394" lon="0.9025">
        <ele>212</ele>
        <time>2012-07-29T07:45:08Z</time>
      </trkpt>
      <trkpt lat="44.69371" lon="0.90205">
        <ele>212</ele>
        <time>2012-07-29T07:45:15Z</time>
      </trkpt>
      <trkpt lat="44.69356" lon="0.90185">
        <ele>212</ele>
        <time>2012-07-29T07:45:22Z</time>
      </trkpt>
      <trkpt lat="44.69333" lon="0.90159">
        <ele>212</ele>
        <time>2012-07-29T07:45:29Z</time>
      </trkpt>
      <trkpt lat="44.69306" lon="0.90128">
        <ele>212</ele>
        <time>2012-07-29T07:45:36Z</time>
      </trkpt>
      <trkpt lat="44.693" lon="0.90122">
        <ele>212</ele>
        <time>2012-07-29T07:45:43Z</time>
      </trkpt>
      <trkpt lat="44.69286" lon="0.90109">
        <ele>212</ele>
        <time>2012-07-29T07:45:49Z</time>
      </trkpt>
      <trkpt lat="44.69265" lon="0.90094">
        <ele>212</ele>
        <time>2012-07-29T07:45:56Z</time>
      </trkpt>
      <trkpt lat="44.69251" lon="0.90087">
        <ele>212</ele>
        <time>2012-07-29T07:46:03Z</time>
      </trkpt>
      <trkpt lat="44.69244" lon="0.90084">
        <ele>212</ele>
        <time>2012-07-29T07:46:10Z</time>
      </trkpt>
      <trkpt lat="44.69226" lon="0.90078">
        <ele>213</ele>
        <time>2012-07-29T07:46:16Z</time>
      </trkpt>
      <trkpt lat="44.69195" lon="0.90069">
        <ele>213</ele>
        <time>2012-07-29T07:46:23Z</time>
      </trkpt>
      <trkpt lat="44.69174" lon="0.9006">
        <ele>213</ele>
        <time>2012-07-29T07:46:30Z</time>
      </trkpt>
      <trkpt lat="44.69164" lon="0.90054">
        <ele>213</ele>
        <time>2012-07-29T07:46:37Z</time>
      </trkpt>
      <trkpt lat="44.69139" lon="0.90047">
        <ele>213</ele>
        <time>2012-07-29T07:46:43Z</time>
      </trkpt>
      <trkpt lat="44.69114" lon="0.90044">
        <ele>213</ele>
        <time>2012-07-29T07:46:50Z</time>
      </trkpt>
      <trkpt lat="44.69074" lon="0.90038">
        <ele>213</ele>
        <time>2012-07-29T07:46:57Z</time>
      </trkpt>
      <trkpt lat="44.69065" lon="0.90035">
        <ele>213</ele>
        <time>2012-07-29T07:47:04Z</time>
      </trkpt>
      <trkpt lat="44.69046" lon="0.90026">
        <ele>213</ele>
        <time>2012-07-29T07:47:10Z</time>
      </trkpt>
      <trkpt lat="44.6902" lon="0.90011">
        <ele>213</ele>
        <time>2012-07-29T07:47:17Z</time>
      </trkpt>
      <trkpt lat="44.68972" lon="0.89982">
        <ele>213</ele>
        <time>2012-07-29T07:47:24Z</time>
      </trkpt>
      <trkpt lat="44.68959" lon="0.89974">
        <ele>213</ele>
        <time>2012-07-29T07:47:31Z</time>
      </trkpt>
      <trkpt lat="44.68927" lon="0.89952">
        <ele>213</ele>
        <time>2012-07-29T07:47:37Z</time>
      </trkpt>
      <trkpt lat="44.689" lon="0.89933">
        <ele>213</ele>
        <time>2012-07-29T07:47:44Z</time>
      </trkpt>
      <trkpt lat="44.68855" lon="0.89903">
        <ele>213</ele>
        <time>2012-07-29T07:47:51Z</time>
      </trkpt>
      <trkpt lat="44.6884" lon="0.89894">
        <ele>213</ele>
        <time>2012-07-29T07:47:58Z</time>
      </trkpt>
      <trkpt lat="44.688" lon="0.89869">
        <ele>213</ele>
        <time>2012-07-29T07:48:05Z</time>
      </trkpt>
      <trkpt lat="44.68758" lon="0.89841">
        <ele>213</ele>
        <time>2012-07-29T07:48:11Z</time>
      </trkpt>
      <trkpt lat="44.68719" lon="0.89805">
        <ele>213</ele>
        <time>2012-07-29T07:48:18Z</time>
      </trkpt>
      <trkpt lat="44.68709" lon="0.89794">
        <ele>213</ele>
        <time>2012-07-29T07:48:25Z</time>
      </trkpt>
      <trkpt lat="44.68673" lon="0.89759">
        <ele>212</ele>
        <time>2012-07-29T07:48:32Z</time>
      </trkpt>
      <trkpt lat="44.68621" lon="0.8971">
        <ele>209</ele>
        <time>2012-07-29T07:48:38Z</time>
      </trkpt>
      <trkpt lat="44.68562" lon="0.89651">
        <ele>206</ele>
        <time>2012-07-29T07:48:45Z</time>
      </trkpt>
      <trkpt lat="44.6853" lon="0.89617">
        <ele>203</ele>
        <time>2012-07-29T07:48:52Z</time>
      </trkpt>
      <trkpt lat="44.68494" lon="0.89581">
        <ele>200</ele>
        <time>2012-07-29T07:48:59Z</time>
      </trkpt>
      <trkpt lat="44.68458" lon="0.89548">
        <ele>197</ele>
        <time>2012-07-29T07:49:06Z</time>
      </trkpt>
      <trkpt lat="44.68419" lon="0.89511">
        <ele>194</ele>
        <time>2012-07-29T07:49:13Z</time>
      </trkpt>
      <trkpt lat="44.68385" lon="0.89478">
        <ele>192</ele>
        <time>2012-07-29T07:49:20Z</time>
      </trkpt>
      <trkpt lat="44.68354" lon="0.89449">
        <ele>190</ele>
        <time>2012-07-29T07:49:27Z</time>
      </trkpt>
      <trkpt lat="44.6834" lon="0.89438">
        <ele>190</ele>
        <time>2012-07-29T07:49:34Z</time>
      </trkpt>
      <trkpt lat="44.68303" lon="0.89426">
        <ele>190</ele>
        <time>2012-07-29T07:49:42Z</time>
      </trkpt>
      <trkpt lat="44.68274" lon="0.89431">
        <ele>190</ele>
        <time>2012-07-29T07:49:49Z</time>
      </trkpt>
      <trkpt lat="44.68254" lon="0.89435">
        <ele>189</ele>
        <time>2012-07-29T07:49:55Z</time>
      </trkpt>
      <trkpt lat="44.68238" lon="0.8944">
        <ele>187</ele>
        <time>2012-07-29T07:50:02Z</time>
      </trkpt>
      <trkpt lat="44.68223" lon="0.89437">
        <ele>187</ele>
        <time>2012-07-29T07:50:10Z</time>
      </trkpt>
      <trkpt lat="44.68219" lon="0.8941">
        <ele>187</ele>
        <time>2012-07-29T07:50:18Z</time>
      </trkpt>
      <trkpt lat="44.68221" lon="0.8939">
        <ele>187</ele>
        <time>2012-07-29T07:50:25Z</time>
      </trkpt>
      <trkpt lat="44.68219" lon="0.89376">
        <ele>187</ele>
        <time>2012-07-29T07:50:35Z</time>
      </trkpt>
      <trkpt lat="44.68216" lon="0.89349">
        <ele>187</ele>
        <time>2012-07-29T07:50:41Z</time>
      </trkpt>
      <trkpt lat="44.68214" lon="0.89315">
        <ele>187</ele>
        <time>2012-07-29T07:50:48Z</time>
      </trkpt>
      <trkpt lat="44.68196" lon="0.89276">
        <ele>187</ele>
        <time>2012-07-29T07:50:55Z</time>
      </trkpt>
      <trkpt lat="44.68176" lon="0.89281">
        <ele>186</ele>
        <time>2012-07-29T07:51:03Z</time>
      </trkpt>
      <trkpt lat="44.68138" lon="0.89291">
        <ele>183</ele>
        <time>2012-07-29T07:51:10Z</time>
      </trkpt>
      <trkpt lat="44.68103" lon="0.89297">
        <ele>180</ele>
        <time>2012-07-29T07:51:16Z</time>
      </trkpt>
      <trkpt lat="44.68097" lon="0.89298">
        <ele>176</ele>
        <time>2012-07-29T07:51:25Z</time>
      </trkpt>
      <trkpt lat="44.68107" lon="0.89294">
        <ele>176</ele>
        <time>2012-07-29T07:51:33Z</time>
      </trkpt>
      <trkpt lat="44.68139" lon="0.89285">
        <ele>176</ele>
        <time>2012-07-29T07:51:40Z</time>
      </trkpt>
      <trkpt lat="44.68143" lon="0.89283">
        <ele>176</ele>
        <time>2012-07-29T07:51:50Z</time>
      </trkpt>
      <trkpt lat="44.68142" lon="0.89281">
        <ele>176</ele>
        <time>2012-07-29T07:51:57Z</time>
      </trkpt>
      <trkpt lat="44.68124" lon="0.89288">
        <ele>176</ele>
        <time>2012-07-29T07:52:04Z</time>
      </trkpt>
      <trkpt lat="44.68101" lon="0.89294">
        <ele>176</ele>
        <time>2012-07-29T07:52:11Z</time>
      </trkpt>
      <trkpt lat="44.68097" lon="0.89296">
        <ele>176</ele>
        <time>2012-07-29T07:52:30Z</time>
      </trkpt>
      <trkpt lat="44.68091" lon="0.89298">
        <ele>176</ele>
        <time>2012-07-29T07:52:37Z</time>
      </trkpt>
      <trkpt lat="44.68071" lon="0.89304">
        <ele>175</ele>
        <time>2012-07-29T07:52:43Z</time>
      </trkpt>
      <trkpt lat="44.6805" lon="0.89313">
        <ele>172</ele>
        <time>2012-07-29T07:52:50Z</time>
      </trkpt>
      <trkpt lat="44.68028" lon="0.89315">
        <ele>169</ele>
        <time>2012-07-29T07:52:57Z</time>
      </trkpt>
      <trkpt lat="44.68" lon="0.89319">
        <ele>169</ele>
        <time>2012-07-29T07:53:04Z</time>
      </trkpt>
      <trkpt lat="44.67968" lon="0.89323">
        <ele>169</ele>
        <time>2012-07-29T07:53:11Z</time>
      </trkpt>
      <trkpt lat="44.67937" lon="0.89327">
        <ele>169</ele>
        <time>2012-07-29T07:53:18Z</time>
      </trkpt>
      <trkpt lat="44.67908" lon="0.89325">
        <ele>169</ele>
        <time>2012-07-29T07:53:25Z</time>
      </trkpt>
      <trkpt lat="44.67875" lon="0.89324">
        <ele>169</ele>
        <time>2012-07-29T07:53:32Z</time>
      </trkpt>
      <trkpt lat="44.67852" lon="0.89331">
        <ele>170</ele>
        <time>2012-07-29T07:53:39Z</time>
      </trkpt>
      <trkpt lat="44.67846" lon="0.89389">
        <ele>170</ele>
        <time>2012-07-29T07:53:48Z</time>
      </trkpt>
      <trkpt lat="44.67848" lon="0.89403">
        <ele>170</ele>
        <time>2012-07-29T07:53:55Z</time>
      </trkpt>
      <trkpt lat="44.67843" lon="0.89428">
        <ele>172</ele>
        <time>2012-07-29T07:54:03Z</time>
      </trkpt>
      <trkpt lat="44.67788" lon="0.89406">
        <ele>172</ele>
        <time>2012-07-29T07:54:11Z</time>
      </trkpt>
      <trkpt lat="44.67737" lon="0.89363">
        <ele>170</ele>
        <time>2012-07-29T07:54:18Z</time>
      </trkpt>
      <trkpt lat="44.67683" lon="0.89307">
        <ele>166</ele>
        <time>2012-07-29T07:54:25Z</time>
      </trkpt>
      <trkpt lat="44.67643" lon="0.89263">
        <ele>160</ele>
        <time>2012-07-29T07:54:32Z</time>
      </trkpt>
      <trkpt lat="44.67628" lon="0.89247">
        <ele>154</ele>
        <time>2012-07-29T07:54:39Z</time>
      </trkpt>
      <trkpt lat="44.67609" lon="0.89236">
        <ele>149</ele>
        <time>2012-07-29T07:54:46Z</time>
      </trkpt>
      <trkpt lat="44.67556" lon="0.89214">
        <ele>146</ele>
        <time>2012-07-29T07:54:53Z</time>
      </trkpt>
      <trkpt lat="44.67498" lon="0.8921">
        <ele>141</ele>
        <time>2012-07-29T07:55:00Z</time>
      </trkpt>
      <trkpt lat="44.67451" lon="0.89182">
        <ele>136</ele>
        <time>2012-07-29T07:55:09Z</time>
      </trkpt>
      <trkpt lat="44.67428" lon="0.89139">
        <ele>133</ele>
        <time>2012-07-29T07:55:16Z</time>
      </trkpt>
      <trkpt lat="44.67416" lon="0.89116">
        <ele>132</ele>
        <time>2012-07-29T07:55:24Z</time>
      </trkpt>
      <trkpt lat="44.67393" lon="0.89117">
        <ele>132</ele>
        <time>2012-07-29T07:55:33Z</time>
      </trkpt>
      <trkpt lat="44.67367" lon="0.89131">
        <ele>132</ele>
        <time>2012-07-29T07:55:41Z</time>
      </trkpt>
      <trkpt lat="44.67352" lon="0.89141">
        <ele>132</ele>
        <time>2012-07-29T07:55:49Z</time>
      </trkpt>
      <trkpt lat="44.67351" lon="0.89139">
        <ele>133</ele>
        <time>2012-07-29T07:55:57Z</time>
      </trkpt>
      <trkpt lat="44.67352" lon="0.89138">
        <ele>137</ele>
        <time>2012-07-29T07:56:09Z</time>
      </trkpt>
      <trkpt lat="44.67353" lon="0.8914">
        <ele>142</ele>
        <time>2012-07-29T07:56:23Z</time>
      </trkpt>
      <trkpt lat="44.67352" lon="0.89138">
        <ele>147</ele>
        <time>2012-07-29T07:56:33Z</time>
      </trkpt>
      <trkpt lat="44.67352" lon="0.89135">
        <ele>149</ele>
        <time>2012-07-29T07:56:40Z</time>
      </trkpt>
      <trkpt lat="44.67351" lon="0.89134">
        <ele>153</ele>
        <time>2012-07-29T07:56:49Z</time>
      </trkpt>
      <trkpt lat="44.6735" lon="0.89133">
        <ele>153</ele>
        <time>2012-07-29T07:56:59Z</time>
      </trkpt>
      <trkpt lat="44.67348" lon="0.89136">
        <ele>149</ele>
        <time>2012-07-29T07:57:15Z</time>
      </trkpt>
      <trkpt lat="44.67344" lon="0.8914">
        <ele>146</ele>
        <time>2012-07-29T07:57:23Z</time>
      </trkpt>
      <trkpt lat="44.67337" lon="0.8915">
        <ele>145</ele>
        <time>2012-07-29T07:57:31Z</time>
      </trkpt>
      <trkpt lat="44.67328" lon="0.89161">
        <ele>145</ele>
        <time>2012-07-29T07:57:39Z</time>
      </trkpt>
      <trkpt lat="44.67318" lon="0.89175">
        <ele>147</ele>
        <time>2012-07-29T07:57:47Z</time>
      </trkpt>
      <trkpt lat="44.6731" lon="0.89196">
        <ele>147</ele>
        <time>2012-07-29T07:57:54Z</time>
      </trkpt>
      <trkpt lat="44.67309" lon="0.89205">
        <ele>147</ele>
        <time>2012-07-29T07:58:02Z</time>
      </trkpt>
      <trkpt lat="44.67306" lon="0.89204">
        <ele>147</ele>
        <time>2012-07-29T07:58:11Z</time>
      </trkpt>
      <trkpt lat="44.67305" lon="0.89206">
        <ele>149</ele>
        <time>2012-07-29T07:58:19Z</time>
      </trkpt>
      <trkpt lat="44.67298" lon="0.89218">
        <ele>151</ele>
        <time>2012-07-29T07:58:27Z</time>
      </trkpt>
      <trkpt lat="44.67293" lon="0.89237">
        <ele>150</ele>
        <time>2012-07-29T07:58:36Z</time>
      </trkpt>
      <trkpt lat="44.67275" lon="0.89267">
        <ele>147</ele>
        <time>2012-07-29T07:58:43Z</time>
      </trkpt>
      <trkpt lat="44.67264" lon="0.89298">
        <ele>147</ele>
        <time>2012-07-29T07:58:52Z</time>
      </trkpt>
      <trkpt lat="44.67255" lon="0.8932">
        <ele>147</ele>
        <time>2012-07-29T07:58:58Z</time>
      </trkpt>
      <trkpt lat="44.67244" lon="0.89344">
        <ele>147</ele>
        <time>2012-07-29T07:59:05Z</time>
      </trkpt>
      <trkpt lat="44.67234" lon="0.89368">
        <ele>147</ele>
        <time>2012-07-29T07:59:12Z</time>
      </trkpt>
      <trkpt lat="44.67225" lon="0.89394">
        <ele>147</ele>
        <time>2012-07-29T07:59:19Z</time>
      </trkpt>
      <trkpt lat="44.67215" lon="0.89424">
        <ele>147</ele>
        <time>2012-07-29T07:59:26Z</time>
      </trkpt>
      <trkpt lat="44.67203" lon="0.89458">
        <ele>149</ele>
        <time>2012-07-29T07:59:33Z</time>
      </trkpt>
      <trkpt lat="44.67188" lon="0.89489">
        <ele>150</ele>
        <time>2012-07-29T07:59:40Z</time>
      </trkpt>
      <trkpt lat="44.6717" lon="0.89515">
        <ele>151</ele>
        <time>2012-07-29T07:59:47Z</time>
      </trkpt>
      <trkpt lat="44.6715" lon="0.89544">
        <ele>152</ele>
        <time>2012-07-29T07:59:54Z</time>
      </trkpt>
      <trkpt lat="44.6713" lon="0.89569">
        <ele>154</ele>
        <time>2012-07-29T08:00:01Z</time>
      </trkpt>
      <trkpt lat="44.6711" lon="0.89592">
        <ele>154</ele>
        <time>2012-07-29T08:00:08Z</time>
      </trkpt>
      <trkpt lat="44.67088" lon="0.89615">
        <ele>154</ele>
        <time>2012-07-29T08:00:15Z</time>
      </trkpt>
      <trkpt lat="44.67067" lon="0.89638">
        <ele>154</ele>
        <time>2012-07-29T08:00:22Z</time>
      </trkpt>
      <trkpt lat="44.67044" lon="0.89663">
        <ele>154</ele>
        <time>2012-07-29T08:00:29Z</time>
      </trkpt>
      <trkpt lat="44.67026" lon="0.89694">
        <ele>155</ele>
        <time>2012-07-29T08:00:38Z</time>
      </trkpt>
      <trkpt lat="44.67014" lon="0.89726">
        <ele>157</ele>
        <time>2012-07-29T08:00:44Z</time>
      </trkpt>
      <trkpt lat="44.67003" lon="0.89757">
        <ele>160</ele>
        <time>2012-07-29T08:00:51Z</time>
      </trkpt>
      <trkpt lat="44.66991" lon="0.89788">
        <ele>163</ele>
        <time>2012-07-29T08:00:58Z</time>
      </trkpt>
      <trkpt lat="44.66977" lon="0.8982">
        <ele>166</ele>
        <time>2012-07-29T08:01:05Z</time>
      </trkpt>
      <trkpt lat="44.66954" lon="0.89866">
        <ele>169</ele>
        <time>2012-07-29T08:01:13Z</time>
      </trkpt>
      <trkpt lat="44.66938" lon="0.89889">
        <ele>169</ele>
        <time>2012-07-29T08:01:20Z</time>
      </trkpt>
      <trkpt lat="44.66928" lon="0.899">
        <ele>169</ele>
        <time>2012-07-29T08:01:28Z</time>
      </trkpt>
      <trkpt lat="44.66905" lon="0.89908">
        <ele>170</ele>
        <time>2012-07-29T08:01:35Z</time>
      </trkpt>
      <trkpt lat="44.66877" lon="0.89903">
        <ele>171</ele>
        <time>2012-07-29T08:01:44Z</time>
      </trkpt>
      <trkpt lat="44.66853" lon="0.89897">
        <ele>172</ele>
        <time>2012-07-29T08:01:51Z</time>
      </trkpt>
      <trkpt lat="44.6683" lon="0.89891">
        <ele>173</ele>
        <time>2012-07-29T08:01:58Z</time>
      </trkpt>
      <trkpt lat="44.66809" lon="0.89883">
        <ele>176</ele>
        <time>2012-07-29T08:02:05Z</time>
      </trkpt>
      <trkpt lat="44.66794" lon="0.89876">
        <ele>178</ele>
        <time>2012-07-29T08:02:12Z</time>
      </trkpt>
      <trkpt lat="44.66773" lon="0.8988">
        <ele>179</ele>
        <time>2012-07-29T08:02:22Z</time>
      </trkpt>
      <trkpt lat="44.66751" lon="0.89885">
        <ele>179</ele>
        <time>2012-07-29T08:02:30Z</time>
      </trkpt>
      <trkpt lat="44.66716" lon="0.89898">
        <ele>181</ele>
        <time>2012-07-29T08:02:38Z</time>
      </trkpt>
      <trkpt lat="44.66694" lon="0.89911">
        <ele>182</ele>
        <time>2012-07-29T08:02:45Z</time>
      </trkpt>
      <trkpt lat="44.66681" lon="0.89921">
        <ele>185</ele>
        <time>2012-07-29T08:02:52Z</time>
      </trkpt>
      <trkpt lat="44.66658" lon="0.89931">
        <ele>188</ele>
        <time>2012-07-29T08:02:59Z</time>
      </trkpt>
      <trkpt lat="44.6663" lon="0.89948">
        <ele>189</ele>
        <time>2012-07-29T08:03:06Z</time>
      </trkpt>
      <trkpt lat="44.66605" lon="0.89966">
        <ele>191</ele>
        <time>2012-07-29T08:03:13Z</time>
      </trkpt>
      <trkpt lat="44.66578" lon="0.8998">
        <ele>191</ele>
        <time>2012-07-29T08:03:20Z</time>
      </trkpt>
      <trkpt lat="44.66552" lon="0.89991">
        <ele>192</ele>
        <time>2012-07-29T08:03:27Z</time>
      </trkpt>
      <trkpt lat="44.66521" lon="0.90002">
        <ele>194</ele>
        <time>2012-07-29T08:03:34Z</time>
      </trkpt>
      <trkpt lat="44.66487" lon="0.90013">
        <ele>194</ele>
        <time>2012-07-29T08:03:41Z</time>
      </trkpt>
      <trkpt lat="44.66451" lon="0.90031">
        <ele>194</ele>
        <time>2012-07-29T08:03:48Z</time>
      </trkpt>
      <trkpt lat="44.66417" lon="0.90051">
        <ele>194</ele>
        <time>2012-07-29T08:03:55Z</time>
      </trkpt>
      <trkpt lat="44.66387" lon="0.90058">
        <ele>191</ele>
        <time>2012-07-29T08:04:02Z</time>
      </trkpt>
      <trkpt lat="44.66356" lon="0.90066">
        <ele>188</ele>
        <time>2012-07-29T08:04:09Z</time>
      </trkpt>
      <trkpt lat="44.6627" lon="0.90074">
        <ele>186</ele>
        <time>2012-07-29T08:04:18Z</time>
      </trkpt>
      <trkpt lat="44.66244" lon="0.90065">
        <ele>184</ele>
        <time>2012-07-29T08:04:25Z</time>
      </trkpt>
      <trkpt lat="44.66209" lon="0.90045">
        <ele>181</ele>
        <time>2012-07-29T08:04:33Z</time>
      </trkpt>
      <trkpt lat="44.66195" lon="0.90032">
        <ele>180</ele>
        <time>2012-07-29T08:04:41Z</time>
      </trkpt>
      <trkpt lat="44.6617" lon="0.90019">
        <ele>181</ele>
        <time>2012-07-29T08:04:48Z</time>
      </trkpt>
      <trkpt lat="44.6613" lon="0.90013">
        <ele>184</ele>
        <time>2012-07-29T08:04:55Z</time>
      </trkpt>
      <trkpt lat="44.66104" lon="0.90002">
        <ele>185</ele>
        <time>2012-07-29T08:05:02Z</time>
      </trkpt>
      <trkpt lat="44.66079" lon="0.89993">
        <ele>185</ele>
        <time>2012-07-29T08:05:09Z</time>
      </trkpt>
      <trkpt lat="44.6607" lon="0.8999">
        <ele>185</ele>
        <time>2012-07-29T08:05:16Z</time>
      </trkpt>
      <trkpt lat="44.66061" lon="0.8999">
        <ele>189</ele>
        <time>2012-07-29T08:05:27Z</time>
      </trkpt>
      <trkpt lat="44.66059" lon="0.89992">
        <ele>191</ele>
        <time>2012-07-29T08:05:35Z</time>
      </trkpt>
      <trkpt lat="44.6606" lon="0.89994">
        <ele>192</ele>
        <time>2012-07-29T08:05:44Z</time>
      </trkpt>
      <trkpt lat="44.66056" lon="0.89993">
        <ele>193</ele>
        <time>2012-07-29T08:05:54Z</time>
      </trkpt>
      <trkpt lat="44.66056" lon="0.89991">
        <ele>196</ele>
        <time>2012-07-29T08:06:03Z</time>
      </trkpt>
      <trkpt lat="44.66053" lon="0.89994">
        <ele>197</ele>
        <time>2012-07-29T08:06:13Z</time>
      </trkpt>
      <trkpt lat="44.66054" lon="0.89997">
        <ele>199</ele>
        <time>2012-07-29T08:06:26Z</time>
      </trkpt>
      <trkpt lat="44.66056" lon="0.89997">
        <ele>199</ele>
        <time>2012-07-29T08:06:32Z</time>
      </trkpt>
      <trkpt lat="44.66057" lon="0.89996">
        <ele>199</ele>
        <time>2012-07-29T08:06:42Z</time>
      </trkpt>
      <trkpt lat="44.66051" lon="0.89992">
        <ele>201</ele>
        <time>2012-07-29T08:06:52Z</time>
      </trkpt>
      <trkpt lat="44.6604" lon="0.89987">
        <ele>201</ele>
        <time>2012-07-29T08:07:00Z</time>
      </trkpt>
      <trkpt lat="44.65996" lon="0.89986">
        <ele>195</ele>
        <time>2012-07-29T08:07:07Z</time>
      </trkpt>
      <trkpt lat="44.65934" lon="0.89984">
        <ele>189</ele>
        <time>2012-07-29T08:07:15Z</time>
      </trkpt>
      <trkpt lat="44.65917" lon="0.89987">
        <ele>183</ele>
        <time>2012-07-29T08:07:22Z</time>
      </trkpt>
      <trkpt lat="44.65876" lon="0.89992">
        <ele>171</ele>
        <time>2012-07-29T08:07:30Z</time>
      </trkpt>
      <trkpt lat="44.65838" lon="0.89999">
        <ele>162</ele>
        <time>2012-07-29T08:07:38Z</time>
      </trkpt>
      <trkpt lat="44.65815" lon="0.89985">
        <ele>153</ele>
        <time>2012-07-29T08:07:47Z</time>
      </trkpt>
      <trkpt lat="44.65807" lon="0.89957">
        <ele>153</ele>
        <time>2012-07-29T08:07:56Z</time>
      </trkpt>
      <trkpt lat="44.65795" lon="0.89929">
        <ele>155</ele>
        <time>2012-07-29T08:08:05Z</time>
      </trkpt>
      <trkpt lat="44.65781" lon="0.89917">
        <ele>158</ele>
        <time>2012-07-29T08:08:13Z</time>
      </trkpt>
      <trkpt lat="44.65762" lon="0.89924">
        <ele>162</ele>
        <time>2012-07-29T08:08:21Z</time>
      </trkpt>
      <trkpt lat="44.65747" lon="0.89929">
        <ele>166</ele>
        <time>2012-07-29T08:08:30Z</time>
      </trkpt>
      <trkpt lat="44.65726" lon="0.8993">
        <ele>167</ele>
        <time>2012-07-29T08:08:37Z</time>
      </trkpt>
      <trkpt lat="44.65716" lon="0.89939">
        <ele>167</ele>
        <time>2012-07-29T08:08:45Z</time>
      </trkpt>
      <trkpt lat="44.65701" lon="0.89948">
        <ele>167</ele>
        <time>2012-07-29T08:08:53Z</time>
      </trkpt>
      <trkpt lat="44.65686" lon="0.89952">
        <ele>167</ele>
        <time>2012-07-29T08:09:00Z</time>
      </trkpt>
      <trkpt lat="44.65663" lon="0.89961">
        <ele>167</ele>
        <time>2012-07-29T08:09:07Z</time>
      </trkpt>
      <trkpt lat="44.65635" lon="0.89979">
        <ele>170</ele>
        <time>2012-07-29T08:09:15Z</time>
      </trkpt>
      <trkpt lat="44.65612" lon="0.89989">
        <ele>172</ele>
        <time>2012-07-29T08:09:22Z</time>
      </trkpt>
      <trkpt lat="44.65586" lon="0.89998">
        <ele>177</ele>
        <time>2012-07-29T08:09:31Z</time>
      </trkpt>
      <trkpt lat="44.65567" lon="0.90001">
        <ele>179</ele>
        <time>2012-07-29T08:09:37Z</time>
      </trkpt>
      <trkpt lat="44.6554" lon="0.90013">
        <ele>183</ele>
        <time>2012-07-29T08:09:46Z</time>
      </trkpt>
      <trkpt lat="44.65519" lon="0.90026">
        <ele>186</ele>
        <time>2012-07-29T08:09:53Z</time>
      </trkpt>
      <trkpt lat="44.65499" lon="0.90038">
        <ele>187</ele>
        <time>2012-07-29T08:10:00Z</time>
      </trkpt>
      <trkpt lat="44.65465" lon="0.90057">
        <ele>187</ele>
        <time>2012-07-29T08:10:07Z</time>
      </trkpt>
      <trkpt lat="44.65442" lon="0.90069">
        <ele>187</ele>
        <time>2012-07-29T08:10:14Z</time>
      </trkpt>
      <trkpt lat="44.65428" lon="0.90077">
        <ele>187</ele>
        <time>2012-07-29T08:10:21Z</time>
      </trkpt>
      <trkpt lat="44.65401" lon="0.90091">
        <ele>187</ele>
        <time>2012-07-29T08:10:28Z</time>
      </trkpt>
      <trkpt lat="44.65376" lon="0.9011">
        <ele>187</ele>
        <time>2012-07-29T08:10:35Z</time>
      </trkpt>
      <trkpt lat="44.65333" lon="0.90132">
        <ele>185</ele>
        <time>2012-07-29T08:10:44Z</time>
      </trkpt>
      <trkpt lat="44.6532" lon="0.90134">
        <ele>185</ele>
        <time>2012-07-29T08:10:52Z</time>
      </trkpt>
      <trkpt lat="44.653" lon="0.90138">
        <ele>185</ele>
        <time>2012-07-29T08:10:59Z</time>
      </trkpt>
      <trkpt lat="44.65277" lon="0.90128">
        <ele>186</ele>
        <time>2012-07-29T08:11:07Z</time>
      </trkpt>
      <trkpt lat="44.65251" lon="0.90127">
        <ele>187</ele>
        <time>2012-07-29T08:11:15Z</time>
      </trkpt>
      <trkpt lat="44.65215" lon="0.90111">
        <ele>187</ele>
        <time>2012-07-29T08:11:22Z</time>
      </trkpt>
      <trkpt lat="44.65203" lon="0.90109">
        <ele>187</ele>
        <time>2012-07-29T08:11:29Z</time>
      </trkpt>
      <trkpt lat="44.65173" lon="0.90098">
        <ele>189</ele>
        <time>2012-07-29T08:11:36Z</time>
      </trkpt>
      <trkpt lat="44.65137" lon="0.90086">
        <ele>192</ele>
        <time>2012-07-29T08:11:44Z</time>
      </trkpt>
      <trkpt lat="44.65128" lon="0.90076">
        <ele>194</ele>
        <time>2012-07-29T08:11:52Z</time>
      </trkpt>
      <trkpt lat="44.65114" lon="0.90051">
        <ele>196</ele>
        <time>2012-07-29T08:12:00Z</time>
      </trkpt>
      <trkpt lat="44.65097" lon="0.90023">
        <ele>199</ele>
        <time>2012-07-29T08:12:07Z</time>
      </trkpt>
      <trkpt lat="44.65073" lon="0.89979">
        <ele>202</ele>
        <time>2012-07-29T08:12:14Z</time>
      </trkpt>
      <trkpt lat="44.65069" lon="0.89971">
        <ele>204</ele>
        <time>2012-07-29T08:12:21Z</time>
      </trkpt>
      <trkpt lat="44.65064" lon="0.89961">
        <ele>205</ele>
        <time>2012-07-29T08:12:31Z</time>
      </trkpt>
      <trkpt lat="44.65063" lon="0.89959">
        <ele>205</ele>
        <time>2012-07-29T08:12:40Z</time>
      </trkpt>
      <trkpt lat="44.65061" lon="0.89959">
        <ele>205</ele>
        <time>2012-07-29T08:12:53Z</time>
      </trkpt>
      <trkpt lat="44.65063" lon="0.89961">
        <ele>205</ele>
        <time>2012-07-29T08:12:59Z</time>
      </trkpt>
      <trkpt lat="44.65065" lon="0.89962">
        <ele>205</ele>
        <time>2012-07-29T08:13:14Z</time>
      </trkpt>
      <trkpt lat="44.65064" lon="0.8996">
        <ele>205</ele>
        <time>2012-07-29T08:13:24Z</time>
      </trkpt>
      <trkpt lat="44.65062" lon="0.89964">
        <ele>205</ele>
        <time>2012-07-29T08:13:33Z</time>
      </trkpt>
      <trkpt lat="44.65057" lon="0.89973">
        <ele>205</ele>
        <time>2012-07-29T08:13:41Z</time>
      </trkpt>
      <trkpt lat="44.65042" lon="0.89985">
        <ele>202</ele>
        <time>2012-07-29T08:13:48Z</time>
      </trkpt>
      <trkpt lat="44.65025" lon="0.90004">
        <ele>202</ele>
        <time>2012-07-29T08:13:56Z</time>
      </trkpt>
      <trkpt lat="44.64991" lon="0.90038">
        <ele>202</ele>
        <time>2012-07-29T08:14:03Z</time>
      </trkpt>
      <trkpt lat="44.64975" lon="0.9004">
        <ele>202</ele>
        <time>2012-07-29T08:14:11Z</time>
      </trkpt>
      <trkpt lat="44.64918" lon="0.90029">
        <ele>202</ele>
        <time>2012-07-29T08:14:18Z</time>
      </trkpt>
      <trkpt lat="44.64895" lon="0.90024">
        <ele>201</ele>
        <time>2012-07-29T08:14:25Z</time>
      </trkpt>
      <trkpt lat="44.64863" lon="0.90023">
        <ele>199</ele>
        <time>2012-07-29T08:14:32Z</time>
      </trkpt>
      <trkpt lat="44.64822" lon="0.90025">
        <ele>196</ele>
        <time>2012-07-29T08:14:40Z</time>
      </trkpt>
      <trkpt lat="44.64768" lon="0.90022">
        <ele>196</ele>
        <time>2012-07-29T08:14:47Z</time>
      </trkpt>
      <trkpt lat="44.64759" lon="0.90024">
        <ele>196</ele>
        <time>2012-07-29T08:14:54Z</time>
      </trkpt>
      <trkpt lat="44.64744" lon="0.90014">
        <ele>199</ele>
        <time>2012-07-29T08:15:03Z</time>
      </trkpt>
      <trkpt lat="44.64756" lon="0.89967">
        <ele>203</ele>
        <time>2012-07-29T08:15:11Z</time>
      </trkpt>
      <trkpt lat="44.64773" lon="0.89922">
        <ele>206</ele>
        <time>2012-07-29T08:15:19Z</time>
      </trkpt>
      <trkpt lat="44.64803" lon="0.89849">
        <ele>209</ele>
        <time>2012-07-29T08:15:26Z</time>
      </trkpt>
      <trkpt lat="44.64812" lon="0.89831">
        <ele>210</ele>
        <time>2012-07-29T08:15:33Z</time>
      </trkpt>
      <trkpt lat="44.64833" lon="0.89773">
        <ele>210</ele>
        <time>2012-07-29T08:15:40Z</time>
      </trkpt>
      <trkpt lat="44.64852" lon="0.89724">
        <ele>210</ele>
        <time>2012-07-29T08:15:47Z</time>
      </trkpt>
      <trkpt lat="44.64859" lon="0.89703">
        <ele>210</ele>
        <time>2012-07-29T08:15:58Z</time>
      </trkpt>
      <trkpt lat="44.64862" lon="0.89703">
        <ele>210</ele>
        <time>2012-07-29T08:16:10Z</time>
      </trkpt>
      <trkpt lat="44.64862" lon="0.89701">
        <ele>210</ele>
        <time>2012-07-29T08:16:16Z</time>
      </trkpt>
      <trkpt lat="44.64861" lon="0.89697">
        <ele>211</ele>
        <time>2012-07-29T08:16:25Z</time>
      </trkpt>
      <trkpt lat="44.64863" lon="0.89689">
        <ele>212</ele>
        <time>2012-07-29T08:16:35Z</time>
      </trkpt>
      <trkpt lat="44.64867" lon="0.89677">
        <ele>217</ele>
        <time>2012-07-29T08:16:44Z</time>
      </trkpt>
      <trkpt lat="44.64869" lon="0.89654">
        <ele>217</ele>
        <time>2012-07-29T08:16:51Z</time>
      </trkpt>
      <trkpt lat="44.64863" lon="0.8962">
        <ele>217</ele>
        <time>2012-07-29T08:16:59Z</time>
      </trkpt>
      <trkpt lat="44.64859" lon="0.89567">
        <ele>215</ele>
        <time>2012-07-29T08:17:06Z</time>
      </trkpt>
      <trkpt lat="44.64859" lon="0.8955">
        <ele>215</ele>
        <time>2012-07-29T08:17:13Z</time>
      </trkpt>
      <trkpt lat="44.64876" lon="0.89509">
        <ele>214</ele>
        <time>2012-07-29T08:17:22Z</time>
      </trkpt>
      <trkpt lat="44.64899" lon="0.89471">
        <ele>213</ele>
        <time>2012-07-29T08:17:30Z</time>
      </trkpt>
      <trkpt lat="44.64923" lon="0.89421">
        <ele>209</ele>
        <time>2012-07-29T08:17:37Z</time>
      </trkpt>
      <trkpt lat="44.64939" lon="0.89389">
        <ele>205</ele>
        <time>2012-07-29T08:17:46Z</time>
      </trkpt>
      <trkpt lat="44.64963" lon="0.89328">
        <ele>202</ele>
        <time>2012-07-29T08:17:53Z</time>
      </trkpt>
      <trkpt lat="44.64968" lon="0.89313">
        <ele>200</ele>
        <time>2012-07-29T08:18:00Z</time>
      </trkpt>
      <trkpt lat="44.64939" lon="0.89284">
        <ele>195</ele>
        <time>2012-07-29T08:18:09Z</time>
      </trkpt>
      <trkpt lat="44.64938" lon="0.89219">
        <ele>192</ele>
        <time>2012-07-29T08:18:18Z</time>
      </trkpt>
      <trkpt lat="44.64967" lon="0.89202">
        <ele>192</ele>
        <time>2012-07-29T08:18:25Z</time>
      </trkpt>
      <trkpt lat="44.6501" lon="0.89207">
        <ele>192</ele>
        <time>2012-07-29T08:18:34Z</time>
      </trkpt>
      <trkpt lat="44.65028" lon="0.89147">
        <ele>194</ele>
        <time>2012-07-29T08:18:42Z</time>
      </trkpt>
      <trkpt lat="44.65044" lon="0.8909">
        <ele>196</ele>
        <time>2012-07-29T08:18:49Z</time>
      </trkpt>
      <trkpt lat="44.65067" lon="0.8903">
        <ele>196</ele>
        <time>2012-07-29T08:18:58Z</time>
      </trkpt>
      <trkpt lat="44.65114" lon="0.89011">
        <ele>196</ele>
        <time>2012-07-29T08:19:08Z</time>
      </trkpt>
      <trkpt lat="44.65158" lon="0.89017">
        <ele>196</ele>
        <time>2012-07-29T08:19:14Z</time>
      </trkpt>
      <trkpt lat="44.65167" lon="0.89006">
        <ele>196</ele>
        <time>2012-07-29T08:19:23Z</time>
      </trkpt>
      <trkpt lat="44.65174" lon="0.88983">
        <ele>196</ele>
        <time>2012-07-29T08:19:30Z</time>
      </trkpt>
      <trkpt lat="44.65179" lon="0.88948">
        <ele>196</ele>
        <time>2012-07-29T08:19:38Z</time>
      </trkpt>
      <trkpt lat="44.6519" lon="0.88892">
        <ele>196</ele>
        <time>2012-07-29T08:19:45Z</time>
      </trkpt>
      <trkpt lat="44.65192" lon="0.88877">
        <ele>196</ele>
        <time>2012-07-29T08:19:52Z</time>
      </trkpt>
      <trkpt lat="44.65201" lon="0.88833">
        <ele>196</ele>
        <time>2012-07-29T08:19:59Z</time>
      </trkpt>
      <trkpt lat="44.65212" lon="0.88787">
        <ele>196</ele>
        <time>2012-07-29T08:20:07Z</time>
      </trkpt>
      <trkpt lat="44.65223" lon="0.8874">
        <ele>196</ele>
        <time>2012-07-29T08:20:14Z</time>
      </trkpt>
      <trkpt lat="44.65234" lon="0.88683">
        <ele>195</ele>
        <time>2012-07-29T08:20:21Z</time>
      </trkpt>
      <trkpt lat="44.65243" lon="0.88637">
        <ele>194</ele>
        <time>2012-07-29T08:20:29Z</time>
      </trkpt>
      <trkpt lat="44.65214" lon="0.88606">
        <ele>191</ele>
        <time>2012-07-29T08:20:37Z</time>
      </trkpt>
      <trkpt lat="44.65194" lon="0.88616">
        <ele>188</ele>
        <time>2012-07-29T08:20:45Z</time>
      </trkpt>
      <trkpt lat="44.651" lon="0.88582">
        <ele>184</ele>
        <time>2012-07-29T08:20:53Z</time>
      </trkpt>
      <trkpt lat="44.6506" lon="0.88571">
        <ele>180</ele>
        <time>2012-07-29T08:20:59Z</time>
      </trkpt>
      <trkpt lat="44.64996" lon="0.88556">
        <ele>174</ele>
        <time>2012-07-29T08:21:05Z</time>
      </trkpt>
      <trkpt lat="44.64939" lon="0.88543">
        <ele>169</ele>
        <time>2012-07-29T08:21:12Z</time>
      </trkpt>
      <trkpt lat="44.64888" lon="0.88542">
        <ele>166</ele>
        <time>2012-07-29T08:21:18Z</time>
      </trkpt>
      <trkpt lat="44.64845" lon="0.88553">
        <ele>163</ele>
        <time>2012-07-29T08:21:24Z</time>
      </trkpt>
      <trkpt lat="44.64816" lon="0.88552">
        <ele>163</ele>
        <time>2012-07-29T08:21:30Z</time>
      </trkpt>
      <trkpt lat="44.64772" lon="0.8855">
        <ele>163</ele>
        <time>2012-07-29T08:21:36Z</time>
      </trkpt>
      <trkpt lat="44.64745" lon="0.88542">
        <ele>163</ele>
        <time>2012-07-29T08:21:42Z</time>
      </trkpt>
      <trkpt lat="44.64721" lon="0.88537">
        <ele>164</ele>
        <time>2012-07-29T08:21:48Z</time>
      </trkpt>
      <trkpt lat="44.64705" lon="0.88534">
        <ele>167</ele>
        <time>2012-07-29T08:21:54Z</time>
      </trkpt>
      <trkpt lat="44.64682" lon="0.8853">
        <ele>170</ele>
        <time>2012-07-29T08:22:00Z</time>
      </trkpt>
      <trkpt lat="44.64659" lon="0.88525">
        <ele>173</ele>
        <time>2012-07-29T08:22:06Z</time>
      </trkpt>
      <trkpt lat="44.64645" lon="0.88522">
        <ele>176</ele>
        <time>2012-07-29T08:22:12Z</time>
      </trkpt>
      <trkpt lat="44.64628" lon="0.88518">
        <ele>179</ele>
        <time>2012-07-29T08:22:18Z</time>
      </trkpt>
      <trkpt lat="44.64608" lon="0.88514">
        <ele>182</ele>
        <time>2012-07-29T08:22:24Z</time>
      </trkpt>
      <trkpt lat="44.64589" lon="0.8851">
        <ele>184</ele>
        <time>2012-07-29T08:22:30Z</time>
      </trkpt>
      <trkpt lat="44.64568" lon="0.88502">
        <ele>186</ele>
        <time>2012-07-29T08:22:37Z</time>
      </trkpt>
      <trkpt lat="44.64526" lon="0.88469">
        <ele>187</ele>
        <time>2012-07-29T08:22:44Z</time>
      </trkpt>
      <trkpt lat="44.64505" lon="0.88445">
        <ele>187</ele>
        <time>2012-07-29T08:22:50Z</time>
      </trkpt>
      <trkpt lat="44.64492" lon="0.88429">
        <ele>190</ele>
        <time>2012-07-29T08:22:56Z</time>
      </trkpt>
      <trkpt lat="44.64468" lon="0.88402">
        <ele>192</ele>
        <time>2012-07-29T08:23:02Z</time>
      </trkpt>
      <trkpt lat="44.64439" lon="0.8838">
        <ele>193</ele>
        <time>2012-07-29T08:23:08Z</time>
      </trkpt>
      <trkpt lat="44.64406" lon="0.8836">
        <ele>193</ele>
        <time>2012-07-29T08:23:14Z</time>
      </trkpt>
      <trkpt lat="44.64375" lon="0.88341">
        <ele>193</ele>
        <time>2012-07-29T08:23:21Z</time>
      </trkpt>
      <trkpt lat="44.64341" lon="0.88318">
        <ele>193</ele>
        <time>2012-07-29T08:23:27Z</time>
      </trkpt>
      <trkpt lat="44.64301" lon="0.88291">
        <ele>191</ele>
        <time>2012-07-29T08:23:33Z</time>
      </trkpt>
      <trkpt lat="44.6423" lon="0.88252">
        <ele>188</ele>
        <time>2012-07-29T08:23:39Z</time>
      </trkpt>
      <trkpt lat="44.64176" lon="0.88226">
        <ele>186</ele>
        <time>2012-07-29T08:23:45Z</time>
      </trkpt>
      <trkpt lat="44.64119" lon="0.88195">
        <ele>182</ele>
        <time>2012-07-29T08:23:51Z</time>
      </trkpt>
      <trkpt lat="44.64085" lon="0.88173">
        <ele>177</ele>
        <time>2012-07-29T08:23:57Z</time>
      </trkpt>
      <trkpt lat="44.64038" lon="0.88145">
        <ele>174</ele>
        <time>2012-07-29T08:24:03Z</time>
      </trkpt>
      <trkpt lat="44.63991" lon="0.88127">
        <ele>171</ele>
        <time>2012-07-29T08:24:09Z</time>
      </trkpt>
      <trkpt lat="44.63947" lon="0.88115">
        <ele>171</ele>
        <time>2012-07-29T08:24:15Z</time>
      </trkpt>
      <trkpt lat="44.63908" lon="0.88099">
        <ele>171</ele>
        <time>2012-07-29T08:24:22Z</time>
      </trkpt>
      <trkpt lat="44.63874" lon="0.88087">
        <ele>173</ele>
        <time>2012-07-29T08:24:28Z</time>
      </trkpt>
      <trkpt lat="44.63835" lon="0.88072">
        <ele>176</ele>
        <time>2012-07-29T08:24:34Z</time>
      </trkpt>
      <trkpt lat="44.63811" lon="0.88061">
        <ele>178</ele>
        <time>2012-07-29T08:24:40Z</time>
      </trkpt>
      <trkpt lat="44.63797" lon="0.88052">
        <ele>181</ele>
        <time>2012-07-29T08:24:46Z</time>
      </trkpt>
      <trkpt lat="44.63776" lon="0.88038">
        <ele>184</ele>
        <time>2012-07-29T08:24:52Z</time>
      </trkpt>
      <trkpt lat="44.63754" lon="0.88024">
        <ele>187</ele>
        <time>2012-07-29T08:24:58Z</time>
      </trkpt>
      <trkpt lat="44.63731" lon="0.8801">
        <ele>190</ele>
        <time>2012-07-29T08:25:05Z</time>
      </trkpt>
      <trkpt lat="44.63706" lon="0.87997">
        <ele>193</ele>
        <time>2012-07-29T08:25:11Z</time>
      </trkpt>
      <trkpt lat="44.63668" lon="0.87978">
        <ele>193</ele>
        <time>2012-07-29T08:25:17Z</time>
      </trkpt>
      <trkpt lat="44.63645" lon="0.87965">
        <ele>193</ele>
        <time>2012-07-29T08:25:23Z</time>
      </trkpt>
      <trkpt lat="44.63636" lon="0.8796">
        <ele>193</ele>
        <time>2012-07-29T08:25:29Z</time>
      </trkpt>
      <trkpt lat="44.63619" lon="0.87948">
        <ele>193</ele>
        <time>2012-07-29T08:25:36Z</time>
      </trkpt>
      <trkpt lat="44.636" lon="0.8793">
        <ele>193</ele>
        <time>2012-07-29T08:25:41Z</time>
      </trkpt>
      <trkpt lat="44.63575" lon="0.87904">
        <ele>193</ele>
        <time>2012-07-29T08:25:47Z</time>
      </trkpt>
      <trkpt lat="44.63548" lon="0.87875">
        <ele>193</ele>
        <time>2012-07-29T08:25:53Z</time>
      </trkpt>
      <trkpt lat="44.63523" lon="0.87847">
        <ele>191</ele>
        <time>2012-07-29T08:26:00Z</time>
      </trkpt>
      <trkpt lat="44.63509" lon="0.87833">
        <ele>189</ele>
        <time>2012-07-29T08:26:06Z</time>
      </trkpt>
      <trkpt lat="44.63506" lon="0.87831">
        <ele>189</ele>
        <time>2012-07-29T08:26:14Z</time>
      </trkpt>
      <trkpt lat="44.63504" lon="0.87829">
        <ele>189</ele>
        <time>2012-07-29T08:26:26Z</time>
      </trkpt>
      <trkpt lat="44.63502" lon="0.87832">
        <ele>189</ele>
        <time>2012-07-29T08:26:32Z</time>
      </trkpt>
      <trkpt lat="44.63499" lon="0.87832">
        <ele>187</ele>
        <time>2012-07-29T08:26:39Z</time>
      </trkpt>
      <trkpt lat="44.635" lon="0.87831">
        <ele>181</ele>
        <time>2012-07-29T08:27:00Z</time>
      </trkpt>
      <trkpt lat="44.63501" lon="0.87829">
        <ele>181</ele>
        <time>2012-07-29T08:27:14Z</time>
      </trkpt>
      <trkpt lat="44.63497" lon="0.87831">
        <ele>182</ele>
        <time>2012-07-29T08:27:21Z</time>
      </trkpt>
      <trkpt lat="44.63475" lon="0.87833">
        <ele>183</ele>
        <time>2012-07-29T08:27:29Z</time>
      </trkpt>
      <trkpt lat="44.63454" lon="0.8783">
        <ele>184</ele>
        <time>2012-07-29T08:27:35Z</time>
      </trkpt>
      <trkpt lat="44.6342" lon="0.87827">
        <ele>186</ele>
        <time>2012-07-29T08:27:41Z</time>
      </trkpt>
      <trkpt lat="44.63408" lon="0.87827">
        <ele>188</ele>
        <time>2012-07-29T08:27:47Z</time>
      </trkpt>
      <trkpt lat="44.63382" lon="0.87826">
        <ele>190</ele>
        <time>2012-07-29T08:27:53Z</time>
      </trkpt>
      <trkpt lat="44.6336" lon="0.87827">
        <ele>191</ele>
        <time>2012-07-29T08:27:59Z</time>
      </trkpt>
      <trkpt lat="44.63337" lon="0.87826">
        <ele>193</ele>
        <time>2012-07-29T08:28:05Z</time>
      </trkpt>
      <trkpt lat="44.63313" lon="0.87822">
        <ele>193</ele>
        <time>2012-07-29T08:28:12Z</time>
      </trkpt>
      <trkpt lat="44.63285" lon="0.87821">
        <ele>193</ele>
        <time>2012-07-29T08:28:18Z</time>
      </trkpt>
      <trkpt lat="44.63241" lon="0.87816">
        <ele>193</ele>
        <time>2012-07-29T08:28:24Z</time>
      </trkpt>
      <trkpt lat="44.63205" lon="0.87799">
        <ele>193</ele>
        <time>2012-07-29T08:28:31Z</time>
      </trkpt>
      <trkpt lat="44.63189" lon="0.87792">
        <ele>192</ele>
        <time>2012-07-29T08:28:37Z</time>
      </trkpt>
      <trkpt lat="44.63152" lon="0.87771">
        <ele>191</ele>
        <time>2012-07-29T08:28:43Z</time>
      </trkpt>
      <trkpt lat="44.63128" lon="0.87755">
        <ele>191</ele>
        <time>2012-07-29T08:28:49Z</time>
      </trkpt>
      <trkpt lat="44.63103" lon="0.87739">
        <ele>191</ele>
        <time>2012-07-29T08:28:55Z</time>
      </trkpt>
      <trkpt lat="44.63079" lon="0.87726">
        <ele>191</ele>
        <time>2012-07-29T08:29:02Z</time>
      </trkpt>
      <trkpt lat="44.63044" lon="0.87706">
        <ele>191</ele>
        <time>2012-07-29T08:29:08Z</time>
      </trkpt>
      <trkpt lat="44.62993" lon="0.87676">
        <ele>191</ele>
        <time>2012-07-29T08:29:14Z</time>
      </trkpt>
      <trkpt lat="44.62984" lon="0.87678">
        <ele>190</ele>
        <time>2012-07-29T08:29:20Z</time>
      </trkpt>
      <trkpt lat="44.62981" lon="0.87708">
        <ele>190</ele>
        <time>2012-07-29T08:29:27Z</time>
      </trkpt>
      <trkpt lat="44.62976" lon="0.87739">
        <ele>189</ele>
        <time>2012-07-29T08:29:34Z</time>
      </trkpt>
      <trkpt lat="44.62966" lon="0.87783">
        <ele>187</ele>
        <time>2012-07-29T08:29:40Z</time>
      </trkpt>
      <trkpt lat="44.6296" lon="0.87816">
        <ele>186</ele>
        <time>2012-07-29T08:29:46Z</time>
      </trkpt>
      <trkpt lat="44.62955" lon="0.87837">
        <ele>185</ele>
        <time>2012-07-29T08:29:52Z</time>
      </trkpt>
      <trkpt lat="44.62938" lon="0.87867">
        <ele>185</ele>
        <time>2012-07-29T08:30:00Z</time>
      </trkpt>
      <trkpt lat="44.6291" lon="0.87884">
        <ele>185</ele>
        <time>2012-07-29T08:30:06Z</time>
      </trkpt>
      <trkpt lat="44.62881" lon="0.87902">
        <ele>185</ele>
        <time>2012-07-29T08:30:12Z</time>
      </trkpt>
      <trkpt lat="44.62868" lon="0.87899">
        <ele>185</ele>
        <time>2012-07-29T08:30:19Z</time>
      </trkpt>
      <trkpt lat="44.62843" lon="0.87881">
        <ele>185</ele>
        <time>2012-07-29T08:30:26Z</time>
      </trkpt>
      <trkpt lat="44.62804" lon="0.8791">
        <ele>184</ele>
        <time>2012-07-29T08:30:35Z</time>
      </trkpt>
      <trkpt lat="44.62771" lon="0.87959">
        <ele>182</ele>
        <time>2012-07-29T08:30:40Z</time>
      </trkpt>
      <trkpt lat="44.62746" lon="0.87993">
        <ele>178</ele>
        <time>2012-07-29T08:30:47Z</time>
      </trkpt>
      <trkpt lat="44.62722" lon="0.88021">
        <ele>175</ele>
        <time>2012-07-29T08:30:53Z</time>
      </trkpt>
      <trkpt lat="44.62691" lon="0.88052">
        <ele>173</ele>
        <time>2012-07-29T08:30:59Z</time>
      </trkpt>
      <trkpt lat="44.62683" lon="0.88065">
        <ele>173</ele>
        <time>2012-07-29T08:31:05Z</time>
      </trkpt>
      <trkpt lat="44.62667" lon="0.88113">
        <ele>173</ele>
        <time>2012-07-29T08:31:12Z</time>
      </trkpt>
      <trkpt lat="44.62663" lon="0.88126">
        <ele>175</ele>
        <time>2012-07-29T08:31:18Z</time>
      </trkpt>
      <trkpt lat="44.62642" lon="0.88163">
        <ele>178</ele>
        <time>2012-07-29T08:31:25Z</time>
      </trkpt>
      <trkpt lat="44.62584" lon="0.88205">
        <ele>180</ele>
        <time>2012-07-29T08:31:31Z</time>
      </trkpt>
      <trkpt lat="44.62554" lon="0.88222">
        <ele>181</ele>
        <time>2012-07-29T08:31:38Z</time>
      </trkpt>
      <trkpt lat="44.62506" lon="0.88206">
        <ele>176</ele>
        <time>2012-07-29T08:31:46Z</time>
      </trkpt>
      <trkpt lat="44.62475" lon="0.88199">
        <ele>173</ele>
        <time>2012-07-29T08:31:52Z</time>
      </trkpt>
      <trkpt lat="44.6244" lon="0.88239">
        <ele>168</ele>
        <time>2012-07-29T08:32:00Z</time>
      </trkpt>
      <trkpt lat="44.62402" lon="0.88193">
        <ele>165</ele>
        <time>2012-07-29T08:32:08Z</time>
      </trkpt>
      <trkpt lat="44.62375" lon="0.88236">
        <ele>164</ele>
        <time>2012-07-29T08:32:16Z</time>
      </trkpt>
      <trkpt lat="44.62349" lon="0.88284">
        <ele>162</ele>
        <time>2012-07-29T08:32:22Z</time>
      </trkpt>
      <trkpt lat="44.62305" lon="0.88292">
        <ele>160</ele>
        <time>2012-07-29T08:32:29Z</time>
      </trkpt>
      <trkpt lat="44.62258" lon="0.88305">
        <ele>159</ele>
        <time>2012-07-29T08:32:35Z</time>
      </trkpt>
      <trkpt lat="44.62241" lon="0.88317">
        <ele>159</ele>
        <time>2012-07-29T08:32:41Z</time>
      </trkpt>
      <trkpt lat="44.62219" lon="0.88314">
        <ele>159</ele>
        <time>2012-07-29T08:32:50Z</time>
      </trkpt>
      <trkpt lat="44.62194" lon="0.88316">
        <ele>159</ele>
        <time>2012-07-29T08:32:57Z</time>
      </trkpt>
      <trkpt lat="44.62175" lon="0.88317">
        <ele>159</ele>
        <time>2012-07-29T08:33:05Z</time>
      </trkpt>
      <trkpt lat="44.62162" lon="0.88312">
        <ele>159</ele>
        <time>2012-07-29T08:33:11Z</time>
      </trkpt>
      <trkpt lat="44.62141" lon="0.88298">
        <ele>159</ele>
        <time>2012-07-29T08:33:18Z</time>
      </trkpt>
      <trkpt lat="44.62128" lon="0.8827">
        <ele>159</ele>
        <time>2012-07-29T08:33:25Z</time>
      </trkpt>
      <trkpt lat="44.62109" lon="0.8824">
        <ele>163</ele>
        <time>2012-07-29T08:33:34Z</time>
      </trkpt>
      <trkpt lat="44.62091" lon="0.8825">
        <ele>164</ele>
        <time>2012-07-29T08:33:41Z</time>
      </trkpt>
      <trkpt lat="44.62062" lon="0.88257">
        <ele>164</ele>
        <time>2012-07-29T08:33:48Z</time>
      </trkpt>
      <trkpt lat="44.62044" lon="0.88266">
        <ele>163</ele>
        <time>2012-07-29T08:33:56Z</time>
      </trkpt>
      <trkpt lat="44.62021" lon="0.88273">
        <ele>163</ele>
        <time>2012-07-29T08:34:02Z</time>
      </trkpt>
      <trkpt lat="44.61996" lon="0.88283">
        <ele>162</ele>
        <time>2012-07-29T08:34:08Z</time>
      </trkpt>
      <trkpt lat="44.61976" lon="0.88291">
        <ele>162</ele>
        <time>2012-07-29T08:34:15Z</time>
      </trkpt>
      <trkpt lat="44.61952" lon="0.88295">
        <ele>164</ele>
        <time>2012-07-29T08:34:21Z</time>
      </trkpt>
      <trkpt lat="44.61943" lon="0.88295">
        <ele>166</ele>
        <time>2012-07-29T08:34:27Z</time>
      </trkpt>
      <trkpt lat="44.61906" lon="0.88318">
        <ele>169</ele>
        <time>2012-07-29T08:34:35Z</time>
      </trkpt>
      <trkpt lat="44.61896" lon="0.88323">
        <ele>171</ele>
        <time>2012-07-29T08:34:40Z</time>
      </trkpt>
      <trkpt lat="44.61879" lon="0.88329">
        <ele>174</ele>
        <time>2012-07-29T08:34:46Z</time>
      </trkpt>
      <trkpt lat="44.61856" lon="0.88352">
        <ele>181</ele>
        <time>2012-07-29T08:34:55Z</time>
      </trkpt>
      <trkpt lat="44.61845" lon="0.88357">
        <ele>184</ele>
        <time>2012-07-29T08:35:02Z</time>
      </trkpt>
      <trkpt lat="44.61823" lon="0.88389">
        <ele>187</ele>
        <time>2012-07-29T08:35:10Z</time>
      </trkpt>
      <trkpt lat="44.6181" lon="0.88401">
        <ele>191</ele>
        <time>2012-07-29T08:35:16Z</time>
      </trkpt>
      <trkpt lat="44.61801" lon="0.88404">
        <ele>192</ele>
        <time>2012-07-29T08:35:23Z</time>
      </trkpt>
      <trkpt lat="44.61785" lon="0.88414">
        <ele>194</ele>
        <time>2012-07-29T08:35:29Z</time>
      </trkpt>
      <trkpt lat="44.61779" lon="0.88416">
        <ele>197</ele>
        <time>2012-07-29T08:35:35Z</time>
      </trkpt>
      <trkpt lat="44.61771" lon="0.88422">
        <ele>198</ele>
        <time>2012-07-29T08:35:42Z</time>
      </trkpt>
      <trkpt lat="44.61765" lon="0.88427">
        <ele>198</ele>
        <time>2012-07-29T08:35:50Z</time>
      </trkpt>
      <trkpt lat="44.61755" lon="0.88432">
        <ele>199</ele>
        <time>2012-07-29T08:35:57Z</time>
      </trkpt>
      <trkpt lat="44.61745" lon="0.8844">
        <ele>199</ele>
        <time>2012-07-29T08:36:04Z</time>
      </trkpt>
      <trkpt lat="44.61736" lon="0.8844">
        <ele>199</ele>
        <time>2012-07-29T08:36:10Z</time>
      </trkpt>
      <trkpt lat="44.61727" lon="0.88444">
        <ele>201</ele>
        <time>2012-07-29T08:36:18Z</time>
      </trkpt>
      <trkpt lat="44.6172" lon="0.88451">
        <ele>203</ele>
        <time>2012-07-29T08:36:24Z</time>
      </trkpt>
      <trkpt lat="44.61712" lon="0.88458">
        <ele>204</ele>
        <time>2012-07-29T08:36:31Z</time>
      </trkpt>
      <trkpt lat="44.61705" lon="0.88463">
        <ele>204</ele>
        <time>2012-07-29T08:36:39Z</time>
      </trkpt>
      <trkpt lat="44.61699" lon="0.88465">
        <ele>200</ele>
        <time>2012-07-29T08:36:49Z</time>
      </trkpt>
      <trkpt lat="44.61697" lon="0.88466">
        <ele>196</ele>
        <time>2012-07-29T08:37:04Z</time>
      </trkpt>
      <trkpt lat="44.61694" lon="0.88469">
        <ele>196</ele>
        <time>2012-07-29T08:37:13Z</time>
      </trkpt>
      <trkpt lat="44.6169" lon="0.88469">
        <ele>196</ele>
        <time>2012-07-29T08:37:22Z</time>
      </trkpt>
      <trkpt lat="44.61692" lon="0.88469">
        <ele>198</ele>
        <time>2012-07-29T08:37:31Z</time>
      </trkpt>
      <trkpt lat="44.61693" lon="0.8847">
        <ele>198</ele>
        <time>2012-07-29T08:37:38Z</time>
      </trkpt>
      <trkpt lat="44.61695" lon="0.88471">
        <ele>198</ele>
        <time>2012-07-29T08:37:49Z</time>
      </trkpt>
      <trkpt lat="44.61696" lon="0.88471">
        <ele>198</ele>
        <time>2012-07-29T08:37:56Z</time>
      </trkpt>
      <trkpt lat="44.61698" lon="0.88469">
        <ele>197</ele>
        <time>2012-07-29T08:38:05Z</time>
      </trkpt>
      <trkpt lat="44.61694" lon="0.88469">
        <ele>197</ele>
        <time>2012-07-29T08:38:12Z</time>
      </trkpt>
      <trkpt lat="44.61686" lon="0.88463">
        <ele>197</ele>
        <time>2012-07-29T08:38:18Z</time>
      </trkpt>
      <trkpt lat="44.61677" lon="0.88458">
        <ele>196</ele>
        <time>2012-07-29T08:38:25Z</time>
      </trkpt>
      <trkpt lat="44.61656" lon="0.88449">
        <ele>195</ele>
        <time>2012-07-29T08:38:31Z</time>
      </trkpt>
      <trkpt lat="44.61641" lon="0.88448">
        <ele>193</ele>
        <time>2012-07-29T08:38:37Z</time>
      </trkpt>
      <trkpt lat="44.61604" lon="0.8845">
        <ele>193</ele>
        <time>2012-07-29T08:38:44Z</time>
      </trkpt>
      <trkpt lat="44.61593" lon="0.8845">
        <ele>193</ele>
        <time>2012-07-29T08:38:50Z</time>
      </trkpt>
      <trkpt lat="44.61563" lon="0.8845">
        <ele>193</ele>
        <time>2012-07-29T08:38:56Z</time>
      </trkpt>
      <trkpt lat="44.61537" lon="0.8845">
        <ele>196</ele>
        <time>2012-07-29T08:39:02Z</time>
      </trkpt>
      <trkpt lat="44.6151" lon="0.88453">
        <ele>199</ele>
        <time>2012-07-29T08:39:09Z</time>
      </trkpt>
      <trkpt lat="44.61468" lon="0.88468">
        <ele>202</ele>
        <time>2012-07-29T08:39:15Z</time>
      </trkpt>
      <trkpt lat="44.61449" lon="0.88472">
        <ele>204</ele>
        <time>2012-07-29T08:39:21Z</time>
      </trkpt>
      <trkpt lat="44.61394" lon="0.88472">
        <ele>204</ele>
        <time>2012-07-29T08:39:28Z</time>
      </trkpt>
      <trkpt lat="44.61365" lon="0.88489">
        <ele>204</ele>
        <time>2012-07-29T08:39:35Z</time>
      </trkpt>
      <trkpt lat="44.61318" lon="0.88525">
        <ele>200</ele>
        <time>2012-07-29T08:39:42Z</time>
      </trkpt>
      <trkpt lat="44.61272" lon="0.88557">
        <ele>194</ele>
        <time>2012-07-29T08:39:48Z</time>
      </trkpt>
      <trkpt lat="44.61221" lon="0.88594">
        <ele>189</ele>
        <time>2012-07-29T08:39:54Z</time>
      </trkpt>
      <trkpt lat="44.61177" lon="0.8863">
        <ele>186</ele>
        <time>2012-07-29T08:40:00Z</time>
      </trkpt>
      <trkpt lat="44.61128" lon="0.88667">
        <ele>182</ele>
        <time>2012-07-29T08:40:08Z</time>
      </trkpt>
      <trkpt lat="44.61096" lon="0.8863">
        <ele>179</ele>
        <time>2012-07-29T08:40:15Z</time>
      </trkpt>
      <trkpt lat="44.61079" lon="0.88609">
        <ele>177</ele>
        <time>2012-07-29T08:40:21Z</time>
      </trkpt>
      <trkpt lat="44.6105" lon="0.88579">
        <ele>177</ele>
        <time>2012-07-29T08:40:27Z</time>
      </trkpt>
      <trkpt lat="44.61041" lon="0.88601">
        <ele>177</ele>
        <time>2012-07-29T08:40:36Z</time>
      </trkpt>
      <trkpt lat="44.61041" lon="0.88692">
        <ele>175</ele>
        <time>2012-07-29T08:40:44Z</time>
      </trkpt>
      <trkpt lat="44.61032" lon="0.88728">
        <ele>171</ele>
        <time>2012-07-29T08:40:51Z</time>
      </trkpt>
      <trkpt lat="44.6101" lon="0.88748">
        <ele>169</ele>
        <time>2012-07-29T08:40:58Z</time>
      </trkpt>
      <trkpt lat="44.60952" lon="0.88795">
        <ele>169</ele>
        <time>2012-07-29T08:41:04Z</time>
      </trkpt>
      <trkpt lat="44.60937" lon="0.8881">
        <ele>170</ele>
        <time>2012-07-29T08:41:10Z</time>
      </trkpt>
      <trkpt lat="44.60907" lon="0.88834">
        <ele>172</ele>
        <time>2012-07-29T08:41:16Z</time>
      </trkpt>
      <trkpt lat="44.60883" lon="0.88852">
        <ele>172</ele>
        <time>2012-07-29T08:41:22Z</time>
      </trkpt>
      <trkpt lat="44.60856" lon="0.88869">
        <ele>175</ele>
        <time>2012-07-29T08:41:29Z</time>
      </trkpt>
      <trkpt lat="44.60818" lon="0.88896">
        <ele>178</ele>
        <time>2012-07-29T08:41:35Z</time>
      </trkpt>
      <trkpt lat="44.60768" lon="0.88926">
        <ele>178</ele>
        <time>2012-07-29T08:41:41Z</time>
      </trkpt>
      <trkpt lat="44.60725" lon="0.8895">
        <ele>178</ele>
        <time>2012-07-29T08:41:47Z</time>
      </trkpt>
      <trkpt lat="44.60675" lon="0.88974">
        <ele>178</ele>
        <time>2012-07-29T08:41:54Z</time>
      </trkpt>
      <trkpt lat="44.60656" lon="0.88979">
        <ele>178</ele>
        <time>2012-07-29T08:42:00Z</time>
      </trkpt>
      <trkpt lat="44.6061" lon="0.88991">
        <ele>178</ele>
        <time>2012-07-29T08:42:06Z</time>
      </trkpt>
      <trkpt lat="44.60568" lon="0.89005">
        <ele>178</ele>
        <time>2012-07-29T08:42:12Z</time>
      </trkpt>
      <trkpt lat="44.60513" lon="0.89046">
        <ele>177</ele>
        <time>2012-07-29T08:42:19Z</time>
      </trkpt>
      <trkpt lat="44.60497" lon="0.89055">
        <ele>175</ele>
        <time>2012-07-29T08:42:25Z</time>
      </trkpt>
      <trkpt lat="44.60453" lon="0.89077">
        <ele>173</ele>
        <time>2012-07-29T08:42:31Z</time>
      </trkpt>
      <trkpt lat="44.60409" lon="0.89108">
        <ele>172</ele>
        <time>2012-07-29T08:42:37Z</time>
      </trkpt>
      <trkpt lat="44.60341" lon="0.89152">
        <ele>169</ele>
        <time>2012-07-29T08:42:44Z</time>
      </trkpt>
      <trkpt lat="44.60309" lon="0.89198">
        <ele>165</ele>
        <time>2012-07-29T08:42:51Z</time>
      </trkpt>
      <trkpt lat="44.60262" lon="0.89236">
        <ele>161</ele>
        <time>2012-07-29T08:42:59Z</time>
      </trkpt>
      <trkpt lat="44.60212" lon="0.89259">
        <ele>161</ele>
        <time>2012-07-29T08:43:05Z</time>
      </trkpt>
      <trkpt lat="44.6014" lon="0.89302">
        <ele>161</ele>
        <time>2012-07-29T08:43:13Z</time>
      </trkpt>
      <trkpt lat="44.60126" lon="0.89316">
        <ele>161</ele>
        <time>2012-07-29T08:43:22Z</time>
      </trkpt>
      <trkpt lat="44.6012" lon="0.89383">
        <ele>159</ele>
        <time>2012-07-29T08:43:29Z</time>
      </trkpt>
      <trkpt lat="44.60115" lon="0.89401">
        <ele>157</ele>
        <time>2012-07-29T08:43:35Z</time>
      </trkpt>
      <trkpt lat="44.60098" lon="0.89441">
        <ele>155</ele>
        <time>2012-07-29T08:43:42Z</time>
      </trkpt>
      <trkpt lat="44.60085" lon="0.8947">
        <ele>155</ele>
        <time>2012-07-29T08:43:49Z</time>
      </trkpt>
      <trkpt lat="44.60073" lon="0.89499">
        <ele>155</ele>
        <time>2012-07-29T08:43:55Z</time>
      </trkpt>
      <trkpt lat="44.60019" lon="0.89527">
        <ele>158</ele>
        <time>2012-07-29T08:44:03Z</time>
      </trkpt>
      <trkpt lat="44.60003" lon="0.89561">
        <ele>159</ele>
        <time>2012-07-29T08:44:11Z</time>
      </trkpt>
      <trkpt lat="44.60001" lon="0.89559">
        <ele>158</ele>
        <time>2012-07-29T08:44:23Z</time>
      </trkpt>
      <trkpt lat="44.60001" lon="0.89557">
        <ele>158</ele>
        <time>2012-07-29T08:44:38Z</time>
      </trkpt>
      <trkpt lat="44.60001" lon="0.89557">
        <ele>158</ele>
        <time>2012-07-29T08:44:39Z</time>
      </trkpt>
    </trkseg>
  </trk>
</gpx>